Provisional Data: Mill Creek near Lancaster, PA


Please select a monitoring station.
Please select start date.
Please select start date.

Toggle Unit: C/F Toggle Unit: C/F
Sample Time Temperature (C) Temperature (F) Specific Conductivity (mS/cm) pH   Turbidity (NTU+) DO (mg/L)
5/4/2021 12:00:00 AM 16.95 62.51 0.71 8.16 1.54 6.66
5/4/2021 12:15:00 AM 16.92 62.456 0.709 8.16 1.38 6.75
5/4/2021 12:30:00 AM 16.9 62.42 0.709 8.15 2.28 6.55
5/4/2021 12:45:00 AM 16.87 62.366 0.708 8.14 2.09 6.7
5/4/2021 1:00:00 AM 16.83 62.294 0.708 8.14 2.77 5.71
5/4/2021 1:15:00 AM 16.8 62.24 0.707 8.13 1.67 6.55
5/4/2021 1:30:00 AM 16.76 62.168 0.706 8.12 1.69 6.67
5/4/2021 1:45:00 AM 16.72 62.096 0.7 8.12 1.19 6.62
5/4/2021 2:00:00 AM 16.68 62.024 0.705 8.12 3.34 6.57
5/4/2021 2:15:00 AM 16.65 61.97 0.704 8.12 2.5 6.61
5/4/2021 2:30:00 AM 16.61 61.898 0.704 8.11 1.38 6.55
5/4/2021 2:45:00 AM 16.57 61.826 0.704 8.1 1.26 6.65
5/4/2021 3:00:00 AM 16.53 61.754 0.704 8.1 1.49 6.65
5/4/2021 3:15:00 AM 16.48 61.664 0.704 8.1 1.98 6.77
5/4/2021 3:30:00 AM 16.44 61.592 0.703 8.1 1.9 6.8
5/4/2021 3:45:00 AM 16.4 61.52 0.703 8.1 3.09 6.71
5/4/2021 4:00:00 AM 16.35 61.43 0.702 8.1 1.88 6.94
5/4/2021 4:15:00 AM 16.29 61.322 0.698 8.09 3.33 6.96
5/4/2021 4:30:00 AM 16.23 61.214 0.698 8.09 5.65 7.01
5/4/2021 4:45:00 AM 16.18 61.124 0.692 8.09 14.83 6.81
5/4/2021 5:00:00 AM 16.14 61.052 0.691 8.09 4.93 7.1
5/4/2021 5:15:00 AM 16.1 60.98 0.693 8.09 3.73 6.99
5/4/2021 5:30:00 AM 16.05 60.89 0.695 8.09 4.74 6.67
5/4/2021 5:45:00 AM 16 60.8 0.685 8.09 5.82 6.81
5/4/2021 6:00:00 AM 15.95 60.71 0.673 8.09 9.1 6.67
5/4/2021 6:15:00 AM 15.94 60.692 0.664 8.08 7.39 6.75
5/4/2021 6:30:00 AM 15.94 60.692 0.659 8.07 6.41 7.09
5/4/2021 6:45:00 AM 15.96 60.728 0.644 8.07 8.09 7.03
5/4/2021 7:00:00 AM 15.98 60.764 0.638 8.07 9.16 6.95
5/4/2021 7:15:00 AM 16.01 60.818 0.634 8.06 9.08 6.97
5/4/2021 7:30:00 AM 16.04 60.872 0.63 8.06 6.8 7
5/4/2021 7:45:00 AM 16.06 60.908 0.627 8.06 10.63 6.59
5/4/2021 8:00:00 AM 16.09 60.962 0.627 8.06 7.87 6.15
5/4/2021 8:15:00 AM 16.12 61.016 0.627 8.06 6.12 6.64
5/4/2021 8:30:00 AM 16.14 61.052 0.636 8.07 5.76 6.94
5/4/2021 8:45:00 AM 16.16 61.088 0.634 8.07 4.48 6.84
5/4/2021 9:00:00 AM 16.18 61.124 0.635 8.08 4.7 5.92
5/4/2021 9:15:00 AM 16.22 61.196 0.635 8.09 4.1 6.95
5/4/2021 9:30:00 AM 16.27 61.286 0.64 8.11 3.79 7.35
5/4/2021 9:45:00 AM 16.34 61.412 0.636 8.13 4.18 7.47
5/4/2021 10:00:00 AM 16.41 61.538 0.636 8.15 3.29 7.77
5/4/2021 10:15:00 AM 16.5 61.7 0.637 8.17 2.79 8.03
5/4/2021 10:30:00 AM 16.64 61.952 0.631 8.2 2.69 8.49
5/4/2021 10:45:00 AM 16.91 62.438 0.641 8.22 4.21 8.48
5/4/2021 11:00:00 AM 17.12 62.816 0.636 8.25 2.84 8.69
5/4/2021 11:15:00 AM 17.3 63.14 0.635 8.28 3.02 9.02
5/4/2021 11:30:00 AM 17.51 63.518 0.641 8.3 2.82 9.23
5/4/2021 11:45:00 AM 17.74 63.932 0.638 8.32 3.56 9.43
5/4/2021 12:00:00 PM 17.96 64.328 0.644 8.34 3.06 9.91
5/4/2021 12:15:00 PM 18.2 64.76 0.642 8.37 2.57 9.9
5/4/2021 12:30:00 PM 18.42 65.156 0.641 8.39 2.38 9.99
5/4/2021 12:45:00 PM 18.57 65.426 0.641 8.41 2.44 9.84
5/4/2021 1:00:00 PM 18.66 65.588 0.639 8.43 1.85 10.55
5/4/2021 1:15:00 PM 18.77 65.786 0.642 8.44 2.48 10.26
5/4/2021 1:30:00 PM 18.86 65.948 0.643 8.44 2.01 10.83
5/4/2021 1:45:00 PM 18.94 66.092 0.643 8.46 3.99 10.86
5/4/2021 2:00:00 PM 19 66.2 0.639 8.46 4.27 10.22
5/4/2021 2:15:00 PM 19.08 66.344 0.639 8.47 2.93 10.41
5/4/2021 2:30:00 PM 19.2 66.56 0.641 8.48 1.78 10.57
5/4/2021 2:45:00 PM 19.31 66.758 0.632 8.5 3.36 11.05
5/4/2021 3:00:00 PM 19.42 66.956 0.633 8.51 2.3 11.19
5/4/2021 3:15:00 PM 19.58 67.244 0.635 8.52 2.63 11.25
5/4/2021 3:30:00 PM 19.67 67.406 0.638 8.54 1.46 10.79
5/4/2021 3:45:00 PM 19.64 67.352 0.639 8.54 1.51 11
5/4/2021 4:00:00 PM 19.73 67.514 0.638 8.53 1.43 10.77
5/4/2021 4:15:00 PM 19.86 67.748 0.638 8.53 1.71 10.81
5/4/2021 4:30:00 PM 19.81 67.658 0.637 8.53 2 10.55
5/4/2021 4:45:00 PM 19.89 67.802 0.637 8.53 1.81 10.46
5/4/2021 5:00:00 PM 19.92 67.856 0.637 8.53 2.06 10.55
5/4/2021 5:15:00 PM 19.88 67.784 0.637 8.53 1.41 10.36
5/4/2021 5:30:00 PM 19.89 67.802 0.638 8.52 1.53 10.09
5/4/2021 5:45:00 PM 19.94 67.892 0.637 8.51 1.22 9.97
5/4/2021 6:00:00 PM 19.93 67.874 0.637 8.5 2.04 9.76
5/4/2021 6:15:00 PM 19.95 67.91 0.637 8.49 2.1 9.51
5/4/2021 6:30:00 PM 19.97 67.946 0.636 8.48 3.49 9.27
5/4/2021 6:45:00 PM 19.98 67.964 0.637 8.46 1.38 9.05
5/4/2021 7:00:00 PM 19.99 67.982 0.636 8.45 1.5 8.88
5/4/2021 7:15:00 PM 19.98 67.964 0.638 8.43 1.76 8.68
5/4/2021 7:30:00 PM 19.98 67.964 0.639 8.42 1.33 8.52
5/4/2021 7:45:00 PM 19.95 67.91 0.638 8.4 1.41 8.32
5/4/2021 8:00:00 PM 19.92 67.856 0.637 8.38 1.41 8.14
5/4/2021 8:15:00 PM 19.88 67.784 0.637 8.36 1.31 7.94
5/4/2021 8:30:00 PM 19.83 67.694 0.638 8.34 1.48 7.75
5/4/2021 8:45:00 PM 19.78 67.604 0.636 8.32 3.21 7.54
5/4/2021 9:00:00 PM 19.73 67.514 0.636 8.3 1.72 7.38
5/4/2021 9:15:00 PM 19.68 67.424 0.636 8.28 2.9 7.23
5/4/2021 9:30:00 PM 19.62 67.316 0.637 8.26 2.57 7.07
5/4/2021 9:45:00 PM 19.55 67.19 0.637 8.24 2.29 6.89
5/4/2021 10:00:00 PM 19.48 67.064 0.636 8.22 2.5 6.95
5/4/2021 10:15:00 PM 19.41 66.938 0.637 8.21 2.55 6.81
5/4/2021 10:30:00 PM 19.34 66.812 0.636 8.19 2.04 6.75
5/4/2021 10:45:00 PM 19.28 66.704 0.637 8.17 3.37 6.61
5/4/2021 11:00:00 PM 19.21 66.578 0.637 8.15 4.82 6.58
5/4/2021 11:15:00 PM 19.14 66.452 0.638 8.14 2.24 6.5
5/4/2021 11:30:00 PM 19.07 66.326 0.637 8.13 3.89 6.42
5/4/2021 11:45:00 PM 19.01 66.218 0.638 8.11 8.29 6.46
5/5/2021 12:00:00 AM 18.94 66.092 0.636 8.1 2.31 6.29
5/5/2021 12:15:00 AM 18.87 65.966 0.637 8.09 3.26 6.33
5/5/2021 12:30:00 AM 18.81 65.858 0.635 8.08 3.1 6.19
5/5/2021 12:45:00 AM 18.74 65.732 0.636 8.06 1.53 6.28
5/5/2021 1:00:00 AM 18.68 65.624 0.635 8.05 3.67 5.5
5/5/2021 1:15:00 AM 18.61 65.498 0.635 8.04 2.34 6.15
5/5/2021 1:30:00 AM 18.55 65.39 0.637 8.04 3.43 6.26
5/5/2021 1:45:00 AM 18.48 65.264 0.636 8.03 1.9 5.45
5/5/2021 2:00:00 AM 18.42 65.156 0.637 8.03 1.68 4.43
5/5/2021 2:15:00 AM 18.35 65.03 0.637 8.02 1.47 5.94
5/5/2021 2:30:00 AM 18.29 64.922 0.638 8.02 2.3 3.64
5/5/2021 2:45:00 AM 18.23 64.814 0.639 8.02 2.45 6
5/5/2021 3:00:00 AM 18.17 64.706 0.638 8.02 29.48 6.22
5/5/2021 3:15:00 AM 18.1 64.58 0.638 8.02 1.41 6.29
5/5/2021 3:30:00 AM 18.04 64.472 0.639 8.02 3.02 6.03
5/5/2021 3:45:00 AM 17.98 64.364 0.639 8.02 3.69 4.59
5/5/2021 4:00:00 AM 17.92 64.256 0.641 8.01 2.4 3.78
5/5/2021 4:15:00 AM 17.87 64.166 0.642 8.01 2.9 3.67
5/5/2021 4:30:00 AM 17.82 64.076 0.642 8.01 2.92 2.76
5/5/2021 4:45:00 AM 17.77 63.986 0.643 8.01 1.84 6.11
5/5/2021 5:00:00 AM 17.72 63.896 0.644 8.01 1.54 6.31
5/5/2021 5:15:00 AM 17.67 63.806 0.644 8.01 3.15 4.94
5/5/2021 5:30:00 AM 17.63 63.734 0.645 8.02 2.29 6.37
5/5/2021 5:45:00 AM 17.59 63.662 0.646 8.01 1.94 6.33
5/5/2021 6:00:00 AM 17.55 63.59 0.647 8.02 2.11 5.84
5/5/2021 6:15:00 AM 17.51 63.518 0.648 8.01 1.71 4.26
5/5/2021 6:30:00 AM 17.48 63.464 0.648 8.02 1.9 6.08
5/5/2021 6:45:00 AM 17.44 63.392 0.649 8.02 1.68 6.37
5/5/2021 7:00:00 AM 17.42 63.356 0.649 8.02 1.66 6.54
5/5/2021 7:15:00 AM 17.39 63.302 0.65 8.02 2.92 6.57
5/5/2021 7:30:00 AM 17.37 63.266 0.65 8.03 1.49 6.61
5/5/2021 7:45:00 AM 17.36 63.248 0.651 8.03 2.02 6.64
5/5/2021 8:00:00 AM 17.34 63.212 0.651 8.04 1.12 6.71
5/5/2021 8:15:00 AM 17.33 63.194 0.651 8.04 2.16 6.76
5/5/2021 8:30:00 AM 17.32 63.176 0.651 8.04 1.69 6.84
5/5/2021 8:45:00 AM 17.32 63.176 0.651 8.05 2.16 6.87
5/5/2021 9:00:00 AM 17.33 63.194 0.651 8.05 1.27 6.97
5/5/2021 9:15:00 AM 17.34 63.212 0.651 8.06 2.12 7.12
5/5/2021 9:30:00 AM 17.35 63.23 0.65 8.07 1.69 7.26
5/5/2021 9:45:00 AM 17.37 63.266 0.65 8.08 1.71 7.25
5/5/2021 10:00:00 AM 17.39 63.302 0.65 8.09 1.24 7.47
5/5/2021 10:15:00 AM 17.42 63.356 0.651 8.09 1.35 7.53
5/5/2021 10:30:00 AM 17.5 63.5 0.65 8.11 1.22 7.82
5/5/2021 10:45:00 AM 17.52 63.536 0.65 8.13 1.66 8.04
5/5/2021 11:00:00 AM 17.51 63.518 0.649 8.13 1.87 8
5/5/2021 11:15:00 AM 17.51 63.518 0.649 8.14 1.5 7.9
5/5/2021 11:30:00 AM 17.55 63.59 0.649 8.15 1.73 8.02
5/5/2021 11:45:00 AM 17.62 63.716 0.648 8.17 2.15 8.35
5/5/2021 12:00:00 PM 17.73 63.914 0.648 8.19 1.29 8.67
5/5/2021 12:15:00 PM 18.02 64.436 0.647 8.22 1.11 9.03
5/5/2021 12:30:00 PM 18.22 64.796 0.647 8.25 1.41 9.44
5/5/2021 12:45:00 PM 18.42 65.156 0.647 8.28 2.54 9.64
5/5/2021 1:00:00 PM 18.55 65.39 0.647 8.3 2.34 9.89
5/5/2021 1:15:00 PM 18.68 65.624 0.646 8.32 2.55 10.04
5/5/2021 1:30:00 PM 18.82 65.876 0.646 8.34 2.21 10.22
5/5/2021 1:45:00 PM 18.86 65.948 0.646 8.35 1.57 10.2
5/5/2021 2:00:00 PM 18.91 66.038 0.644 8.37 1.63 10.27
5/5/2021 2:15:00 PM 18.92 66.056 0.645 8.38 1.63 10.26
5/5/2021 2:30:00 PM 19.04 66.272 0.643 8.39 1.22 10.26
5/5/2021 2:45:00 PM 19.17 66.506 0.642 8.41 2.49 10.46
5/5/2021 3:00:00 PM 19.14 66.452 0.642 8.42 1.8 10.54
5/5/2021 3:15:00 PM 19.31 66.758 0.641 8.43 1.66 10.45
5/5/2021 3:30:00 PM 19.36 66.848 0.641 8.44 1.67 10.38
5/5/2021 3:45:00 PM 19.39 66.902 0.64 8.45 2.1 10.62
5/5/2021 4:00:00 PM 19.36 66.848 0.64 8.46 1.54 10.53
5/5/2021 4:15:00 PM 19.5 67.1 0.64 8.47 2 10.44
5/5/2021 4:30:00 PM 19.53 67.154 0.634 8.47 1.77 10.39
5/5/2021 4:45:00 PM 19.49 67.082 0.636 8.48 8.3 10.1
5/5/2021 5:00:00 PM 19.47 67.046 0.635 8.47 2.17 9.85
5/5/2021 5:15:00 PM 19.47 67.046 0.636 8.46 1.61 9.88
5/5/2021 5:30:00 PM 19.46 67.028 0.637 8.46 1.74 9.73
5/5/2021 5:45:00 PM 19.43 66.974 0.632 8.45 2.56 9.45
5/5/2021 6:00:00 PM 19.43 66.974 0.645 8.44 1.75 9.3
5/5/2021 6:15:00 PM 19.43 66.974 0.647 8.44 1.69 9
5/5/2021 6:30:00 PM 19.42 66.956 0.648 8.43 1.41 8.57
5/5/2021 6:45:00 PM 19.4 66.92 0.649 8.42 2.42 8.57
5/5/2021 7:00:00 PM 19.36 66.848 0.65 8.41 4.9 8.24
5/5/2021 7:15:00 PM 19.28 66.704 0.651 8.4 3.15 8.21
5/5/2021 7:30:00 PM 19.2 66.56 0.652 8.39 3.26 5.84
5/5/2021 7:45:00 PM 19.12 66.416 0.652 8.37 3.1 7.32
5/5/2021 8:00:00 PM 19.03 66.254 0.654 8.36 1.98 7.69
5/5/2021 8:15:00 PM 18.95 66.11 0.655 8.34 2.07 5.56
5/5/2021 8:30:00 PM 18.87 65.966 0.656 8.32 1.96 7.25
5/5/2021 8:45:00 PM 18.78 65.804 0.656 8.3 2.1 7.42
5/5/2021 9:00:00 PM 18.69 65.642 0.658 8.28 2.22 7.36
5/5/2021 9:15:00 PM 18.6 65.48 0.659 8.26 2.33 7.2
5/5/2021 9:30:00 PM 18.52 65.336 0.661 8.25 2.53 6.95
5/5/2021 9:45:00 PM 18.43 65.174 0.661 8.24 3.31 6.83
5/5/2021 10:00:00 PM 18.32 64.976 0.662 8.22 18.56 7.05
5/5/2021 10:15:00 PM 18.23 64.814 0.664 8.21 1.9 6.78
5/5/2021 10:30:00 PM 18.14 64.652 0.665 8.2 1.78 6.66
5/5/2021 10:45:00 PM 18.04 64.472 0.666 8.19 5.67 6.69
5/5/2021 11:00:00 PM 17.94 64.292 0.667 8.17 3.27 6.63
5/5/2021 11:15:00 PM 17.82 64.076 0.669 8.16 2.44 6.8
5/5/2021 11:30:00 PM 17.72 63.896 0.67 8.15 2.87 6.71
5/5/2021 11:45:00 PM 17.62 63.716 0.672 8.14 1.75 6.79
5/6/2021 12:00:00 AM 17.53 63.554 0.673 8.13 1.73 6.8
5/6/2021 12:15:00 AM 17.43 63.374 0.675 8.12 1.86 6.71
5/6/2021 12:30:00 AM 17.34 63.212 0.676 8.11 3.14 6.47
5/6/2021 12:45:00 AM 17.25 63.05 0.677 8.11 1166 6.4
5/6/2021 1:00:00 AM 17.15 62.87 0.677 8.1 1178 6.87
5/6/2021 1:15:00 AM 17.06 62.708 0.679 8.09 1021 6.84
5/6/2021 1:30:00 AM 16.97 62.546 0.679 8.09 956.7 6.89
5/6/2021 1:45:00 AM 16.9 62.42 0.68 8.08 905.4 6.87
5/6/2021 2:00:00 AM 16.82 62.276 0.68 8.08 870.9 6.88
5/6/2021 2:15:00 AM 16.74 62.132 0.68 8.08 842.7 6.87
5/6/2021 2:30:00 AM 16.66 61.988 0.681 8.07 820.3 6.86
5/6/2021 2:45:00 AM 16.58 61.844 0.681 8.07 804.3 6.87
5/6/2021 3:00:00 AM 16.49 61.682 0.681 8.06 796.1 6.88
5/6/2021 3:15:00 AM 16.41 61.538 0.682 8.07 787.8 6.91
5/6/2021 3:30:00 AM 16.33 61.394 0.682 8.06 784.5 6.94
5/6/2021 3:45:00 AM 16.26 61.268 0.682 8.06 779.2 6.94
5/6/2021 4:00:00 AM 16.18 61.124 0.682 8.06 774.8 6.95
5/6/2021 4:15:00 AM 16.11 60.998 0.683 8.06 775.1 7
5/6/2021 4:30:00 AM 16.03 60.854 0.683 8.08 785.3 6.99
5/6/2021 4:45:00 AM 15.96 60.728 0.682 8.07 792.6 7.06
5/6/2021 5:00:00 AM 15.89 60.602 0.684 8.08 801.8 7.08
5/6/2021 5:15:00 AM 15.82 60.476 0.684 8.08 810.6 7.11
5/6/2021 5:30:00 AM 15.76 60.368 0.684 8.08 833.9 7.15
5/6/2021 5:45:00 AM 15.69 60.242 0.687 8.09 878.4 7.16
5/6/2021 6:00:00 AM 15.63 60.134 0.688 8.08 943.2 7.19
5/6/2021 6:15:00 AM 15.58 60.044 0.689 8.09 1041 7.2
5/6/2021 6:30:00 AM 15.53 59.954 0.69 8.09 1357 7.26
5/6/2021 6:45:00 AM 15.48 59.864 0.691 8.09 2291 7.33
5/6/2021 7:00:00 AM 15.44 59.792 0.692 8.1 3.02 7.35
5/6/2021 7:15:00 AM 15.4 59.72 0.693 8.11 2.63 7.18
5/6/2021 7:30:00 AM 15.36 59.648 0.687 8.11 3.27 7.12
5/6/2021 7:45:00 AM 15.31 59.558 0.693 8.12 2.18 7.39
5/6/2021 8:00:00 AM 15.27 59.486 0.694 8.12 2.59 7.25
5/6/2021 8:15:00 AM 15.23 59.414 0.694 8.13 2.77 6.71
5/6/2021 8:30:00 AM 15.22 59.396 0.695 8.14 3.06 7.43
5/6/2021 8:45:00 AM 15.2 59.36 0.695 8.15 3.11 7.75
5/6/2021 9:00:00 AM 15.2 59.36 0.696 8.15 4.47 7.16
5/6/2021 9:15:00 AM 15.25 59.45 0.695 8.17 2.17 7.91
5/6/2021 9:30:00 AM 15.28 59.504 0.695 8.19 2.39 8.09
5/6/2021 9:45:00 AM 15.33 59.594 0.695 8.21 2.38 8.47
5/6/2021 10:00:00 AM 15.36 59.648 0.693 8.24 3.94 8.51
5/6/2021 10:15:00 AM 15.43 59.774 0.691 8.26 15.67 7.95
5/6/2021 10:30:00 AM 15.65 60.17 0.687 8.27 4.15 8.24
5/6/2021 10:45:00 AM 15.86 60.548 0.689 8.3 4.47 8.92
5/6/2021 11:00:00 AM 16.04 60.872 0.687 8.35 3.72 8.75
5/6/2021 11:15:00 AM 16.19 61.142 0.687 8.37 7.15 7.99
5/6/2021 11:30:00 AM 16.29 61.322 0.688 8.39 4.13 8.64
5/6/2021 11:45:00 AM 16.49 61.682 0.686 8.4 3.73 10.25
5/6/2021 12:00:00 PM 16.73 62.114 0.686 8.42 3.82 10.49
5/6/2021 12:15:00 PM 16.92 62.456 0.685 8.45 5.66 10.68
5/6/2021 12:30:00 PM 17.13 62.834 0.684 8.47 4.95 11.06
5/6/2021 12:45:00 PM 17.28 63.104 0.684 8.49 4.89 11.11
5/6/2021 1:00:00 PM 17.42 63.356 0.68 8.51 3.88 11.31
5/6/2021 1:15:00 PM 17.54 63.572 0.683 8.52 5.03 11.39
5/6/2021 1:30:00 PM 17.66 63.788 0.684 8.54 5.33 11.43
5/6/2021 1:45:00 PM 17.76 63.968 0.684 8.55 5.45 11.54
5/6/2021 2:00:00 PM 17.87 64.166 0.685 8.56 4.99 11.65
5/6/2021 2:15:00 PM 17.98 64.364 0.685 8.56 3.61 11.65
5/6/2021 2:30:00 PM 18.08 64.544 0.686 8.58 5.08 11.72
5/6/2021 2:45:00 PM 18.13 64.634 0.685 8.58 5.11 11.72
5/6/2021 3:00:00 PM 18.2 64.76 0.686 8.59 3.48 11.69
5/6/2021 3:15:00 PM 18.27 64.886 0.685 8.6 4.21 11.39
5/6/2021 3:30:00 PM 18.32 64.976 0.687 8.61 3.41 11.88
5/6/2021 3:45:00 PM 18.34 65.012 0.687 8.62 2.62 11.9
5/6/2021 4:00:00 PM 18.33 64.994 0.688 8.63 2.84 11.83
5/6/2021 4:15:00 PM 18.28 64.904 0.688 8.63 3.45 11.82
5/6/2021 4:30:00 PM 18.26 64.868 0.688 8.63 3.46 11.74
5/6/2021 4:45:00 PM 18.25 64.85 0.689 8.65 3.65 11.71
5/6/2021 5:00:00 PM 18.22 64.796 0.69 8.66 3.5 11.6
5/6/2021 5:15:00 PM 18.2 64.76 0.69 8.65 4.03 11.45
5/6/2021 5:30:00 PM 18.16 64.688 0.691 8.65 3.21 11.29
5/6/2021 5:45:00 PM 18.14 64.652 0.693 8.65 3.06 11.11
5/6/2021 6:00:00 PM 18.13 64.634 0.692 8.65 4.29 11
5/6/2021 6:15:00 PM 18.1 64.58 0.689 8.65 3.9 10.85
5/6/2021 6:30:00 PM 18.06 64.508 0.695 8.65 5.1 10.6
5/6/2021 6:45:00 PM 18.04 64.472 0.694 8.64 2.6 10.37
5/6/2021 7:00:00 PM 18.01 64.418 0.691 8.63 3.22 10.19
5/6/2021 7:15:00 PM 17.96 64.328 0.692 8.62 4.11 10
5/6/2021 7:30:00 PM 17.91 64.238 0.695 8.6 4.71 9.78
5/6/2021 7:45:00 PM 17.85 64.13 0.698 8.58 4.35 9.55
5/6/2021 8:00:00 PM 17.78 64.004 0.699 8.56 6.66 9.29
5/6/2021 8:15:00 PM 17.71 63.878 0.698 8.54 3.36 9.12
5/6/2021 8:30:00 PM 17.63 63.734 0.701 8.5 4.15 8.94
5/6/2021 8:45:00 PM 17.56 63.608 0.7 8.47 3.98 8.68
5/6/2021 9:00:00 PM 17.48 63.464 0.701 8.45 4.73 8.48
5/6/2021 9:15:00 PM 17.41 63.338 0.703 8.42 8.08 8.34
5/6/2021 9:30:00 PM 17.34 63.212 0.702 8.39 4.19 8.19
5/6/2021 9:45:00 PM 17.25 63.05 0.706 8.37 5.15 7.7
5/6/2021 10:00:00 PM 17.17 62.906 0.706 8.35 5.1 7.9
5/6/2021 10:15:00 PM 17.08 62.744 0.705 8.32 4.05 7.8
5/6/2021 10:30:00 PM 16.98 62.564 0.705 8.29 3.33 7.65
5/6/2021 10:45:00 PM 16.89 62.402 0.706 8.26 2.94 7.56
5/6/2021 11:00:00 PM 16.79 62.222 0.706 8.24 3.45 6.38
5/6/2021 11:15:00 PM 16.68 62.024 0.708 8.21 9.37 7.09
5/6/2021 11:30:00 PM 16.59 61.862 0.708 8.19 4.33 7.31
5/6/2021 11:45:00 PM 16.49 61.682 0.707 8.17 3.09 7.3
5/7/2021 12:00:00 AM 16.4 61.52 0.709 8.16 5.76 7.16
5/7/2021 12:15:00 AM 16.31 61.358 0.71 8.15 3.02 7.18
5/7/2021 12:30:00 AM 16.21 61.178 0.709 8.14 3.14 7.13
5/7/2021 12:45:00 AM 16.12 61.016 0.711 8.12 4.7 7.16
5/7/2021 1:00:00 AM 16.02 60.836 0.711 8.12 2.32 7.12
5/7/2021 1:15:00 AM 15.92 60.656 0.711 8.1 4.07 7.1
5/7/2021 1:30:00 AM 15.83 60.494 0.711 8.09 2.95 7.12
5/7/2021 1:45:00 AM 15.73 60.314 0.713 8.07 5.27 7.05
5/7/2021 2:00:00 AM 15.64 60.152 0.711 8.06 3.47 7.06
5/7/2021 2:15:00 AM 15.55 59.99 0.712 8.05 3.24 7.07
5/7/2021 2:30:00 AM 15.46 59.828 0.715 8.04 3.58 7.12
5/7/2021 2:45:00 AM 15.37 59.666 0.713 8.02 3.99 7.06
5/7/2021 3:00:00 AM 15.28 59.504 0.715 8.01 6.53 7.09
5/7/2021 3:15:00 AM 15.19 59.342 0.715 8 2.89 7.14
5/7/2021 3:30:00 AM 15.11 59.198 0.714 8 4.36 7.11
5/7/2021 3:45:00 AM 15.02 59.036 0.714 7.99 5.9 7.13
5/7/2021 4:00:00 AM 14.94 58.892 0.712 7.98 3.19 7.11
5/7/2021 4:15:00 AM 14.86 58.748 0.714 7.97 3.86 7.12
5/7/2021 4:30:00 AM 14.78 58.604 0.714 7.97 2.4 7.2
5/7/2021 4:45:00 AM 14.69 58.442 0.715 7.96 2.62 7.22
5/7/2021 5:00:00 AM 14.61 58.298 0.714 7.95 4.21 7.17
5/7/2021 5:15:00 AM 14.53 58.154 0.714 7.96 3.16 7.22
5/7/2021 5:30:00 AM 14.45 58.01 0.715 7.95 2.71 7.26
5/7/2021 5:45:00 AM 14.37 57.866 0.714 7.95 4 7.22
5/7/2021 6:00:00 AM 14.3 57.74 0.716 7.94 3.54 7.28
5/7/2021 6:15:00 AM 14.23 57.614 0.718 7.94 4.19 7.25
5/7/2021 6:30:00 AM 14.16 57.488 0.714 7.95 3.34 7.32
5/7/2021 6:45:00 AM 14.09 57.362 0.712 7.94 3.1 7.33
5/7/2021 7:00:00 AM 14.04 57.272 0.712 7.94 2.19 7.41
5/7/2021 7:15:00 AM 13.98 57.164 0.714 7.94 3.19 7.5
5/7/2021 7:30:00 AM 13.94 57.092 0.714 7.95 3.22 7.59
5/7/2021 7:45:00 AM 13.9 57.02 0.714 7.96 1.71 7.65
5/7/2021 8:00:00 AM 13.88 56.984 0.714 7.97 2.14 7.76
5/7/2021 8:15:00 AM 13.91 57.038 0.714 7.99 2.35 7.94
5/7/2021 8:30:00 AM 13.93 57.074 0.713 8.03 4.32 8.11
5/7/2021 8:45:00 AM 13.91 57.038 0.714 8.07 4.12 8.34
5/7/2021 9:00:00 AM 13.9 57.02 0.714 8.11 3.27 8.38
5/7/2021 9:15:00 AM 13.93 57.074 0.712 8.15 2.79 8.51
5/7/2021 9:30:00 AM 14 57.2 0.718 8.21 2.86 8.7
5/7/2021 9:45:00 AM 14.07 57.326 0.712 8.28 2.31 9.06
5/7/2021 10:00:00 AM 14.13 57.434 0.71 8.36 2.14 9.27
5/7/2021 10:15:00 AM 14.25 57.65 0.682 8.44 1.94 9.45
5/7/2021 10:30:00 AM 14.5 58.1 0.693 8.56 2.4 9.82
5/7/2021 10:45:00 AM 14.65 58.37 0.693 8.74 2 10.14
5/7/2021 11:00:00 AM 14.71 58.478 0.695 8.92 2.04 10.42
5/7/2021 11:15:00 AM 14.77 58.586 0.694 9.07 11.56 10.49
5/7/2021 11:30:00 AM 14.9 58.82 0.695 9.17 2.69 10.76
5/7/2021 11:45:00 AM 15.01 59.018 0.696 9.28 2.16 11.05
5/7/2021 12:00:00 PM 15.03 59.054 0.693 9.36 2.23 11.15
5/7/2021 12:15:00 PM 15.07 59.126 0.693 9.38 2.21 11.15
5/7/2021 12:30:00 PM 15.14 59.252 0.692 9.35 2.15 11.34
5/7/2021 12:45:00 PM 15.23 59.414 0.692 9.32 2.9 11.51
5/7/2021 1:00:00 PM 15.35 59.63 0.691 9.29 1.83 11.64
5/7/2021 1:15:00 PM 15.47 59.846 0.692 9.23 1.66 11.81
5/7/2021 1:30:00 PM 15.58 60.044 0.692 9.17 2.53 11.95
5/7/2021 1:45:00 PM 15.68 60.224 0.69 9.12 2.97 12.09
5/7/2021 2:00:00 PM 15.73 60.314 0.689 9.09 2.37 12.17
5/7/2021 2:15:00 PM 15.8 60.44 0.687 9.05 1.31 12.22
5/7/2021 2:30:00 PM 15.85 60.53 0.69 9.02 1.68 12.24
5/7/2021 2:45:00 PM 15.87 60.566 0.687 9 2.45 12.13
5/7/2021 3:00:00 PM 15.9 60.62 0.686 8.97 1.63 12.08
5/7/2021 3:15:00 PM 15.9 60.62 0.69 8.93 1.6 11.98
5/7/2021 3:30:00 PM 15.91 60.638 0.687 8.9 1.6 11.71
5/7/2021 3:45:00 PM 15.88 60.584 0.686 8.87 1.39 11.44
5/7/2021 4:00:00 PM 15.85 60.53 0.686 8.85 1.98 11.11
5/7/2021 4:15:00 PM 15.88 60.584 0.687 8.83 2.31 11.08
5/7/2021 4:30:00 PM 15.93 60.674 0.684 8.82 1.29 11.18
5/7/2021 4:45:00 PM 15.94 60.692 0.686 8.81 1.92 11.34
5/7/2021 5:00:00 PM 15.93 60.674 0.681 8.8 1.77 11.04
5/7/2021 5:15:00 PM 15.95 60.71 0.682 8.78 1.34 10.86
5/7/2021 5:30:00 PM 15.94 60.692 0.683 8.77 2.33 10.61
5/7/2021 5:45:00 PM 15.93 60.674 0.682 8.76 2.02 10.47
5/7/2021 6:00:00 PM 15.92 60.656 0.683 8.74 1.41 10.12
5/7/2021 6:15:00 PM 15.91 60.638 0.681 8.73 1.68 10.08
5/7/2021 6:30:00 PM 15.9 60.62 0.684 8.71 1.43 9.96
5/7/2021 6:45:00 PM 15.89 60.602 0.684 8.7 2.46 9.78
5/7/2021 7:00:00 PM 15.87 60.566 0.684 8.68 1.27 9.7
5/7/2021 7:15:00 PM 15.84 60.512 0.683 8.65 1.61 9.41
5/7/2021 7:30:00 PM 15.8 60.44 0.684 8.62 2.95 9.27
5/7/2021 7:45:00 PM 15.75 60.35 0.686 8.6 1.89 9.04
5/7/2021 8:00:00 PM 15.72 60.296 0.686 8.57 1.75 8.8
5/7/2021 8:15:00 PM 15.68 60.224 0.688 8.54 2.03 8.66
5/7/2021 8:30:00 PM 15.64 60.152 0.687 8.52 9.24 8.52
5/7/2021 8:45:00 PM 15.59 60.062 0.688 8.5 2.17 8.38
5/7/2021 9:00:00 PM 15.55 59.99 0.688 8.47 2.74 8.19
5/7/2021 9:15:00 PM 15.49 59.882 0.69 8.44 2.32 8.18
5/7/2021 9:30:00 PM 15.44 59.792 0.689 8.42 3.76 8
5/7/2021 9:45:00 PM 15.38 59.684 0.69 8.39 3.38 8.01
5/7/2021 10:00:00 PM 15.32 59.576 0.69 8.37 2.4 7.85
5/7/2021 10:15:00 PM 15.26 59.468 0.691 8.35 4.18 7.76
5/7/2021 10:30:00 PM 15.2 59.36 0.688 8.33 2.37 7.66
5/7/2021 10:45:00 PM 15.13 59.234 0.687 8.32 2.13 7.69
5/7/2021 11:00:00 PM 15.07 59.126 0.695 8.3 2.3 7.64
5/7/2021 11:15:00 PM 15 59 0.693 8.28 2.69 7.54
5/7/2021 11:30:00 PM 14.93 58.874 0.696 8.26 1.88 7.57
5/7/2021 11:45:00 PM 14.86 58.748 0.69 8.25 2.97 7.59
5/8/2021 12:00:00 AM 14.79 58.622 0.686 8.24 1.97 7.44
5/8/2021 12:15:00 AM 14.73 58.514 0.686 8.23 1.55 7.43
5/8/2021 12:30:00 AM 14.65 58.37 0.687 8.21 1.67 7.28
5/8/2021 12:45:00 AM 14.59 58.262 0.69 8.2 3.87 7.3
5/8/2021 1:00:00 AM 14.52 58.136 0.695 8.2 1.7 7.46
5/8/2021 1:15:00 AM 14.44 57.992 0.694 8.19 3.19 7.42
5/8/2021 1:30:00 AM 14.37 57.866 0.697 8.18 2.08 7.31
5/8/2021 1:45:00 AM 14.29 57.722 0.695 8.16 1.67 7.29
5/8/2021 2:00:00 AM 14.22 57.596 0.695 8.15 2.36 7.31
5/8/2021 2:15:00 AM 14.14 57.452 0.688 8.14 1.69 7.25
5/8/2021 2:30:00 AM 14.07 57.326 0.692 8.12 2.1 7.36
5/8/2021 2:45:00 AM 13.99 57.182 0.7 8.11 2.36 7.23
5/8/2021 3:00:00 AM 13.92 57.056 0.704 8.09 1.5 7.32
5/8/2021 3:15:00 AM 13.85 56.93 0.704 8.08 2.54 7.29
5/8/2021 3:30:00 AM 13.78 56.804 0.702 8.07 1.97 6.59
5/8/2021 3:45:00 AM 13.7 56.66 0.701 8.06 2.95 6.68
5/8/2021 4:00:00 AM 13.64 56.552 0.7 8.06 2.85 6.75
5/8/2021 4:15:00 AM 13.57 56.426 0.698 8.04 3.3 7.04
5/8/2021 4:30:00 AM 13.49 56.282 0.697 8.03 3.28 6.82
5/8/2021 4:45:00 AM 13.43 56.174 0.698 8.02 2.35 6.81
5/8/2021 5:00:00 AM 13.37 56.066 0.697 8.01 1.37 7.02
5/8/2021 5:15:00 AM 13.3 55.94 0.697 8.01 3.71 7.08
5/8/2021 5:30:00 AM 13.24 55.832 0.687 8 3.41 6.72
5/8/2021 5:45:00 AM 13.17 55.706 0.686 8 2.42 7.05
5/8/2021 6:00:00 AM 13.1 55.58 0.688 7.99 2.1 7.04
5/8/2021 6:15:00 AM 13.04 55.472 0.686 7.99 1.92 7.29
5/8/2021 6:30:00 AM 13 55.4 0.687 7.99 2.57 6.85
5/8/2021 6:45:00 AM 12.96 55.328 0.686 7.99 2.19 7.01
5/8/2021 7:00:00 AM 12.93 55.274 0.685 7.99 1.52 7.42
5/8/2021 7:15:00 AM 12.89 55.202 0.686 8.01 1.74 7.59
5/8/2021 7:30:00 AM 12.86 55.148 0.686 8.02 2.41 7.03
5/8/2021 7:45:00 AM 12.83 55.094 0.687 8.04 1.97 7.14
5/8/2021 8:00:00 AM 12.82 55.076 0.684 8.06 1.49 7.68
5/8/2021 8:15:00 AM 12.81 55.058 0.684 8.08 2.74 7.62
5/8/2021 8:30:00 AM 12.83 55.094 0.685 8.12 1.55 8.26
5/8/2021 8:45:00 AM 12.87 55.166 0.683 8.16 2.89 8.08
5/8/2021 9:00:00 AM 12.94 55.292 0.685 8.21 1.2 8.67
5/8/2021 9:15:00 AM 12.98 55.364 0.686 8.27 2.23 8.8
5/8/2021 9:30:00 AM 12.98 55.364 0.687 8.32 1.33 9.05
5/8/2021 9:45:00 AM 13 55.4 0.684 8.35 2.54 8.57
5/8/2021 10:00:00 AM 13.03 55.454 0.685 8.39 1.57 9.29
5/8/2021 10:15:00 AM 13.1 55.58 0.684 8.43 1.81 8.86
5/8/2021 10:30:00 AM 13.25 55.85 0.685 8.49 1.31 9.66
5/8/2021 10:45:00 AM 13.36 56.048 0.685 8.58 1.48 9.56
5/8/2021 11:00:00 AM 13.49 56.282 0.686 8.68 1.22 9.85
5/8/2021 11:15:00 AM 13.5 56.3 0.687 8.79 2.3 7.62
5/8/2021 11:30:00 AM 13.54 56.372 0.688 8.86 1.22 10.48
5/8/2021 11:45:00 AM 13.7 56.66 0.686 8.93 1.02 10.85
5/8/2021 12:00:00 PM 13.8 56.84 0.686 9.01 2.05 10.93
5/8/2021 12:15:00 PM 13.85 56.93 0.686 9.05 1.81 11.3
5/8/2021 12:30:00 PM 14 57.2 0.684 9.12 1.62 11.32
5/8/2021 12:45:00 PM 14.07 57.326 0.686 9.2 2.35 11.9
5/8/2021 1:00:00 PM 14.07 57.326 0.686 9.24 1.82 11.88
5/8/2021 1:15:00 PM 14.07 57.326 0.686 9.23 1.41 12.12
5/8/2021 1:30:00 PM 14.17 57.506 0.685 9.2 4.83 12.09
5/8/2021 1:45:00 PM 14.33 57.794 0.685 9.14 1.22 12.13
5/8/2021 2:00:00 PM 14.42 57.956 0.685 9.1 1.33 12.29
5/8/2021 2:15:00 PM 14.5 58.1 0.685 9.07 2.65 12.33
5/8/2021 2:30:00 PM 14.49 58.082 0.683 9.04 2.17 12.17
5/8/2021 2:45:00 PM 14.63 58.334 0.681 9.01 1.51 11.88
5/8/2021 3:00:00 PM 14.89 58.802 0.68 9 2.92 12.23
5/8/2021 3:15:00 PM 14.94 58.892 0.682 8.97 2.05 12.39
5/8/2021 3:30:00 PM 14.74 58.532 0.685 8.93 2.05 11.99
5/8/2021 3:45:00 PM 14.6 58.28 0.683 8.84 2.52 11.09
5/8/2021 4:00:00 PM 14.52 58.136 0.68 8.75 2.88 10.01
5/8/2021 4:15:00 PM 14.54 58.172 0.677 8.74 2.58 10.82
5/8/2021 4:30:00 PM 14.59 58.262 0.677 8.76 4.02 10.9
5/8/2021 4:45:00 PM 14.66 58.388 0.677 8.79 1.97 11.07
5/8/2021 5:00:00 PM 14.68 58.424 0.678 8.81 2.25 10.92
5/8/2021 5:15:00 PM 14.66 58.388 0.679 8.83 4.17 11.06
5/8/2021 5:30:00 PM 14.57 58.226 0.677 8.83 2.23 10.83
5/8/2021 5:45:00 PM 14.51 58.118 0.678 8.83 1.52 10.78
5/8/2021 6:00:00 PM 14.41 57.938 0.679 8.82 2.29 10.58
5/8/2021 6:15:00 PM 14.32 57.776 0.678 8.77 2 10.13
5/8/2021 6:30:00 PM 14.28 57.704 0.679 8.72 3.35 7.01
5/8/2021 6:45:00 PM 14.29 57.722 0.682 8.72 1.88 9.74
5/8/2021 7:00:00 PM 14.27 57.686 0.681 8.73 2.24 9.57
5/8/2021 7:15:00 PM 14.24 57.632 0.682 8.72 1.7 9.62
5/8/2021 7:30:00 PM 14.2 57.56 0.681 8.71 1.69 9.43
5/8/2021 7:45:00 PM 14.15 57.47 0.682 8.68 2.26 9.45
5/8/2021 8:00:00 PM 14.08 57.344 0.682 8.65 2.01 9.11
5/8/2021 8:15:00 PM 14.01 57.218 0.685 8.63 2.89 8.93
5/8/2021 8:30:00 PM 13.95 57.11 0.678 8.6 2.98 8.69
5/8/2021 8:45:00 PM 13.89 57.002 0.679 8.57 2.34 8.62
5/8/2021 9:00:00 PM 13.83 56.894 0.68 8.54 2.83 8.71
5/8/2021 9:15:00 PM 13.77 56.786 0.678 8.52 3.65 8.38
5/8/2021 9:30:00 PM 13.71 56.678 0.677 8.5 2.67 8.28
5/8/2021 9:45:00 PM 13.65 56.57 0.676 8.48 3 8.13
5/8/2021 10:00:00 PM 13.59 56.462 0.676 8.44 2.62 8.06
5/8/2021 10:15:00 PM 13.52 56.336 0.676 8.42 2.85 7.77
5/8/2021 10:30:00 PM 13.45 56.21 0.679 8.39 2.72 7.67
5/8/2021 10:45:00 PM 13.38 56.084 0.681 8.37 3.17 7.63
5/8/2021 11:00:00 PM 13.31 55.958 0.679 8.34 3.51 7.39
5/8/2021 11:15:00 PM 13.24 55.832 0.68 8.31 1.8 7.72
5/8/2021 11:30:00 PM 13.17 55.706 0.683 8.29 1.62 7.63
5/8/2021 11:45:00 PM 13.11 55.598 0.682 8.27 2.74 7.44
5/9/2021 12:00:00 AM 13.03 55.454 0.675 8.25 2.37 7.59
5/9/2021 12:15:00 AM 12.97 55.346 0.683 8.24 2.92 7.89
5/9/2021 12:30:00 AM 12.9 55.22 0.691 8.23 3.36 8.04
5/9/2021 12:45:00 AM 12.84 55.112 0.678 8.21 2.87 7.94
5/9/2021 1:00:00 AM 12.78 55.004 0.678 8.2 2.91 6.27
5/9/2021 1:15:00 AM 12.72 54.896 0.681 8.18 3.22 6.79
5/9/2021 1:30:00 AM 12.65 54.77 0.681 8.16 3.35 7.04
5/9/2021 1:45:00 AM 12.59 54.662 0.685 8.15 3.35 7.05
5/9/2021 2:00:00 AM 12.52 54.536 0.686 8.13 3.17 7.32
5/9/2021 2:15:00 AM 12.46 54.428 0.689 8.12 4.46 7.64
5/9/2021 2:30:00 AM 12.39 54.302 0.693 8.11 8.15 7.57
5/9/2021 2:45:00 AM 12.33 54.194 0.695 8.1 4.61 7.94
5/9/2021 3:00:00 AM 12.27 54.086 0.705 8.09 7.85 7.99
5/9/2021 3:15:00 AM 12.22 53.996 0.693 8.09 35.11 8.08
5/9/2021 3:30:00 AM 12.17 53.906 0.695 8.07 28.62 8.05
5/9/2021 3:45:00 AM 12.13 53.834 0.696 8.07 6.33 7.96
5/9/2021 4:00:00 AM 12.08 53.744 0.695 8.07 4.38 8.03
5/9/2021 4:15:00 AM 12.03 53.654 0.699 8.07 5.23 8.15
5/9/2021 4:30:00 AM 11.99 53.582 0.7 8.06 6.12 8.17
5/9/2021 4:45:00 AM 11.95 53.51 0.699 8.07 6.71 8.05
5/9/2021 5:00:00 AM 11.9 53.42 0.699 8.06 9.25 8.25
5/9/2021 5:15:00 AM 11.86 53.348 0.702 8.06 5.95 8.18
5/9/2021 5:30:00 AM 11.82 53.276 0.703 8.07 7.64 8.19
5/9/2021 5:45:00 AM 11.78 53.204 0.702 8.06 5.51 8.2
5/9/2021 6:00:00 AM 11.73 53.114 0.704 8.07 5.97 7.69
5/9/2021 6:15:00 AM 11.7 53.06 0.708 8.07 6.74 7.99
5/9/2021 6:30:00 AM 11.66 52.988 0.706 8.07 6.2 7.97
5/9/2021 6:45:00 AM 11.64 52.952 0.706 8.07 5.64 8.17
5/9/2021 7:00:00 AM 11.63 52.934 0.706 8.08 5.28 5.2
5/9/2021 7:15:00 AM 11.62 52.916 0.707 8.09 5.99 8.26
5/9/2021 7:30:00 AM 11.61 52.898 0.708 8.11 5.75 8.64
5/9/2021 7:45:00 AM 11.6 52.88 0.709 8.12 5.93 8.53
5/9/2021 8:00:00 AM 11.6 52.88 0.699 8.14 4.71 8.36
5/9/2021 8:15:00 AM 11.61 52.898 0.699 8.17 5.53 8.72
5/9/2021 8:30:00 AM 11.62 52.916 0.701 8.2 4.64 8.85
5/9/2021 8:45:00 AM 11.64 52.952 0.702 8.22 11.63 9.08
5/9/2021 9:00:00 AM 11.68 53.024 0.705 8.26 4.97 9.37
5/9/2021 9:15:00 AM 11.7 53.06 0.703 8.31 6.01 9.49
5/9/2021 9:30:00 AM 11.72 53.096 0.705 8.35 5.82 9.44
5/9/2021 9:45:00 AM 11.75 53.15 0.701 8.39 4.53 9.64
5/9/2021 10:00:00 AM 11.78 53.204 0.699 8.42 4.5 9.74
5/9/2021 10:15:00 AM 11.78 53.204 0.699 8.46 5.54 9.97
5/9/2021 10:30:00 AM 11.82 53.276 0.698 8.49 4.33 10.04
5/9/2021 10:45:00 AM 11.87 53.366 0.698 8.52 4.35 10.28
5/9/2021 11:00:00 AM 11.99 53.582 0.699 8.58 5.04 10.46
5/9/2021 11:15:00 AM 12.05 53.69 0.7 8.68 4.02 10.87
5/9/2021 11:30:00 AM 12.07 53.726 0.699 8.75 4.53 11.13
5/9/2021 11:45:00 AM 12.09 53.762 0.698 8.79 5.4 11.32
5/9/2021 12:00:00 PM 12.11 53.798 0.701 8.82 4.2 11.29
5/9/2021 12:15:00 PM 12.14 53.852 0.701 8.84 5.56 11.39
5/9/2021 12:30:00 PM 12.18 53.924 0.698 8.84 4.02 11.42
5/9/2021 12:45:00 PM 12.21 53.978 0.698 8.85 4.43 11.54
5/9/2021 1:00:00 PM 12.21 53.978 0.7 8.85 4.78 10.97
5/9/2021 1:15:00 PM 12.21 53.978 0.701 8.82 5.37 10.9
5/9/2021 1:30:00 PM 12.23 54.014 0.698 8.8 4.59 11.2
5/9/2021 1:45:00 PM 12.26 54.068 0.698 8.79 4.56 11.29
5/9/2021 2:00:00 PM 12.28 54.104 0.699 8.8 5.34 11.31
5/9/2021 2:15:00 PM 12.3 54.14 0.698 8.79 4.39 11.3
5/9/2021 2:30:00 PM 12.34 54.212 0.699 8.79 5.67 11.27
5/9/2021 2:45:00 PM 12.38 54.284 0.697 8.81 4.32 11.51
5/9/2021 3:00:00 PM 12.4 54.32 0.7 8.83 5.77 11.5
5/9/2021 3:15:00 PM 12.46 54.428 0.698 8.83 4.02 11.54
5/9/2021 3:30:00 PM 12.53 54.554 0.697 8.85 3.96 11.67
5/9/2021 3:45:00 PM 12.57 54.626 0.699 8.89 4.65 11.81
5/9/2021 4:00:00 PM 12.61 54.698 0.699 8.92 4.16 11.88
5/9/2021 4:15:00 PM 12.64 54.752 0.699 8.94 3.21 11.9
5/9/2021 4:30:00 PM 12.66 54.788 0.7 8.96 3.48 11.84
5/9/2021 4:45:00 PM 12.67 54.806 0.701 8.97 3.8 11.83
5/9/2021 5:00:00 PM 12.68 54.824 0.7 8.96 3.81 11.72
5/9/2021 5:15:00 PM 12.68 54.824 0.701 8.95 3.55 11.57
5/9/2021 5:30:00 PM 12.69 54.842 0.699 8.94 4.16 11.54
5/9/2021 5:45:00 PM 12.69 54.842 0.699 8.93 3.7 11.37
5/9/2021 6:00:00 PM 12.7 54.86 0.697 8.91 5 11.2
5/9/2021 6:15:00 PM 12.7 54.86 0.698 8.89 3.39 11.16
5/9/2021 6:30:00 PM 12.7 54.86 0.696 8.88 3.15 11.04
5/9/2021 6:45:00 PM 12.68 54.824 0.697 8.87 4.21 10.91
5/9/2021 7:00:00 PM 12.67 54.806 0.698 8.85 3.41 10.76
5/9/2021 7:15:00 PM 12.66 54.788 0.696 8.84 3.61 10.61
5/9/2021 7:30:00 PM 12.64 54.752 0.697 8.82 4.44 10.53
5/9/2021 7:45:00 PM 12.62 54.716 0.696 8.81 4.56 10.39
5/9/2021 8:00:00 PM 12.6 54.68 0.697 8.79 4.35 10.23
5/9/2021 8:15:00 PM 12.58 54.644 0.696 8.77 6.67 10.07
5/9/2021 8:30:00 PM 12.56 54.608 0.704 8.75 3.78 9.91
5/9/2021 8:45:00 PM 12.53 54.554 0.704 8.73 4.64 9.78
5/9/2021 9:00:00 PM 12.51 54.518 0.709 8.72 3.85 9.67
5/9/2021 9:15:00 PM 12.49 54.482 0.708 8.69 3.72 9.57
5/9/2021 9:30:00 PM 12.47 54.446 0.71 8.68 4.36 9.48
5/9/2021 9:45:00 PM 12.45 54.41 0.709 8.66 3.71 9.36
5/9/2021 10:00:00 PM 12.43 54.374 0.708 8.64 3.91 9.25
5/9/2021 10:15:00 PM 12.41 54.338 0.709 8.63 4.59 9.14
5/9/2021 10:30:00 PM 12.38 54.284 0.708 8.62 5.01 9.12
5/9/2021 10:45:00 PM 12.37 54.266 0.708 8.61 5.72 9
5/9/2021 11:00:00 PM 12.35 54.23 0.709 8.6 3.92 8.84
5/9/2021 11:15:00 PM 12.33 54.194 0.709 8.59 9.07 8.9
5/9/2021 11:30:00 PM 12.32 54.176 0.71 8.58 6.78 8.86
5/9/2021 11:45:00 PM 12.3 54.14 0.706 8.56 3.6 8.8
5/10/2021 12:00:00 AM 12.28 54.104 0.699 8.55 4.33 8.74
5/10/2021 12:15:00 AM 12.26 54.068 0.7 8.54 3.56 8.69
5/10/2021 12:30:00 AM 12.24 54.032 0.706 8.53 2.77 8.68
5/10/2021 12:45:00 AM 12.22 53.996 0.712 8.51 3.98 8.65
5/10/2021 1:00:00 AM 12.2 53.96 0.711 8.51 5.2 8.61
5/10/2021 1:15:00 AM 12.18 53.924 0.712 8.5 2.8 8.58
5/10/2021 1:30:00 AM 12.17 53.906 0.709 8.49 2.81 8.59
5/10/2021 1:45:00 AM 12.14 53.852 0.706 8.48 3 8.57
5/10/2021 2:00:00 AM 12.12 53.816 0.705 8.48 2.74 8.48
5/10/2021 2:15:00 AM 12.1 53.78 0.708 8.47 3.47 8.49
5/10/2021 2:30:00 AM 12.08 53.744 0.708 8.45 4.17 8.5
5/10/2021 2:45:00 AM 12.07 53.726 0.709 8.45 4.64 8.49
5/10/2021 3:00:00 AM 12.05 53.69 0.706 8.43 4.35 8.44
5/10/2021 3:15:00 AM 12.03 53.654 0.711 8.44 3.16 8.46
5/10/2021 3:30:00 AM 12 53.6 0.711 8.44 5.52 8.47
5/10/2021 3:45:00 AM 11.98 53.564 0.715 8.43 3.3 8.44
5/10/2021 4:00:00 AM 11.95 53.51 0.716 8.42 3.61 8.45
5/10/2021 4:15:00 AM 11.92 53.456 0.718 8.42 5.94 8.46
5/10/2021 4:30:00 AM 11.9 53.42 0.712 8.41 3.29 8.4
5/10/2021 4:45:00 AM 11.88 53.384 0.72 8.4 3.62 8.34
5/10/2021 5:00:00 AM 11.85 53.33 0.721 8.39 3.93 8.44
5/10/2021 5:15:00 AM 11.81 53.258 0.721 8.39 5.36 8.42
5/10/2021 5:30:00 AM 11.8 53.24 0.72 8.38 3.53 8.36
5/10/2021 5:45:00 AM 11.78 53.204 0.723 8.38 4.25 8.4
5/10/2021 6:00:00 AM 11.76 53.168 0.723 8.38 3.17 8.36
5/10/2021 6:15:00 AM 11.73 53.114 0.723 8.39 2.97 8.43
5/10/2021 6:30:00 AM 11.72 53.096 0.722 8.37 2.89 8.45
5/10/2021 6:45:00 AM 11.7 53.06 0.72 8.37 3.36 8.52
5/10/2021 7:00:00 AM 11.69 53.042 0.718 8.37 3.64 8.57
5/10/2021 7:15:00 AM 11.69 53.042 0.716 8.38 2.96 8.59
5/10/2021 7:30:00 AM 11.68 53.024 0.723 8.38 3.52 8.28
5/10/2021 7:45:00 AM 11.68 53.024 0.717 8.39 2.83 8.82
5/10/2021 8:00:00 AM 11.68 53.024 0.72 8.41 6.73 8.93
5/10/2021 8:15:00 AM 11.7 53.06 0.716 8.41 5.87 9.08
5/10/2021 8:30:00 AM 11.71 53.078 0.717 8.43 3.62 9.27
5/10/2021 8:45:00 AM 11.74 53.132 0.717 8.45 2.94 9.53
5/10/2021 9:00:00 AM 11.76 53.168 0.722 8.46 2.92 9.71
5/10/2021 9:15:00 AM 11.8 53.24 0.721 8.48 3 9.98
5/10/2021 9:30:00 AM 11.85 53.33 0.724 8.49 2.33 10.19
5/10/2021 9:45:00 AM 11.92 53.456 0.722 8.5 2.76 10.38
5/10/2021 10:00:00 AM 12.01 53.618 0.717 8.53 5.69 10.72
5/10/2021 10:15:00 AM 12.08 53.744 0.714 8.54 6.89 10.93
5/10/2021 10:30:00 AM 12.2 53.96 0.714 8.56 3.6 11.03
5/10/2021 10:45:00 AM 12.37 54.266 0.714 8.58 3.36 11.23
5/10/2021 11:00:00 AM 12.56 54.608 0.715 8.62 4.39 11.43
5/10/2021 11:15:00 AM 12.81 55.058 0.713 8.64 5.29 11.86
5/10/2021 11:30:00 AM 12.92 55.256 0.71 8.68 4.02 12.24
5/10/2021 11:45:00 AM 12.97 55.346 0.71 8.71 3.16 12.37
5/10/2021 12:00:00 PM 13.12 55.616 0.711 8.72 3.29 12.5
5/10/2021 12:15:00 PM 13.27 55.886 0.711 8.73 3.07 12.46
5/10/2021 12:30:00 PM 13.33 55.994 0.712 8.74 3.19 12.32
5/10/2021 12:45:00 PM 13.37 56.066 0.712 8.76 4.01 12.97
5/10/2021 1:00:00 PM 13.48 56.264 0.711 8.78 3.36 12.42
5/10/2021 1:15:00 PM 13.6 56.48 0.709 8.79 3.77 9.87
5/10/2021 1:30:00 PM 13.74 56.732 0.713 8.79 3.59 12.9
5/10/2021 1:45:00 PM 13.86 56.948 0.711 8.8 3.17 13.34
5/10/2021 2:00:00 PM 14.1 57.38 0.712 8.8 5.4 13.48
5/10/2021 2:15:00 PM 14.35 57.83 0.706 8.81 4.04 13.72
5/10/2021 2:30:00 PM 14.43 57.974 0.711 8.82 3.47 13.82
5/10/2021 2:45:00 PM 14.43 57.974 0.705 8.83 972.1 13.7
5/10/2021 3:00:00 PM 14.6 58.28 0.705 8.83 980.4 13.83
5/10/2021 3:15:00 PM 14.68 58.424 0.702 8.84 987.9 13.78
5/10/2021 3:30:00 PM 14.89 58.802 0.701 8.84 994.1 13.75
5/10/2021 3:45:00 PM 14.96 58.928 0.701 8.85 998.2 13.77
5/10/2021 4:00:00 PM 14.91 58.838 0.694 8.85 1001 13.59
5/10/2021 4:15:00 PM 14.91 58.838 0.691 8.86 1003 13.33
5/10/2021 4:30:00 PM 15.01 59.018 0.688 8.86 1004 13.35
5/10/2021 4:45:00 PM 14.99 58.982 0.687 8.87 1006 13.24
5/10/2021 5:00:00 PM 15 59 0.688 8.87 1006 13.1
5/10/2021 5:15:00 PM 14.98 58.964 0.688 8.87 1008 12.98
5/10/2021 5:30:00 PM 14.97 58.946 0.685 8.88 1011 12.82
5/10/2021 5:45:00 PM 14.93 58.874 0.689 8.88 1011 12.64
5/10/2021 6:00:00 PM 14.88 58.784 0.689 8.87 1013 12.41
5/10/2021 6:15:00 PM 14.84 58.712 0.686 8.87 1015 12.21
5/10/2021 6:30:00 PM 14.8 58.64 0.686 8.87 1016 11.98
5/10/2021 6:45:00 PM 14.79 58.622 0.68 8.86 1017 11.79
5/10/2021 7:00:00 PM 14.77 58.586 0.678 8.85 1018 11.62
5/10/2021 7:15:00 PM 14.74 58.532 0.682 8.84 1019 11.46
5/10/2021 7:30:00 PM 14.7 58.46 0.697 8.84 1014 11.26
5/10/2021 7:45:00 PM 14.66 58.388 0.697 8.83 1013 11.05
5/10/2021 8:00:00 PM 14.61 58.298 0.696 8.82 1014 10.84
5/10/2021 8:15:00 PM 14.56 58.208 0.694 8.81 1016 10.67
5/10/2021 8:30:00 PM 14.51 58.118 0.689 8.79 1018 10.49
5/10/2021 8:45:00 PM 14.44 57.992 0.691 8.78 1020 10.28
5/10/2021 9:00:00 PM 14.38 57.884 0.694 8.76 1022 10.1
5/10/2021 9:15:00 PM 14.3 57.74 0.694 8.73 1025 9.94
5/10/2021 9:30:00 PM 14.23 57.614 0.686 8.7 1027 9.78
5/10/2021 9:45:00 PM 14.16 57.488 0.687 8.66 1028 9.59
5/10/2021 10:00:00 PM 14.08 57.344 0.694 8.61 1029 9.48
5/10/2021 10:15:00 PM 14.01 57.218 0.697 8.59 1033 9.34
5/10/2021 10:30:00 PM 13.93 57.074 0.694 8.56 1034 9.23
5/10/2021 10:45:00 PM 13.85 56.93 0.69 8.52 1036 9.07
5/10/2021 11:00:00 PM 13.78 56.804 0.688 8.49 1036 8.98
5/10/2021 11:15:00 PM 13.71 56.678 0.69 8.46 1038 8.89
5/10/2021 11:30:00 PM 13.64 56.552 0.698 8.43 1039 8.82
5/10/2021 11:45:00 PM 13.56 56.408 0.687 8.41 1041 8.72
5/11/2021 12:00:00 AM 13.48 56.264 0.69 8.39 1041 8.68
5/11/2021 12:15:00 AM 13.41 56.138 0.688 8.36 1043 8.61
5/11/2021 12:30:00 AM 13.34 56.012 0.687 8.34 1044 8.55
5/11/2021 12:45:00 AM 13.27 55.886 0.688 8.32 1059 8.52
5/11/2021 1:00:00 AM 13.19 55.742 0.688 8.3 1058 8.48
5/11/2021 1:15:00 AM 13.12 55.616 0.687 8.28 1064 8.44
5/11/2021 1:30:00 AM 13.06 55.508 0.689 8.27 1058 8.4
5/11/2021 1:45:00 AM 12.99 55.382 0.688 8.26 1055 8.38
5/11/2021 2:00:00 AM 12.93 55.274 0.685 8.25 1055 8.37
5/11/2021 2:15:00 AM 12.87 55.166 0.687 8.24 1057 8.33
5/11/2021 2:30:00 AM 12.81 55.058 0.689 8.24 1059 8.34
5/11/2021 2:45:00 AM 12.75 54.95 0.686 8.23 1059 8.33
5/11/2021 3:00:00 AM 12.69 54.842 0.686 8.23 1061 8.32
5/11/2021 3:15:00 AM 12.64 54.752 0.688 8.22 1061 8.31
5/11/2021 3:30:00 AM 12.59 54.662 0.688 8.22 1063 8.29
5/11/2021 3:45:00 AM 12.55 54.59 0.69 8.22 1064 8.32
5/11/2021 4:00:00 AM 12.51 54.518 0.687 8.23 1065 8.3
5/11/2021 4:15:00 AM 12.47 54.446 0.69 8.23 1066 8.3
5/11/2021 4:30:00 AM 12.43 54.374 0.689 8.22 1067 8.31
5/11/2021 4:45:00 AM 12.39 54.302 0.687 8.22 1068 8.32
5/11/2021 5:00:00 AM 12.34 54.212 0.687 8.22 1069 8.32
5/11/2021 5:15:00 AM 12.3 54.14 0.69 8.21 1070 8.29
5/11/2021 5:30:00 AM 12.26 54.068 0.687 8.2 1070 8.3
5/11/2021 5:45:00 AM 12.21 53.978 0.689 8.19 1070 8.32
5/11/2021 6:00:00 AM 12.16 53.888 0.687 8.19 1071 8.34
5/11/2021 6:15:00 AM 12.12 53.816 0.689 8.18 1071 8.36
5/11/2021 6:30:00 AM 12.08 53.744 0.688 8.18 1072 8.39
5/11/2021 6:45:00 AM 12.04 53.672 0.687 8.18 1073 8.46
5/11/2021 7:00:00 AM 12 53.6 0.686 8.18 1074 8.52
5/11/2021 7:15:00 AM 11.96 53.528 0.688 8.18 1074 8.59
5/11/2021 7:30:00 AM 11.92 53.456 0.691 8.18 1076 8.69
5/11/2021 7:45:00 AM 11.89 53.402 0.691 8.19 1076 8.74
5/11/2021 8:00:00 AM 11.87 53.366 0.691 8.21 1077 8.81
5/11/2021 8:15:00 AM 11.87 53.366 0.693 8.22 1077 8.9
5/11/2021 8:30:00 AM 11.87 53.366 0.692 8.24 1077 8.99
5/11/2021 8:45:00 AM 11.87 53.366 0.691 8.28 1075 9.11
5/11/2021 9:00:00 AM 11.89 53.402 0.694 8.31 1075 9.21
5/11/2021 9:15:00 AM 11.92 53.456 0.691 8.34 1075 9.35
5/11/2021 9:30:00 AM 11.98 53.564 0.693 8.37 1075 9.55
5/11/2021 9:45:00 AM 12.05 53.69 0.696 8.41 1071 9.72
5/11/2021 10:00:00 AM 12.16 53.888 0.695 8.46 1074 9.97
5/11/2021 10:15:00 AM 12.33 54.194 0.696 8.51 1074 10.32
5/11/2021 10:30:00 AM 12.64 54.752 0.693 8.59 1072 10.7
5/11/2021 10:45:00 AM 12.88 55.184 0.693 8.75 1070 11.08
5/11/2021 11:00:00 AM 13.07 55.526 0.694 8.87 1069 11.35
5/11/2021 11:15:00 AM 13.28 55.904 0.695 8.95 1068 11.65
5/11/2021 11:30:00 AM 13.49 56.282 0.692 8.98 1067 11.9
5/11/2021 11:45:00 AM 13.71 56.678 0.696 9 1066 12.21
5/11/2021 12:00:00 PM 13.92 57.056 0.697 9.02 1064 12.43
5/11/2021 12:15:00 PM 14.18 57.524 0.695 8.95 1064 12.66
5/11/2021 12:30:00 PM 14.39 57.902 0.693 8.91 1062 12.77
5/11/2021 12:45:00 PM 14.49 58.082 0.693 8.89 1061 12.92
5/11/2021 1:00:00 PM 14.4 57.92 0.694 8.89 1063 12.83
5/11/2021 1:15:00 PM 14.41 57.938 0.694 8.88 1063 12.8
5/11/2021 1:30:00 PM 14.54 58.172 0.693 8.87 1062 12.99
5/11/2021 1:45:00 PM 14.58 58.244 0.692 8.87 1061 13.15
5/11/2021 2:00:00 PM 14.6 58.28 0.69 8.87 1062 13.07
5/11/2021 2:15:00 PM 14.66 58.388 0.687 8.86 1062 13.06
5/11/2021 2:30:00 PM 14.68 58.424 0.689 8.86 1062 13.05
5/11/2021 2:45:00 PM 14.73 58.514 0.69 8.86 1062 12.98
5/11/2021 3:00:00 PM 14.72 58.496 0.687 8.86 1062 12.99
5/11/2021 3:15:00 PM 14.7 58.46 0.69 8.85 1061 12.82
5/11/2021 3:30:00 PM 14.65 58.37 0.688 8.85 1061 12.57
5/11/2021 3:45:00 PM 14.67 58.406 0.687 8.85 1062 12.42
5/11/2021 4:00:00 PM 14.8 58.64 0.686 8.86 1061 12.53
5/11/2021 4:15:00 PM 14.94 58.892 0.684 8.86 1060 12.8
5/11/2021 4:30:00 PM 14.98 58.964 0.684 8.86 1060 12.8
5/11/2021 4:45:00 PM 14.98 58.964 0.687 8.86 1060 12.68
5/11/2021 5:00:00 PM 14.95 58.91 0.687 8.86 1061 12.46
5/11/2021 5:15:00 PM 14.9 58.82 0.685 8.86 1062 12.3
5/11/2021 5:30:00 PM 14.86 58.748 0.684 8.86 1063 12.11
5/11/2021 5:45:00 PM 14.89 58.802 0.68 8.86 1063 12.02
5/11/2021 6:00:00 PM 14.92 58.856 0.678 8.86 1063 11.98
5/11/2021 6:15:00 PM 14.9 58.82 0.677 8.86 1063 11.81
5/11/2021 6:30:00 PM 14.88 58.784 0.678 8.85 1063 11.61
5/11/2021 6:45:00 PM 14.89 58.802 0.679 8.85 1063 11.45
5/11/2021 7:00:00 PM 14.9 58.82 0.68 8.85 1064 11.32
5/11/2021 7:15:00 PM 14.87 58.766 0.679 8.84 1063 11.17
5/11/2021 7:30:00 PM 14.87 58.766 0.678 8.84 1063 10.97
5/11/2021 7:45:00 PM 14.85 58.73 0.677 8.83 1070 10.79
5/11/2021 8:00:00 PM 14.84 58.712 0.678 8.82 1063 10.65
5/11/2021 8:15:00 PM 14.81 58.658 0.678 8.81 1063 10.49
5/11/2021 8:30:00 PM 14.77 58.586 0.677 8.8 1065 10.28
5/11/2021 8:45:00 PM 14.73 58.514 0.675 8.78 1065 10.11
5/11/2021 9:00:00 PM 14.68 58.424 0.677 8.78 1065 9.96
5/11/2021 9:15:00 PM 14.61 58.298 0.677 8.75 1065 9.8
5/11/2021 9:30:00 PM 14.55 58.19 0.677 8.73 1067 9.67
5/11/2021 9:45:00 PM 14.47 58.046 0.679 8.71 1068 9.52
5/11/2021 10:00:00 PM 14.4 57.92 0.678 8.69 1067 9.38
5/11/2021 10:15:00 PM 14.32 57.776 0.678 8.67 1069 9.25
5/11/2021 10:30:00 PM 14.25 57.65 0.671 8.65 1069 9.13
5/11/2021 10:45:00 PM 14.18 57.524 0.674 8.64 1069 9.02
5/11/2021 11:00:00 PM 14.12 57.416 0.672 8.61 1070 8.94
5/11/2021 11:15:00 PM 14.04 57.272 0.678 8.58 1071 8.84
5/11/2021 11:30:00 PM 13.97 57.146 0.673 8.55 1073 8.73
5/11/2021 11:45:00 PM 13.9 57.02 0.676 8.52 1078 8.67
5/12/2021 12:00:00 AM 13.84 56.912 0.678 8.51 1073 8.6
5/12/2021 12:15:00 AM 13.76 56.768 0.678 8.47 1073 8.54
5/12/2021 12:30:00 AM 13.69 56.642 0.68 8.46 1074 8.47
5/12/2021 12:45:00 AM 13.61 56.498 0.678 8.44 1074 8.45
5/12/2021 1:00:00 AM 13.54 56.372 0.68 8.41 1077 8.4
5/12/2021 1:15:00 AM 13.47 56.246 0.68 8.4 1077 8.34
5/12/2021 1:30:00 AM 13.39 56.102 0.682 8.37 1077 8.31
5/12/2021 1:45:00 AM 13.3 55.94 0.68 8.35 1077 8.3
5/12/2021 2:00:00 AM 13.22 55.796 0.681 8.33 1080 8.26
5/12/2021 2:15:00 AM 13.14 55.652 0.68 8.31 1079 8.24
5/12/2021 2:30:00 AM 13.05 55.49 0.68 8.28 1082 8.23
5/12/2021 2:45:00 AM 12.97 55.346 0.679 8.27 1082 8.24
5/12/2021 3:00:00 AM 12.89 55.202 0.679 8.24 1082 8.22
5/12/2021 3:15:00 AM 12.81 55.058 0.679 8.22 1082 8.23
5/12/2021 3:30:00 AM 12.74 54.932 0.68 8.21 1084 8.22
5/12/2021 3:45:00 AM 12.66 54.788 0.678 8.19 1085 8.22
5/12/2021 4:00:00 AM 12.59 54.662 0.682 8.18 1085 8.23
5/12/2021 4:15:00 AM 12.51 54.518 0.681 8.16 1085 8.24
5/12/2021 4:30:00 AM 12.44 54.392 0.681 8.15 1086 8.24
5/12/2021 4:45:00 AM 12.36 54.248 0.683 8.14 1088 8.27
5/12/2021 5:00:00 AM 12.29 54.122 0.685 8.13 1088 8.28
5/12/2021 5:15:00 AM 12.23 54.014 0.685 8.12 1088 8.31
5/12/2021 5:30:00 AM 12.17 53.906 0.688 8.11 1089 8.32
5/12/2021 5:45:00 AM 12.11 53.798 0.688 8.1 1101 8.32
5/12/2021 6:00:00 AM 12.04 53.672 0.693 8.09 1102 8.34
5/12/2021 6:15:00 AM 11.98 53.564 0.692 8.08 1102 8.4
5/12/2021 6:30:00 AM 11.93 53.474 0.692 8.08 1104 8.45
5/12/2021 6:45:00 AM 11.88 53.384 0.694 8.08 1104 8.53
5/12/2021 7:00:00 AM 11.83 53.294 0.695 8.09 1105 8.6
5/12/2021 7:15:00 AM 11.79 53.222 0.696 8.09 1114 8.63
5/12/2021 7:30:00 AM 11.75 53.15 0.698 8.11 1112 8.7
5/12/2021 7:45:00 AM 11.74 53.132 0.698 8.13 1109 8.85
5/12/2021 8:00:00 AM 11.71 53.078 0.699 8.16 1109 8.98
5/12/2021 8:15:00 AM 11.68 53.024 0.699 8.19 1109 9.04
5/12/2021 8:30:00 AM 11.66 52.988 0.702 8.22 1109 9.12
5/12/2021 8:45:00 AM 11.65 52.97 0.705 8.24 1110 9.19
5/12/2021 9:00:00 AM 11.65 52.97 0.708 8.27 1109 9.3
5/12/2021 9:15:00 AM 11.67 53.006 0.712 8.29 1110 9.37
5/12/2021 9:30:00 AM 11.71 53.078 0.713 8.32 1111 9.52
5/12/2021 9:45:00 AM 11.77 53.186 0.715 8.36 1111 9.72
5/12/2021 10:00:00 AM 11.87 53.366 0.718 8.41 1110 9.95
5/12/2021 10:15:00 AM 12.03 53.654 0.72 8.46 1110 10.27
5/12/2021 10:30:00 AM 12.34 54.212 0.721 8.54 1110 10.64
5/12/2021 10:45:00 AM 12.57 54.626 0.72 8.72 1108 11.09
5/12/2021 11:00:00 AM 12.78 55.004 0.72 8.85 1106 11.38
5/12/2021 11:15:00 AM 13 55.4 0.722 8.96 1103 11.68
5/12/2021 11:30:00 AM 13.2 55.76 0.722 9 1101 11.92
5/12/2021 11:45:00 AM 13.45 56.21 0.725 9.04 1101 12.17
5/12/2021 12:00:00 PM 13.71 56.678 0.724 9.13 1099 12.4
5/12/2021 12:15:00 PM 13.98 57.164 0.724 9.08 1098 12.58
5/12/2021 12:30:00 PM 14.21 57.578 0.724 9.08 1098 12.79
5/12/2021 12:45:00 PM 14.43 57.974 0.726 9.06 1097 12.95
5/12/2021 1:00:00 PM 14.63 58.334 0.728 9.06 1097 13.02
5/12/2021 1:15:00 PM 14.78 58.604 0.727 9.03 1094 13.1
5/12/2021 1:30:00 PM 15 59 0.725 9.01 1094 13.12
5/12/2021 1:45:00 PM 15.11 59.198 0.725 8.97 1095 13.13
5/12/2021 2:00:00 PM 15.2 59.36 0.721 8.94 1094 13.15
5/12/2021 2:15:00 PM 15.37 59.666 0.724 8.91 1094 13.13
5/12/2021 2:30:00 PM 15.58 60.044 0.724 8.9 1093 13.2
5/12/2021 2:45:00 PM 15.69 60.242 0.724 8.89 1092 13.31
5/12/2021 3:00:00 PM 15.71 60.278 0.726 8.88 1092 13.23
5/12/2021 3:15:00 PM 15.69 60.242 0.724 8.87 1091 13.07
5/12/2021 3:30:00 PM 15.88 60.584 0.724 8.87 1090 12.99
5/12/2021 3:45:00 PM 15.99 60.782 0.725 8.87 1089 13.03
5/12/2021 4:00:00 PM 15.98 60.764 0.725 8.87 1089 13
5/12/2021 4:15:00 PM 15.94 60.692 0.725 8.87 1090 12.78
5/12/2021 4:30:00 PM 15.96 60.728 0.725 8.87 1090 12.64
5/12/2021 4:45:00 PM 16 60.8 0.723 8.88 1089 12.53
5/12/2021 5:00:00 PM 16.06 60.908 0.722 8.88 1089 12.48
5/12/2021 5:15:00 PM 16.07 60.926 0.721 8.88 1091 12.44
5/12/2021 5:30:00 PM 16.04 60.872 0.724 8.88 1093 12.32
5/12/2021 5:45:00 PM 15.97 60.746 0.724 8.88 1092 12.06
5/12/2021 6:00:00 PM 15.97 60.746 0.717 8.87 1094 11.82
5/12/2021 6:15:00 PM 15.96 60.728 0.718 8.87 1095 11.61
5/12/2021 6:30:00 PM 15.96 60.728 0.719 8.86 1092 11.4
5/12/2021 6:45:00 PM 15.96 60.728 0.72 8.85 1093 11.17
5/12/2021 7:00:00 PM 15.99 60.782 0.721 8.85 1092 11.04
5/12/2021 7:15:00 PM 16 60.8 0.715 8.84 1097 10.89
5/12/2021 7:30:00 PM 15.99 60.782 0.719 8.84 1092 10.73
5/12/2021 7:45:00 PM 15.97 60.746 0.721 8.83 1092 10.53
5/12/2021 8:00:00 PM 15.94 60.692 0.718 8.82 1092 10.33
5/12/2021 8:15:00 PM 15.9 60.62 0.72 8.81 1091 10.16
5/12/2021 8:30:00 PM 15.86 60.548 0.721 8.77 1093 9.95
5/12/2021 8:45:00 PM 15.81 60.458 0.72 8.72 1092 9.77
5/12/2021 9:00:00 PM 15.76 60.368 0.719 8.68 1092 9.58
5/12/2021 9:15:00 PM 15.71 60.278 0.719 8.66 1094 9.46
5/12/2021 9:30:00 PM 15.65 60.17 0.723 8.63 1095 9.3
5/12/2021 9:45:00 PM 15.59 60.062 0.722 8.6 1098 9.17
5/12/2021 10:00:00 PM 15.53 59.954 0.725 8.57 1099 9.01
5/12/2021 10:15:00 PM 15.45 59.81 0.725 8.54 1098 8.87
5/12/2021 10:30:00 PM 15.39 59.702 0.726 8.52 1098 8.66
5/12/2021 10:45:00 PM 15.3 59.54 0.729 8.48 1100 8.6
5/12/2021 11:00:00 PM 15.22 59.396 0.729 8.46 1101 8.54
5/12/2021 11:15:00 PM 15.13 59.234 0.73 8.43 1101 8.44
5/12/2021 11:30:00 PM 15.03 59.054 0.732 8.4 1102 8.35
5/12/2021 11:45:00 PM 14.92 58.856 0.733 8.37 1102 8.27
5/13/2021 12:00:00 AM 14.82 58.676 0.734 8.34 1103 8.21
5/13/2021 12:15:00 AM 14.7 58.46 0.733 8.31 1105 8.16
5/13/2021 12:30:00 AM 14.59 58.262 0.735 8.29 1106 8.11
5/13/2021 12:45:00 AM 14.48 58.064 0.736 8.26 1106 8.05
5/13/2021 1:00:00 AM 14.37 57.866 0.738 8.24 1106 8.02
5/13/2021 1:15:00 AM 14.26 57.668 0.74 8.22 1107 7.99
5/13/2021 1:30:00 AM 14.14 57.452 0.744 8.2 1108 7.98
5/13/2021 1:45:00 AM 14.03 57.254 0.745 8.18 1108 7.97
5/13/2021 2:00:00 AM 13.92 57.056 0.748 8.17 1108 7.96
5/13/2021 2:15:00 AM 13.8 56.84 0.75 8.15 1111 7.95
5/13/2021 2:30:00 AM 13.7 56.66 0.752 8.13 1110 7.91
5/13/2021 2:45:00 AM 13.59 56.462 0.755 8.12 1109 7.93
5/13/2021 3:00:00 AM 13.48 56.264 0.758 8.1 1106 7.92
5/13/2021 3:15:00 AM 13.38 56.084 0.761 8.09 1106 7.92
5/13/2021 3:30:00 AM 13.27 55.886 0.764 8.08 1106 7.96
5/13/2021 3:45:00 AM 13.17 55.706 0.766 8.07 1107 7.97
5/13/2021 4:00:00 AM 13.07 55.526 0.768 8.06 1108 8
5/13/2021 4:15:00 AM 12.97 55.346 0.771 8.05 1108 8
5/13/2021 4:30:00 AM 12.88 55.184 0.773 8.04 1109 8.04
5/13/2021 4:45:00 AM 12.78 55.004 0.775 8.03 1109 8.05
5/13/2021 5:00:00 AM 12.69 54.842 0.778 8.03 1110 8.06
5/13/2021 5:15:00 AM 12.6 54.68 0.781 8.02 1110 8.08
5/13/2021 5:30:00 AM 12.52 54.536 0.784 8.02 1111 8.11
5/13/2021 5:45:00 AM 12.44 54.392 0.786 8.01 1111 8.14
5/13/2021 6:00:00 AM 12.35 54.23 0.789 8 1111 8.17
5/13/2021 6:15:00 AM 12.28 54.104 0.791 8 1112 8.21
5/13/2021 6:30:00 AM 12.2 53.96 0.793 8 1110 8.28
5/13/2021 6:45:00 AM 12.13 53.834 0.795 7.99 1112 8.32
5/13/2021 7:00:00 AM 12.07 53.726 0.797 7.99 1112 8.42
5/13/2021 7:15:00 AM 12.01 53.618 0.799 7.99 1113 8.46
5/13/2021 7:30:00 AM 11.97 53.546 0.801 8 1114 8.54
5/13/2021 7:45:00 AM 11.93 53.474 0.802 8 1115 8.6
5/13/2021 8:00:00 AM 11.9 53.42 0.804 8.01 1115 8.68
5/13/2021 8:15:00 AM 11.88 53.384 0.804 8.03 1115 8.77
5/13/2021 8:30:00 AM 11.87 53.366 0.807 8.06 1114 8.87
5/13/2021 8:45:00 AM 11.87 53.366 0.808 8.1 1115 8.98
5/13/2021 9:00:00 AM 11.89 53.402 0.81 8.14 1115 9.08
5/13/2021 9:15:00 AM 11.92 53.456 0.812 8.18 1116 9.19
5/13/2021 9:30:00 AM 11.98 53.564 0.813 8.23 1114 9.39
5/13/2021 9:45:00 AM 12.05 53.69 0.814 8.29 1113 9.59
5/13/2021 10:00:00 AM 12.17 53.906 0.814 8.37 1112 9.86
5/13/2021 10:15:00 AM 12.35 54.23 0.816 8.44 1111 10.19
5/13/2021 10:30:00 AM 12.63 54.734 0.818 8.56 1111 10.53
5/13/2021 10:45:00 AM 12.92 55.256 0.817 8.73 1108 10.98
5/13/2021 11:00:00 AM 13.14 55.652 0.819 8.88 1106 11.29
5/13/2021 11:15:00 AM 13.37 56.066 0.819 9 1104 11.6
5/13/2021 11:30:00 AM 13.61 56.498 0.82 8.87 1103 11.9
5/13/2021 11:45:00 AM 13.86 56.948 0.82 8.9 1102 12.06
5/13/2021 12:00:00 PM 14.06 57.308 0.821 9.02 1101 12.35
5/13/2021 12:15:00 PM 14.13 57.434 0.822 9.06 1101 12.4
5/13/2021 12:30:00 PM 14.16 57.488 0.822 9.05 1101 12.33
5/13/2021 12:45:00 PM 14.37 57.866 0.822 9.1 1100 12.5
5/13/2021 1:00:00 PM 14.61 58.298 0.822 9.15 1098 12.78
5/13/2021 1:15:00 PM 14.75 58.55 0.822 9.21 1097 12.95
5/13/2021 1:30:00 PM 14.85 58.73 0.822 9.26 1097 12.95
5/13/2021 1:45:00 PM 15.03 59.054 0.822 9.31 1096 13.05
5/13/2021 2:00:00 PM 15.14 59.252 0.82 9.38 1095 13.13
5/13/2021 2:15:00 PM 15.33 59.594 0.82 9.43 1094 13.23
5/13/2021 2:30:00 PM 15.35 59.63 0.821 9.44 1094 13.24
5/13/2021 2:45:00 PM 15.42 59.756 0.82 9.43 1093 13.21
5/13/2021 3:00:00 PM 15.5 59.9 0.822 9.4 1094 13.12
5/13/2021 3:15:00 PM 15.64 60.152 0.822 9.31 1093 13.17
5/13/2021 3:30:00 PM 15.65 60.17 0.822 9.24 1091 13.14
5/13/2021 3:45:00 PM 15.61 60.098 0.821 9.19 1092 13.01
5/13/2021 4:00:00 PM 15.74 60.332 0.819 9.15 1092 12.88
5/13/2021 4:15:00 PM 15.79 60.422 0.82 9.11 1092 12.84
5/13/2021 4:30:00 PM 15.76 60.368 0.82 9.08 1092 12.67
5/13/2021 4:45:00 PM 15.8 60.44 0.82 9.05 1092 12.56
5/13/2021 5:00:00 PM 15.82 60.476 0.816 9.03 1092 12.48
5/13/2021 5:15:00 PM 15.86 60.548 0.815 9.02 1092 12.4
5/13/2021 5:30:00 PM 15.82 60.476 0.813 9 1092 12.2
5/13/2021 5:45:00 PM 15.81 60.458 0.814 8.98 1093 11.98
5/13/2021 6:00:00 PM 15.8 60.44 0.814 8.97 1094 11.73
5/13/2021 6:15:00 PM 15.83 60.494 0.812 8.97 1093 11.53
5/13/2021 6:30:00 PM 15.85 60.53 0.815 8.95 1092 11.36
5/13/2021 6:45:00 PM 15.89 60.602 0.812 8.94 1093 11.2
5/13/2021 7:00:00 PM 15.95 60.71 0.813 8.92 1092 11.08
5/13/2021 7:15:00 PM 16 60.8 0.812 8.92 1092 10.97
5/13/2021 7:30:00 PM 16.02 60.836 0.811 8.89 1092 10.77
5/13/2021 7:45:00 PM 16.03 60.854 0.81 8.85 1092 10.52
5/13/2021 8:00:00 PM 16.02 60.836 0.811 8.81 1092 10.29
5/13/2021 8:15:00 PM 16 60.8 0.807 8.79 1092 10.07
5/13/2021 8:30:00 PM 15.98 60.764 0.809 8.76 1092 9.89
5/13/2021 8:45:00 PM 15.97 60.746 0.809 8.72 1092 9.69
5/13/2021 9:00:00 PM 15.95 60.71 0.811 8.68 1093 9.5
5/13/2021 9:15:00 PM 15.93 60.674 0.809 8.74 1096 9.34
5/13/2021 9:30:00 PM 15.89 60.602 0.81 8.72 1090 9.21
5/13/2021 9:45:00 PM 15.84 60.512 0.811 8.68 1090 9.04
5/13/2021 10:00:00 PM 15.8 60.44 0.811 8.65 1091 8.9
5/13/2021 10:15:00 PM 15.76 60.368 0.813 8.63 1091 8.75
5/13/2021 10:30:00 PM 15.71 60.278 0.813 8.6 1092 8.62
5/13/2021 10:45:00 PM 15.65 60.17 0.813 8.57 1095 8.51
5/13/2021 11:00:00 PM 15.58 60.044 0.814 8.54 1097 8.38
5/13/2021 11:15:00 PM 15.51 59.918 0.814 8.51 1100 8.3
5/13/2021 11:30:00 PM 15.43 59.774 0.815 8.48 1105 8.19
5/13/2021 11:45:00 PM 15.35 59.63 0.816 8.44 1105 8.1
5/14/2021 12:00:00 AM 15.26 59.468 0.816 8.41 1106 8.03
5/14/2021 12:15:00 AM 15.18 59.324 0.817 8.38 1112 8.01
5/14/2021 12:30:00 AM 15.08 59.144 0.818 8.35 1105 7.92
5/14/2021 12:45:00 AM 14.99 58.982 0.817 8.33 1104 7.86
5/14/2021 1:00:00 AM 14.89 58.802 0.821 8.3 1106 7.84
5/14/2021 1:15:00 AM 14.8 58.64 0.819 8.27 1106 7.8
5/14/2021 1:30:00 AM 14.7 58.46 0.819 8.25 1104 7.75
5/14/2021 1:45:00 AM 14.61 58.298 0.819 8.23 1105 7.78
5/14/2021 2:00:00 AM 14.51 58.118 0.821 8.21 1106 7.74
5/14/2021 2:15:00 AM 14.42 57.956 0.818 8.19 1105 7.75
5/14/2021 2:30:00 AM 14.33 57.794 0.818 8.17 1106 7.75
5/14/2021 2:45:00 AM 14.23 57.614 0.819 8.15 1107 7.74
5/14/2021 3:00:00 AM 14.13 57.434 0.818 8.14 1107 7.74
5/14/2021 3:15:00 AM 14.04 57.272 0.819 8.13 1111 7.73
5/14/2021 3:30:00 AM 13.95 57.11 0.819 8.11 1112 7.74
5/14/2021 3:45:00 AM 13.86 56.948 0.819 8.1 1105 7.73
5/14/2021 4:00:00 AM 13.77 56.786 0.82 8.08 1133 7.74
5/14/2021 4:15:00 AM 13.68 56.624 0.82 8.07 1133 7.74
5/14/2021 4:30:00 AM 13.59 56.462 0.82 8.06 1144 7.77
5/14/2021 4:45:00 AM 13.51 56.318 0.82 8.05 1141 7.78
5/14/2021 5:00:00 AM 13.42 56.156 0.82 8.04 1110 7.81
5/14/2021 5:15:00 AM 13.33 55.994 0.822 8.04 1112 7.87
5/14/2021 5:30:00 AM 13.25 55.85 0.821 8.03 1129 7.88
5/14/2021 5:45:00 AM 13.16 55.688 0.82 8.03 1131 7.87
5/14/2021 6:00:00 AM 13.09 55.562 0.822 8.02 1123 7.92
5/14/2021 6:15:00 AM 13.01 55.418 0.822 8.02 1122 7.97
5/14/2021 6:30:00 AM 12.93 55.274 0.823 8.02 1117 8.02
5/14/2021 6:45:00 AM 12.87 55.166 0.824 8.02 1115 8.08
5/14/2021 7:00:00 AM 12.8 55.04 0.825 8.02 1112 8.13
5/14/2021 7:15:00 AM 12.75 54.95 0.827 8.02 1112 8.21
5/14/2021 7:30:00 AM 12.7 54.86 0.826 8.03 1113 8.28
5/14/2021 7:45:00 AM 12.66 54.788 0.828 8.03 1113 8.36
5/14/2021 8:00:00 AM 12.63 54.734 0.828 8.05 1115 8.46
5/14/2021 8:15:00 AM 12.61 54.698 0.829 8.08 1115 8.51
5/14/2021 8:30:00 AM 12.61 54.698 0.83 8.11 1115 8.61
5/14/2021 8:45:00 AM 12.61 54.698 0.83 8.15 1116 8.74
5/14/2021 9:00:00 AM 12.63 54.734 0.831 8.19 1116 8.86
5/14/2021 9:15:00 AM 12.67 54.806 0.832 8.24 1115 8.94
5/14/2021 9:30:00 AM 12.73 54.914 0.833 8.3 1115 9.1
5/14/2021 9:45:00 AM 12.81 55.058 0.832 8.38 1114 9.3
5/14/2021 10:00:00 AM 12.93 55.274 0.833 8.47 1116 9.53
5/14/2021 10:15:00 AM 13.11 55.598 0.832 8.56 1118 9.85
5/14/2021 10:30:00 AM 13.45 56.21 0.832 8.66 1116 10.23
5/14/2021 10:45:00 AM 13.73 56.714 0.833 8.77 1122 10.64
5/14/2021 11:00:00 AM 13.93 57.074 0.833 8.9 1121 10.98
5/14/2021 11:15:00 AM 14.2 57.56 0.833 8.98 1116 11.32
5/14/2021 11:30:00 AM 14.4 57.92 0.834 8.89 1116 11.62
5/14/2021 11:45:00 AM 14.63 58.334 0.834 8.95 1115 11.88
5/14/2021 12:00:00 PM 14.96 58.928 0.836 9.03 1124 12.16
5/14/2021 12:15:00 PM 15.19 59.342 0.834 8.94 1117 12.45
5/14/2021 12:30:00 PM 15.44 59.792 0.835 8.9 1110 12.67
5/14/2021 12:45:00 PM 15.64 60.152 0.835 8.89 1112 12.83
5/14/2021 1:00:00 PM 15.76 60.368 0.832 8.95 1109 12.95
5/14/2021 1:15:00 PM 15.99 60.782 0.833 9.04 1107 13.02
5/14/2021 1:30:00 PM 16.14 61.052 0.834 9.13 1106 13.16
5/14/2021 1:45:00 PM 16.37 61.466 0.833 9.19 1101 13.21
5/14/2021 2:00:00 PM 16.64 61.952 0.833 9.23 1101 13.41
5/14/2021 2:15:00 PM 16.67 62.006 0.832 9.25 1100 13.48
5/14/2021 2:30:00 PM 16.7 62.06 0.831 9.25 1100 13.16
5/14/2021 2:45:00 PM 16.96 62.528 0.83 9.23 1100 13.31
5/14/2021 3:00:00 PM 17.22 62.996 0.829 9.07 1098 13.6
5/14/2021 3:15:00 PM 17.25 63.05 0.829 9.01 1097 13.57
5/14/2021 3:30:00 PM 17.27 63.086 0.83 8.98 1098 13.33
5/14/2021 3:45:00 PM 17.41 63.338 0.828 8.94 1098 13.19
5/14/2021 4:00:00 PM 17.47 63.446 0.827 9.01 1094 13.16
5/14/2021 4:15:00 PM 17.54 63.572 0.827 8.92 1092 13.06
5/14/2021 4:30:00 PM 17.64 63.752 0.826 8.89 1092 13.07
5/14/2021 4:45:00 PM 17.66 63.788 0.826 8.87 1090 13.01
5/14/2021 5:00:00 PM 17.59 63.662 0.824 8.92 1092 12.86
5/14/2021 5:15:00 PM 17.61 63.698 0.821 8.88 1092 12.6
5/14/2021 5:30:00 PM 17.62 63.716 0.809 8.87 1092 12.37
5/14/2021 5:45:00 PM 17.6 63.68 0.82 8.86 1093 12.23
5/14/2021 6:00:00 PM 17.56 63.608 0.818 8.85 1093 12.04
5/14/2021 6:15:00 PM 17.53 63.554 0.817 8.85 1094 11.8
5/14/2021 6:30:00 PM 17.54 63.572 0.818 8.85 1094 11.59
5/14/2021 6:45:00 PM 17.59 63.662 0.816 8.83 1093 11.39
5/14/2021 7:00:00 PM 17.59 63.662 0.814 8.83 1095 11.21
5/14/2021 7:15:00 PM 17.61 63.698 0.813 8.81 1097 11
5/14/2021 7:30:00 PM 17.6 63.68 0.814 8.81 1097 10.74
5/14/2021 7:45:00 PM 17.58 63.644 0.804 8.79 1098 10.49
5/14/2021 8:00:00 PM 17.57 63.626 0.814 8.79 1121 10.3
5/14/2021 8:15:00 PM 17.56 63.608 0.814 8.76 1113 10.11
5/14/2021 8:30:00 PM 17.54 63.572 0.815 8.83 1103 9.88
5/14/2021 8:45:00 PM 17.51 63.518 0.816 8.8 1100 9.68
5/14/2021 9:00:00 PM 17.47 63.446 0.816 8.76 1100 9.47
5/14/2021 9:15:00 PM 17.42 63.356 0.816 8.74 1099 9.25
5/14/2021 9:30:00 PM 17.37 63.266 0.815 8.7 1100 9.06
5/14/2021 9:45:00 PM 17.31 63.158 0.817 8.68 1100 8.89
5/14/2021 10:00:00 PM 17.24 63.032 0.816 8.65 1101 8.68
5/14/2021 10:15:00 PM 17.16 62.888 0.817 8.62 1101 8.5
5/14/2021 10:30:00 PM 17.08 62.744 0.817 8.59 1101 8.38
5/14/2021 10:45:00 PM 17 62.6 0.818 8.56 1104 8.17
5/14/2021 11:00:00 PM 16.91 62.438 0.818 8.53 1104 8.01
5/14/2021 11:15:00 PM 16.82 62.276 0.818 8.5 1105 7.92
5/14/2021 11:30:00 PM 16.72 62.096 0.819 8.46 1107 7.82
5/14/2021 11:45:00 PM 16.62 61.916 0.82 8.43 1107 7.75
5/15/2021 12:00:00 AM 16.52 61.736 0.822 8.4 1107 7.64
5/15/2021 12:15:00 AM 16.42 61.556 0.823 8.37 1107 7.58
5/15/2021 12:30:00 AM 16.31 61.358 0.825 8.34 1108 7.51
5/15/2021 12:45:00 AM 16.2 61.16 0.825 8.32 1108 7.45
5/15/2021 1:00:00 AM 16.09 60.962 0.826 8.29 1108 7.42
5/15/2021 1:15:00 AM 15.98 60.764 0.827 8.27 1109 7.35
5/15/2021 1:30:00 AM 15.87 60.566 0.827 8.25 1111 7.33
5/15/2021 1:45:00 AM 15.76 60.368 0.828 8.22 1110 7.31
5/15/2021 2:00:00 AM 15.65 60.17 0.822 8.2 1111 7.33
5/15/2021 2:15:00 AM 15.54 59.972 0.828 8.18 1112 7.26
5/15/2021 2:30:00 AM 15.43 59.774 0.828 8.16 1112 7.29
5/15/2021 2:45:00 AM 15.33 59.594 0.828 8.15 1114 7.24
5/15/2021 3:00:00 AM 15.22 59.396 0.828 8.13 1114 7.25
5/15/2021 3:15:00 AM 15.1 59.18 0.828 8.12 1114 7.25
5/15/2021 3:30:00 AM 15.01 59.018 0.829 8.1 1115 7.26
5/15/2021 3:45:00 AM 14.9 58.82 0.829 8.09 1115 7.29
5/15/2021 4:00:00 AM 14.8 58.64 0.828 8.07 1117 7.31
5/15/2021 4:15:00 AM 14.7 58.46 0.829 8.06 1117 7.31
5/15/2021 4:30:00 AM 14.6 58.28 0.828 8.05 1118 7.33
5/15/2021 4:45:00 AM 14.49 58.082 0.83 8.05 1118 7.38
5/15/2021 5:00:00 AM 14.4 57.92 0.822 8.04 1118 7.36
5/15/2021 5:15:00 AM 14.31 57.758 0.831 8.03 1119 7.39
5/15/2021 5:30:00 AM 14.22 57.596 0.832 8.02 1120 7.44
5/15/2021 5:45:00 AM 14.13 57.434 0.833 8.01 1120 7.46
5/15/2021 6:00:00 AM 14.03 57.254 0.833 8.01 1121 7.48
5/15/2021 6:15:00 AM 13.95 57.11 0.834 8 1121 7.51
5/15/2021 6:30:00 AM 13.88 56.984 0.835 8 1122 7.56
5/15/2021 6:45:00 AM 13.8 56.84 0.837 8 1122 7.62
5/15/2021 7:00:00 AM 13.73 56.714 0.838 8.01 1123 7.72
5/15/2021 7:15:00 AM 13.67 56.606 0.839 8.01 1123 7.8
5/15/2021 7:30:00 AM 13.62 56.516 0.841 8.02 1123 7.86
5/15/2021 7:45:00 AM 13.57 56.426 0.842 8.03 1124 7.95
5/15/2021 8:00:00 AM 13.54 56.372 0.843 8.05 1125 8.04
5/15/2021 8:15:00 AM 13.51 56.318 0.843 8.07 1125 8.16
5/15/2021 8:30:00 AM 13.5 56.3 0.845 8.11 1126 8.24
5/15/2021 8:45:00 AM 13.5 56.3 0.846 8.16 1152 8.33
5/15/2021 9:00:00 AM 13.5 56.3 0.847 8.2 1165 8.44
5/15/2021 9:15:00 AM 13.53 56.354 0.848 8.23 1168 8.56
5/15/2021 9:30:00 AM 13.58 56.444 0.85 8.28 1168 8.73
5/15/2021 9:45:00 AM 13.67 56.606 0.851 8.37 1167 8.93
5/15/2021 10:00:00 AM 13.78 56.804 0.852 8.46 1166 9.18
5/15/2021 10:15:00 AM 13.95 57.11 0.852 8.55 1164 9.5
5/15/2021 10:30:00 AM 14.23 57.614 0.853 8.67 1165 9.9
5/15/2021 10:45:00 AM 14.54 58.172 0.853 8.78 1161 10.37
5/15/2021 11:00:00 AM 14.73 58.514 0.855 8.83 1174 10.73
5/15/2021 11:15:00 AM 15.01 59.018 0.855 8.87 1170 11.05
5/15/2021 11:30:00 AM 15.2 59.36 0.856 8.75 1170 11.39
5/15/2021 11:45:00 AM 15.46 59.828 0.857 8.84 1169 11.66
5/15/2021 12:00:00 PM 15.76 60.368 0.857 8.94 1169 11.96
5/15/2021 12:15:00 PM 16.02 60.836 0.858 8.81 1168 12.2
5/15/2021 12:30:00 PM 16.29 61.322 0.858 8.76 1167 12.41
5/15/2021 12:45:00 PM 16.52 61.736 0.858 8.76 1166 12.67
5/15/2021 1:00:00 PM 16.76 62.168 0.859 8.79 1166 12.88
5/15/2021 1:15:00 PM 16.96 62.528 0.859 8.87 1170 13.05
5/15/2021 1:30:00 PM 16.98 62.564 0.859 8.96 1165 13.06
5/15/2021 1:45:00 PM 16.88 62.384 0.86 9.04 1167 12.85
5/15/2021 2:00:00 PM 16.88 62.384 0.86 9.08 1167 12.66
5/15/2021 2:15:00 PM 16.95 62.51 0.86 9.13 1167 12.81
5/15/2021 2:30:00 PM 17.04 62.672 0.859 9.2 1168 12.94
5/15/2021 2:45:00 PM 17.11 62.798 0.859 9.24 1172 13.07
5/15/2021 3:00:00 PM 17.17 62.906 0.858 9.25 1170 13.02
5/15/2021 3:15:00 PM 17.22 62.996 0.858 9.23 1168 13.01
5/15/2021 3:30:00 PM 17.29 63.122 0.857 9.18 1168 12.9
5/15/2021 3:45:00 PM 17.42 63.356 0.857 9.12 1170 12.96
5/15/2021 4:00:00 PM 17.49 63.482 0.857 9.07 1168 12.91
5/15/2021 4:15:00 PM 17.53 63.554 0.857 9.03 1169 12.78
5/15/2021 4:30:00 PM 17.58 63.644 0.858 9.01 1163 12.62
5/15/2021 4:45:00 PM 17.6 63.68 0.857 9 1158 12.43
5/15/2021 5:00:00 PM 17.61 63.698 0.857 8.98 1161 12.36
5/15/2021 5:15:00 PM 17.59 63.662 0.857 8.98 1159 12.21
5/15/2021 5:30:00 PM 17.62 63.716 0.857 8.96 1158 12.1
5/15/2021 5:45:00 PM 17.69 63.842 0.856 8.94 1158 11.88
5/15/2021 6:00:00 PM 17.71 63.878 0.856 8.93 1158 11.74
5/15/2021 6:15:00 PM 17.75 63.95 0.855 8.92 1159 11.59
5/15/2021 6:30:00 PM 17.77 63.986 0.855 8.91 1156 11.38
5/15/2021 6:45:00 PM 17.82 64.076 0.855 8.9 1203 11.14
5/15/2021 7:00:00 PM 17.87 64.166 0.854 8.89 1158 10.92
5/15/2021 7:15:00 PM 17.9 64.22 0.853 8.88 1158 10.72
5/15/2021 7:30:00 PM 17.9 64.22 0.854 8.87 1158 10.49
5/15/2021 7:45:00 PM 17.91 64.238 0.853 8.85 1159 10.26
5/15/2021 8:00:00 PM 17.93 64.274 0.852 8.84 1158 10.01
5/15/2021 8:15:00 PM 17.93 64.274 0.852 8.83 1158 9.78
5/15/2021 8:30:00 PM 17.91 64.238 0.852 8.82 1157 9.57
5/15/2021 8:45:00 PM 17.89 64.202 0.852 8.81 1157 9.4
5/15/2021 9:00:00 PM 17.85 64.13 0.852 8.8 1157 9.16
5/15/2021 9:15:00 PM 17.81 64.058 0.852 8.79 1158 8.97
5/15/2021 9:30:00 PM 17.77 63.986 0.852 8.77 1157 8.77
5/15/2021 9:45:00 PM 17.72 63.896 0.852 8.76 1153 8.67
5/15/2021 10:00:00 PM 17.67 63.806 0.851 8.74 1153 8.46
5/15/2021 10:15:00 PM 17.61 63.698 0.851 8.71 1149 8.31
5/15/2021 10:30:00 PM 17.55 63.59 0.851 8.69 1149 8.16
5/15/2021 10:45:00 PM 17.49 63.482 0.852 8.66 1148 8.03
5/15/2021 11:00:00 PM 17.43 63.374 0.852 8.64 1149 7.9
5/15/2021 11:15:00 PM 17.36 63.248 0.851 8.61 1149 7.74
5/15/2021 11:30:00 PM 17.28 63.104 0.851 8.58 1150 7.65
5/15/2021 11:45:00 PM 17.2 62.96 0.851 8.54 1157 7.53
5/16/2021 12:00:00 AM 17.12 62.816 0.851 8.5 1152 7.46
5/16/2021 12:15:00 AM 17.04 62.672 0.85 8.47 1153 7.4
5/16/2021 12:30:00 AM 16.98 62.564 0.85 8.45 1155 7.32
5/16/2021 12:45:00 AM 16.91 62.438 0.85 8.43 1153 7.25
5/16/2021 1:00:00 AM 16.84 62.312 0.85 8.42 1154 7.22
5/16/2021 1:15:00 AM 16.76 62.168 0.85 8.4 1154 7.16
5/16/2021 1:30:00 AM 16.68 62.024 0.85 8.38 1153 7.13
5/16/2021 1:45:00 AM 16.6 61.88 0.849 8.36 1153 7.09
5/16/2021 2:00:00 AM 16.51 61.718 0.849 8.35 1154 7.09
5/16/2021 2:15:00 AM 16.43 61.574 0.849 8.33 1154 7.05
5/16/2021 2:30:00 AM 16.35 61.43 0.848 8.3 1155 7.03
5/16/2021 2:45:00 AM 16.28 61.304 0.848 8.29 1155 7.02
5/16/2021 3:00:00 AM 16.19 61.142 0.848 8.27 1156 7.03
5/16/2021 3:15:00 AM 16.1 60.98 0.848 8.25 1158 7.01
5/16/2021 3:30:00 AM 16.02 60.836 0.848 8.23 1158 7.01
5/16/2021 3:45:00 AM 15.94 60.692 0.848 8.21 1159 7.01
5/16/2021 4:00:00 AM 15.86 60.548 0.848 8.2 1160 7.03
5/16/2021 4:15:00 AM 15.78 60.404 0.848 8.19 1161 7.03
5/16/2021 4:30:00 AM 15.7 60.26 0.847 8.18 1161 7.01
5/16/2021 4:45:00 AM 15.61 60.098 0.847 8.16 1162 7.05
5/16/2021 5:00:00 AM 15.53 59.954 0.847 8.15 1162 7.06
5/16/2021 5:15:00 AM 15.44 59.792 0.847 8.14 1162 7.07
5/16/2021 5:30:00 AM 15.37 59.666 0.847 8.12 1161 7.08
5/16/2021 5:45:00 AM 15.29 59.522 0.847 8.12 1169 7.11
5/16/2021 6:00:00 AM 15.22 59.396 0.847 8.11 1171 7.12
5/16/2021 6:15:00 AM 15.16 59.288 0.848 8.1 1171 7.17
5/16/2021 6:30:00 AM 15.1 59.18 0.847 8.11 1171 7.21
5/16/2021 6:45:00 AM 15.05 59.09 0.848 8.12 1177 7.29
5/16/2021 7:00:00 AM 15.01 59.018 0.848 8.14 1177 7.38
5/16/2021 7:15:00 AM 14.97 58.946 0.849 8.17 1185 7.52
5/16/2021 7:30:00 AM 14.94 58.892 0.849 8.21 1186 7.67
5/16/2021 7:45:00 AM 14.92 58.856 0.849 8.25 1186 7.77
5/16/2021 8:00:00 AM 14.91 58.838 0.849 8.29 1185 8
5/16/2021 8:15:00 AM 14.92 58.856 0.849 8.33 1185 8.18
5/16/2021 8:30:00 AM 14.94 58.892 0.85 8.4 1185 8.37
5/16/2021 8:45:00 AM 14.96 58.928 0.85 8.49 1184 8.61
5/16/2021 9:00:00 AM 14.98 58.964 0.85 8.57 1184 8.8
5/16/2021 9:15:00 AM 14.99 58.982 0.851 8.64 1186 8.97
5/16/2021 9:30:00 AM 15.02 59.036 0.851 8.7 1185 9.12
5/16/2021 9:45:00 AM 15.05 59.09 0.851 8.72 1184 9.31
5/16/2021 10:00:00 AM 15.08 59.144 0.851 8.73 1184 9.52
5/16/2021 10:15:00 AM 15.12 59.216 0.852 8.73 1183 9.65
5/16/2021 10:30:00 AM 15.13 59.234 0.852 8.73 1181 9.77
5/16/2021 10:45:00 AM 15.17 59.306 0.852 8.72 1190 9.95
5/16/2021 11:00:00 AM 15.22 59.396 0.852 8.71 1183 10.04
5/16/2021 11:15:00 AM 15.32 59.576 0.852 8.7 1182 10.37
5/16/2021 11:30:00 AM 15.5 59.9 0.851 8.69 1181 10.76
5/16/2021 11:45:00 AM 15.62 60.116 0.851 8.69 1182 11.16
5/16/2021 12:00:00 PM 15.67 60.206 0.852 8.71 1182 11.38
5/16/2021 12:15:00 PM 15.72 60.296 0.852 8.71 1182 11.4
5/16/2021 12:30:00 PM 15.83 60.494 0.852 8.7 1182 11.49
5/16/2021 12:45:00 PM 15.95 60.71 0.852 8.7 1179 11.74
5/16/2021 1:00:00 PM 16.04 60.872 0.851 8.71 1178 12.06
5/16/2021 1:15:00 PM 16.06 60.908 0.852 8.72 1179 12.21
5/16/2021 1:30:00 PM 16.1 60.98 0.852 8.73 1182 12.15
5/16/2021 1:45:00 PM 16.16 61.088 0.852 8.73 1171 12.14
5/16/2021 2:00:00 PM 16.29 61.322 0.851 8.74 1186 12.34
5/16/2021 2:15:00 PM 16.47 61.646 0.85 8.75 1184 12.6
5/16/2021 2:30:00 PM 16.55 61.79 0.849 8.77 1178 12.88
5/16/2021 2:45:00 PM 16.63 61.934 0.848 8.78 1184 12.99
5/16/2021 3:00:00 PM 16.69 62.042 0.847 8.79 1181 12.9
5/16/2021 3:15:00 PM 16.73 62.114 0.848 8.79 1179 12.87
5/16/2021 3:30:00 PM 16.73 62.114 0.847 8.8 1175 12.76
5/16/2021 3:45:00 PM 16.69 62.042 0.847 8.81 1178 12.53
5/16/2021 4:00:00 PM 16.65 61.97 0.848 8.8 1176 12.18
5/16/2021 4:15:00 PM 16.63 61.934 0.847 8.79 1149 11.84
5/16/2021 4:30:00 PM 16.63 61.934 0.845 8.79 1148 11.58
5/16/2021 4:45:00 PM 16.64 61.952 0.845 8.79 1135 11.49
5/16/2021 5:00:00 PM 16.65 61.97 0.846 8.79 1132 11.46
5/16/2021 5:15:00 PM 16.65 61.97 0.846 8.79 1133 11.26
5/16/2021 5:30:00 PM 16.65 61.97 0.845 8.78 1133 11.13
5/16/2021 5:45:00 PM 16.64 61.952 0.845 8.78 1131 10.96
5/16/2021 6:00:00 PM 16.63 61.934 0.845 8.77 1131 10.85
5/16/2021 6:15:00 PM 16.62 61.916 0.845 8.77 1131 10.75
5/16/2021 6:30:00 PM 16.6 61.88 0.845 8.76 1129 10.55
5/16/2021 6:45:00 PM 16.58 61.844 0.845 8.75 1129 10.33
5/16/2021 7:00:00 PM 16.57 61.826 0.845 8.74 1129 10.15
5/16/2021 7:15:00 PM 16.55 61.79 0.845 8.74 1129 9.98
5/16/2021 7:30:00 PM 16.54 61.772 0.846 8.73 1128 9.8
5/16/2021 7:45:00 PM 16.52 61.736 0.846 8.72 1128 9.58
5/16/2021 8:00:00 PM 16.5 61.7 0.847 8.71 1129 9.42
5/16/2021 8:15:00 PM 16.48 61.664 0.847 8.71 1127 9.24
5/16/2021 8:30:00 PM 16.46 61.628 0.847 8.69 1132 9.07
5/16/2021 8:45:00 PM 16.43 61.574 0.848 8.68 1128 8.93
5/16/2021 9:00:00 PM 16.41 61.538 0.848 8.67 1128 8.8
5/16/2021 9:15:00 PM 16.39 61.502 0.848 8.65 1133 8.67
5/16/2021 9:30:00 PM 16.36 61.448 0.848 8.64 1135 8.54
5/16/2021 9:45:00 PM 16.33 61.394 0.848 8.63 1135 8.42
5/16/2021 10:00:00 PM 16.3 61.34 0.848 8.62 1144 8.32
5/16/2021 10:15:00 PM 16.27 61.286 0.848 8.6 1147 8.23
5/16/2021 10:30:00 PM 16.23 61.214 0.848 8.58 1151 8.11
5/16/2021 10:45:00 PM 16.18 61.124 0.847 8.56 1150 8
5/16/2021 11:00:00 PM 16.14 61.052 0.847 8.54 1141 7.91
5/16/2021 11:15:00 PM 16.08 60.944 0.847 8.52 1135 7.86
5/16/2021 11:30:00 PM 16.02 60.836 0.846 8.5 1138 7.78
5/16/2021 11:45:00 PM 15.97 60.746 0.846 8.47 1137 7.72
5/17/2021 12:00:00 AM 15.92 60.656 0.846 8.45 1136 7.66
5/17/2021 12:15:00 AM 15.86 60.548 0.846 8.43 1139 7.64
5/17/2021 12:30:00 AM 15.8 60.44 0.847 8.41 1138 7.6
5/17/2021 12:45:00 AM 15.74 60.332 0.847 8.39 1142 7.55
5/17/2021 1:00:00 AM 15.68 60.224 0.848 8.38 1140 7.54
5/17/2021 1:15:00 AM 15.61 60.098 0.848 8.35 1140 7.49
5/17/2021 1:30:00 AM 15.54 59.972 0.848 8.33 1143 7.48
5/17/2021 1:45:00 AM 15.47 59.846 0.849 8.3 1144 7.46
5/17/2021 2:00:00 AM 15.4 59.72 0.849 8.28 1145 7.45
5/17/2021 2:15:00 AM 15.33 59.594 0.848 8.27 1145 7.42
5/17/2021 2:30:00 AM 15.26 59.468 0.848 8.25 1147 7.43
5/17/2021 2:45:00 AM 15.19 59.342 0.849 8.23 1144 7.42
5/17/2021 3:00:00 AM 15.12 59.216 0.849 8.21 1146 7.44
5/17/2021 3:15:00 AM 15.04 59.072 0.849 8.19 1145 7.44
5/17/2021 3:30:00 AM 14.98 58.964 0.849 8.18 1136 7.41
5/17/2021 3:45:00 AM 14.9 58.82 0.85 8.16 1144 7.47
5/17/2021 4:00:00 AM 14.83 58.694 0.85 8.15 1148 7.48
5/17/2021 4:15:00 AM 14.76 58.568 0.85 8.14 1145 7.49
5/17/2021 4:30:00 AM 14.69 58.442 0.85 8.13 1164 7.49
5/17/2021 4:45:00 AM 14.62 58.316 0.849 8.12 1148 7.54
5/17/2021 5:00:00 AM 14.55 58.19 0.849 8.11 1148 7.51
5/17/2021 5:15:00 AM 14.47 58.046 0.849 8.1 1149 7.54
5/17/2021 5:30:00 AM 14.4 57.92 0.849 8.09 1176 7.56
5/17/2021 5:45:00 AM 14.33 57.794 0.849 8.08 1149 7.56
5/17/2021 6:00:00 AM 14.26 57.668 0.848 8.07 1152 7.56
5/17/2021 6:15:00 AM 14.19 57.542 0.847 8.07 1152 7.59
5/17/2021 6:30:00 AM 14.14 57.452 0.847 8.07 1152 7.63
5/17/2021 6:45:00 AM 14.09 57.362 0.846 8.07 1151 7.72
5/17/2021 7:00:00 AM 14.05 57.29 0.845 8.09 1152 7.8
5/17/2021 7:15:00 AM 14.03 57.254 0.845 8.12 1152 7.92
5/17/2021 7:30:00 AM 14.01 57.218 0.844 8.15 1151 8.05
5/17/2021 7:45:00 AM 13.99 57.182 0.844 8.2 1151 8.24
5/17/2021 8:00:00 AM 13.96 57.128 0.844 8.24 1160 8.32
5/17/2021 8:15:00 AM 13.95 57.11 0.843 8.28 1152 8.46
5/17/2021 8:30:00 AM 13.94 57.092 0.842 8.33 1152 8.57
5/17/2021 8:45:00 AM 13.94 57.092 0.842 8.35 1151 8.67
5/17/2021 9:00:00 AM 13.95 57.11 0.842 8.41 1165 8.8
5/17/2021 9:15:00 AM 14 57.2 0.842 8.47 1199 8.98
5/17/2021 9:30:00 AM 14.05 57.29 0.842 8.57 1150 9.19
5/17/2021 9:45:00 AM 14.12 57.416 0.841 8.66 1147 9.45
5/17/2021 10:00:00 AM 14.25 57.65 0.841 8.75 1146 9.76
5/17/2021 10:15:00 AM 14.39 57.902 0.84 8.81 1146 10.11
5/17/2021 10:30:00 AM 14.61 58.298 0.84 8.85 1144 10.52
5/17/2021 10:45:00 AM 14.8 58.64 0.84 8.85 1147 10.93
5/17/2021 11:00:00 AM 14.96 58.928 0.839 8.84 1141 11.28
5/17/2021 11:15:00 AM 15.15 59.27 0.839 8.85 1140 11.6
5/17/2021 11:30:00 AM 15.29 59.522 0.839 8.83 1141 11.83
5/17/2021 11:45:00 AM 15.42 59.756 0.839 8.85 1140 12.08
5/17/2021 12:00:00 PM 15.65 60.17 0.838 8.83 1139 12.37
5/17/2021 12:15:00 PM 15.88 60.584 0.837 8.79 1143 12.6
5/17/2021 12:30:00 PM 16.07 60.926 0.837 8.78 1142 12.89
5/17/2021 12:45:00 PM 16.23 61.214 0.837 8.76 1132 13.02
5/17/2021 1:00:00 PM 16.41 61.538 0.837 8.77 1264 13.11
5/17/2021 1:15:00 PM 16.64 61.952 0.837 8.78 1328 13.29
5/17/2021 1:30:00 PM 16.81 62.258 0.836 8.78 1335 13.3
5/17/2021 1:45:00 PM 17.05 62.69 0.835 8.79 1267 13.42
5/17/2021 2:00:00 PM 17.13 62.834 0.834 8.8 1216 13.54
5/17/2021 2:15:00 PM 17.26 63.068 0.834 8.81 1192 13.64
5/17/2021 2:30:00 PM 17.52 63.536 0.833 8.82 1171 13.62
5/17/2021 2:45:00 PM 17.66 63.788 0.833 8.83 1262 13.67
5/17/2021 3:00:00 PM 17.82 64.076 0.832 8.84 1278 13.75
5/17/2021 3:15:00 PM 17.95 64.31 0.832 8.85 1247 13.64
5/17/2021 3:30:00 PM 18.06 64.508 0.832 8.85 1146 13.58
5/17/2021 3:45:00 PM 18.13 64.634 0.831 8.85 1167 13.45
5/17/2021 4:00:00 PM 18.18 64.724 0.83 8.86 1182 13.3
5/17/2021 4:15:00 PM 18.22 64.796 0.829 8.86 1180 13.08
5/17/2021 4:30:00 PM 18.21 64.778 0.829 8.86 1171 12.92
5/17/2021 4:45:00 PM 18.23 64.814 0.828 8.86 1237 12.77
5/17/2021 5:00:00 PM 18.21 64.778 0.827 8.87 1213 12.65
5/17/2021 5:15:00 PM 18.2 64.76 0.827 8.87 1224 12.5
5/17/2021 5:30:00 PM 18.16 64.688 0.827 8.87 1240 12.35
5/17/2021 5:45:00 PM 18.15 64.67 0.826 8.87 1235 12.13
5/17/2021 6:00:00 PM 18.13 64.634 0.826 8.87 1214 11.91
5/17/2021 6:15:00 PM 18.12 64.616 0.825 8.86 1213 11.7
5/17/2021 6:30:00 PM 18.11 64.598 0.825 8.86 1211 11.46
5/17/2021 6:45:00 PM 18.1 64.58 0.824 8.85 1193 11.23
5/17/2021 7:00:00 PM 18.07 64.526 0.824 8.84 1185 11
5/17/2021 7:15:00 PM 18.04 64.472 0.824 8.83 1178 10.78
5/17/2021 7:30:00 PM 18.02 64.436 0.823 8.82 1169 10.53
5/17/2021 7:45:00 PM 17.99 64.382 0.823 8.82 1158 10.33
5/17/2021 8:00:00 PM 17.96 64.328 0.822 8.82 1149 10.11
5/17/2021 8:15:00 PM 17.91 64.238 0.823 8.81 1144 9.9
5/17/2021 8:30:00 PM 17.87 64.166 0.822 8.8 1144 9.66
5/17/2021 8:45:00 PM 17.82 64.076 0.822 8.79 1146 9.47
5/17/2021 9:00:00 PM 17.78 64.004 0.823 8.76 1147 9.26
5/17/2021 9:15:00 PM 17.72 63.896 0.822 8.74 1149 9.05
5/17/2021 9:30:00 PM 17.67 63.806 0.822 8.71 1149 8.89
5/17/2021 9:45:00 PM 17.6 63.68 0.822 8.68 1155 8.71
5/17/2021 10:00:00 PM 17.55 63.59 0.822 8.65 1160 8.56
5/17/2021 10:15:00 PM 17.48 63.464 0.822 8.63 1165 8.41
5/17/2021 10:30:00 PM 17.42 63.356 0.823 8.6 1185 8.23
5/17/2021 10:45:00 PM 17.35 63.23 0.822 8.58 1220 8.08
5/17/2021 11:00:00 PM 17.29 63.122 0.822 8.55 1269 7.95
5/17/2021 11:15:00 PM 17.22 62.996 0.823 8.52 1310 7.86
5/17/2021 11:30:00 PM 17.15 62.87 0.823 8.49 1344 7.76
5/17/2021 11:45:00 PM 17.07 62.726 0.824 8.47 1384 7.68
5/18/2021 12:00:00 AM 16.99 62.582 0.824 8.44 1408 7.57
5/18/2021 12:15:00 AM 16.91 62.438 0.823 8.41 1433 7.46
5/18/2021 12:30:00 AM 16.81 62.258 0.824 8.39 1461 7.43
5/18/2021 12:45:00 AM 16.73 62.114 0.823 8.36 1160 7.36
5/18/2021 1:00:00 AM 16.64 61.952 0.823 8.34 1162 7.31
5/18/2021 1:15:00 AM 16.54 61.772 0.823 8.32 1158 7.26
5/18/2021 1:30:00 AM 16.44 61.592 0.823 8.3 1158 7.25
5/18/2021 1:45:00 AM 16.34 61.412 0.823 8.28 1159 7.22
5/18/2021 2:00:00 AM 16.24 61.232 0.823 8.26 1161 7.18
5/18/2021 2:15:00 AM 16.15 61.07 0.823 8.24 1161 7.15
5/18/2021 2:30:00 AM 16.04 60.872 0.823 8.22 1161 7.13
5/18/2021 2:45:00 AM 15.94 60.692 0.823 8.21 1157 7.17
5/18/2021 3:00:00 AM 15.84 60.512 0.823 8.19 1157 7.18
5/18/2021 3:15:00 AM 15.74 60.332 0.822 8.18 1156 7.18
5/18/2021 3:30:00 AM 15.65 60.17 0.822 8.17 1155 7.22
5/18/2021 3:45:00 AM 15.54 59.972 0.822 8.16 1159 7.21
5/18/2021 4:00:00 AM 15.46 59.828 0.821 8.15 1155 7.2
5/18/2021 4:15:00 AM 15.36 59.648 0.821 8.13 1154 7.19
5/18/2021 4:30:00 AM 15.27 59.486 0.82 8.12 1157 7.19
5/18/2021 4:45:00 AM 15.17 59.306 0.82 8.11 1157 7.24
5/18/2021 5:00:00 AM 15.09 59.162 0.819 8.11 1157 7.21
5/18/2021 5:15:00 AM 14.99 58.982 0.819 8.1 1157 7.26
5/18/2021 5:30:00 AM 14.91 58.838 0.818 8.09 1160 7.32
5/18/2021 5:45:00 AM 14.83 58.694 0.818 8.08 1161 7.32
5/18/2021 6:00:00 AM 14.74 58.532 0.817 8.08 1162 7.32
5/18/2021 6:15:00 AM 14.66 58.388 0.817 8.07 1161 7.35
5/18/2021 6:30:00 AM 14.59 58.262 0.816 8.07 1162 7.41
5/18/2021 6:45:00 AM 14.52 58.136 0.816 8.07 1161 7.48
5/18/2021 7:00:00 AM 14.46 58.028 0.815 8.08 1161 7.55
5/18/2021 7:15:00 AM 14.4 57.92 0.815 8.08 1163 7.64
5/18/2021 7:30:00 AM 14.35 57.83 0.814 8.09 1161 7.72
5/18/2021 7:45:00 AM 14.3 57.74 0.814 8.12 1163 7.79
5/18/2021 8:00:00 AM 14.27 57.686 0.813 8.14 1165 7.88
5/18/2021 8:15:00 AM 14.25 57.65 0.814 8.17 1163 7.95
5/18/2021 8:30:00 AM 14.23 57.614 0.813 8.21 1165 8.07
5/18/2021 8:45:00 AM 14.23 57.614 0.812 8.25 1166 8.13
5/18/2021 9:00:00 AM 14.25 57.65 0.812 8.27 1167 8.25
5/18/2021 9:15:00 AM 14.27 57.686 0.812 8.32 1166 8.39
5/18/2021 9:30:00 AM 14.32 57.776 0.811 8.39 1167 8.56
5/18/2021 9:45:00 AM 14.4 57.92 0.811 8.47 1166 8.75
5/18/2021 10:00:00 AM 14.51 58.118 0.81 8.55 1164 9
5/18/2021 10:15:00 AM 14.65 58.37 0.81 8.62 1165 9.27
5/18/2021 10:30:00 AM 14.99 58.982 0.809 8.71 1162 9.63
5/18/2021 10:45:00 AM 15.22 59.396 0.809 8.75 1160 10.07
5/18/2021 11:00:00 AM 15.43 59.774 0.809 8.78 1159 10.48
5/18/2021 11:15:00 AM 15.69 60.242 0.807 8.78 1157 10.74
5/18/2021 11:30:00 AM 15.88 60.584 0.807 8.72 1157 11.07
5/18/2021 11:45:00 AM 16.14 61.052 0.807 8.82 1156 11.29
5/18/2021 12:00:00 PM 16.46 61.628 0.806 8.9 1156 11.59
5/18/2021 12:15:00 PM 16.68 62.024 0.807 8.8 1154 11.88
5/18/2021 12:30:00 PM 16.93 62.474 0.806 8.74 1153 12.03
5/18/2021 12:45:00 PM 17.12 62.816 0.807 8.71 1151 12.22
5/18/2021 1:00:00 PM 17.36 63.248 0.807 8.73 1125 12.4
5/18/2021 1:15:00 PM 17.57 63.626 0.807 8.78 1118 12.52
5/18/2021 1:30:00 PM 17.75 63.95 0.807 8.79 1117 12.64
5/18/2021 1:45:00 PM 17.98 64.364 0.807 8.78 1116 12.74
5/18/2021 2:00:00 PM 18.17 64.706 0.807 8.78 1118 12.87
5/18/2021 2:15:00 PM 18.34 65.012 0.807 8.78 1115 12.93
5/18/2021 2:30:00 PM 18.51 65.318 0.806 8.78 1112 12.97
5/18/2021 2:45:00 PM 18.69 65.642 0.806 8.78 1109 13.01
5/18/2021 3:00:00 PM 18.84 65.912 0.806 8.79 1111 13.09
5/18/2021 3:15:00 PM 18.98 66.164 0.806 8.79 1106 13.08
5/18/2021 3:30:00 PM 19.06 66.308 0.807 8.79 1195 13.05
5/18/2021 3:45:00 PM 19.13 66.434 0.807 8.8 1211 12.99
5/18/2021 4:00:00 PM 19.19 66.542 0.807 8.8 1215 12.82
5/18/2021 4:15:00 PM 19.24 66.632 0.807 8.8 1232 12.74
5/18/2021 4:30:00 PM 19.27 66.686 0.807 8.8 1238 12.56
5/18/2021 4:45:00 PM 19.25 66.65 0.807 8.8 1257 12.38
5/18/2021 5:00:00 PM 19.24 66.632 0.808 8.81 1262 12.14
5/18/2021 5:15:00 PM 19.23 66.614 0.808 8.8 1287 11.91
5/18/2021 5:30:00 PM 19.21 66.578 0.808 8.8 1262 11.72
5/18/2021 5:45:00 PM 19.17 66.506 0.809 8.79 1198 11.46
5/18/2021 6:00:00 PM 19.15 66.47 0.809 8.79 1496 11.2
5/18/2021 6:15:00 PM 19.13 66.434 0.81 8.78 1485 10.9
5/18/2021 6:30:00 PM 19.12 66.416 0.81 8.77 1476 10.66
5/18/2021 6:45:00 PM 19.11 66.398 0.81 8.76 1473 10.38
5/18/2021 7:00:00 PM 19.12 66.416 0.81 8.76 1494 10.16
5/18/2021 7:15:00 PM 19.12 66.416 0.811 8.76 1136 9.88
5/18/2021 7:30:00 PM 19.12 66.416 0.811 8.75 1144 9.67
5/18/2021 7:45:00 PM 19.11 66.398 0.811 8.74 1147 9.49
5/18/2021 8:00:00 PM 19.1 66.38 0.809 8.74 1147 9.29
5/18/2021 8:15:00 PM 19.08 66.344 0.81 8.74 1148 9.08
5/18/2021 8:30:00 PM 19.06 66.308 0.809 8.74 1147 8.93
5/18/2021 8:45:00 PM 19.04 66.272 0.809 8.73 1142 8.75
5/18/2021 9:00:00 PM 19.01 66.218 0.809 8.71 1138 8.55
5/18/2021 9:15:00 PM 18.97 66.146 0.809 8.69 1139 8.38
5/18/2021 9:30:00 PM 18.92 66.056 0.81 8.68 1140 8.19
5/18/2021 9:45:00 PM 18.88 65.984 0.81 8.66 1142 8.09
5/18/2021 10:00:00 PM 18.83 65.894 0.811 8.64 1140 7.93
5/18/2021 10:15:00 PM 18.79 65.82201 0.811 8.62 1140 7.78
5/18/2021 10:30:00 PM 18.74 65.732 0.812 8.61 1139 7.64
5/18/2021 10:45:00 PM 18.69 65.642 0.812 8.59 1138 7.55
5/18/2021 11:00:00 PM 18.63 65.534 0.812 8.57 1135 7.4
5/18/2021 11:15:00 PM 18.56 65.408 0.812 8.54 1137 7.3
5/18/2021 11:30:00 PM 18.48 65.264 0.812 8.52 1139 7.19
5/18/2021 11:45:00 PM 18.4 65.12 0.812 8.49 1142 7.1
5/19/2021 12:00:00 AM 18.31 64.958 0.812 8.47 1144 7.07
5/19/2021 12:15:00 AM 18.23 64.814 0.812 8.44 1143 6.98
5/19/2021 12:30:00 AM 18.14 64.652 0.812 8.42 1137 6.9
5/19/2021 12:45:00 AM 18.05 64.49 0.812 8.39 1135 6.88
5/19/2021 1:00:00 AM 17.97 64.346 0.812 8.37 1138 6.79
5/19/2021 1:15:00 AM 17.88 64.184 0.812 8.35 1129 6.73
5/19/2021 1:30:00 AM 17.79 64.022 0.811 8.33 1122 6.72
5/19/2021 1:45:00 AM 17.7 63.86 0.81 8.31 1128 6.69
5/19/2021 2:00:00 AM 17.61 63.698 0.811 8.29 1126 6.71
5/19/2021 2:15:00 AM 17.52 63.536 0.811 8.27 1128 6.72
5/19/2021 2:30:00 AM 17.43 63.374 0.81 8.26 1132 6.72
5/19/2021 2:45:00 AM 17.33 63.194 0.81 8.24 1136 6.69
5/19/2021 3:00:00 AM 17.24 63.032 0.809 8.22 1119 6.7
5/19/2021 3:15:00 AM 17.14 62.852 0.808 8.21 1137 6.68
5/19/2021 3:30:00 AM 17.05 62.69 0.809 8.2 1157 6.68
5/19/2021 3:45:00 AM 16.96 62.528 0.806 8.19 1089 6.72
5/19/2021 4:00:00 AM 16.87 62.366 0.807 8.18 1093 6.71
5/19/2021 4:15:00 AM 16.78 62.204 0.806 8.17 1113 6.72
5/19/2021 4:30:00 AM 16.69 62.042 0.806 8.15 1105 6.74
5/19/2021 4:45:00 AM 16.6 61.88 0.805 8.15 1108 6.7
5/19/2021 5:00:00 AM 16.51 61.718 0.805 8.14 1108 6.76
5/19/2021 5:15:00 AM 16.42 61.556 0.804 8.14 1099 6.79
5/19/2021 5:30:00 AM 16.34 61.412 0.802 8.13 1107 6.8
5/19/2021 5:45:00 AM 16.25 61.25 0.802 8.13 1097 6.78
5/19/2021 6:00:00 AM 16.17 61.106 0.802 8.12 1098 6.68
5/19/2021 6:15:00 AM 16.1 60.98 0.801 8.12 1098 5.87
5/19/2021 6:30:00 AM 16.03 60.854 0.801 8.12 1099 6.08
5/19/2021 6:45:00 AM 15.96 60.728 0.799 8.13 1100 6.56
5/19/2021 7:00:00 AM 15.9 60.62 0.798 8.13 1099 6.83
5/19/2021 7:15:00 AM 15.85 60.53 0.797 8.14 1101 6.68
5/19/2021 7:30:00 AM 15.8 60.44 0.796 8.16 1099 6.81
5/19/2021 7:45:00 AM 15.76 60.368 0.796 8.17 1099 6.65
5/19/2021 8:00:00 AM 15.72 60.296 0.794 8.2 1098 6.76
5/19/2021 8:15:00 AM 15.7 60.26 0.793 8.23 1100 6.69
5/19/2021 8:30:00 AM 15.69 60.242 0.791 8.27 1101 7.53
5/19/2021 8:45:00 AM 15.69 60.242 0.79 8.28 1101 7.69
5/19/2021 9:00:00 AM 15.69 60.242 0.79 8.33 1104 7.62
5/19/2021 9:15:00 AM 15.72 60.296 0.787 8.39 1096 7.63
5/19/2021 9:30:00 AM 15.76 60.368 0.785 8.45 1096 7.69
5/19/2021 9:45:00 AM 15.84 60.512 0.786 8.51 1095 7.83
5/19/2021 10:00:00 AM 15.95 60.71 0.783 8.56 1097 8.12
5/19/2021 10:15:00 AM 16.11 60.998 0.782 8.61 1096 8.49
5/19/2021 10:30:00 AM 16.41 61.538 0.781 8.64 1095 8.75
5/19/2021 10:45:00 AM 16.65 61.97 0.778 8.61 1092 9.21
5/19/2021 11:00:00 AM 16.84 62.312 0.778 8.6 1092 9.45
5/19/2021 11:15:00 AM 17.09 62.762 0.777 8.6 1092 9.83
5/19/2021 11:30:00 AM 17.27 63.086 0.777 8.57 1092 10.16
5/19/2021 11:45:00 AM 17.52 63.536 0.775 8.61 1092 10.45
5/19/2021 12:00:00 PM 17.86 64.148 0.776 8.6 1092 11
5/19/2021 12:15:00 PM 18.11 64.598 0.774 8.56 1091 10.8
5/19/2021 12:30:00 PM 18.34 65.012 0.774 8.55 1091 11.03
5/19/2021 12:45:00 PM 18.53 65.354 0.775 8.55 1091 11.17
5/19/2021 1:00:00 PM 18.73 65.714 0.774 8.56 1089 11.35
5/19/2021 1:15:00 PM 18.95 66.11 0.774 8.58 1090 11.47
5/19/2021 1:30:00 PM 19.15 66.47 0.773 8.6 1086 11.57
5/19/2021 1:45:00 PM 19.35 66.83 0.773 8.6 1086 11.6
5/19/2021 2:00:00 PM 19.55 67.19 0.772 8.62 1084 11.84
5/19/2021 2:15:00 PM 19.74 67.532 0.772 8.63 1084 12.09
5/19/2021 2:30:00 PM 19.93 67.874 0.772 8.64 1086 12.19
5/19/2021 2:45:00 PM 20.1 68.18 0.772 8.65 1084 12.39
5/19/2021 3:00:00 PM 20.24 68.432 0.773 8.67 1084 12.46
5/19/2021 3:15:00 PM 20.39 68.702 0.771 8.68 1010 12.2
5/19/2021 3:30:00 PM 20.48 68.864 0.773 8.68 1023 12.03
5/19/2021 3:45:00 PM 20.54 68.972 0.773 8.69 997.4 11.92
5/19/2021 4:00:00 PM 20.62 69.116 0.773 8.69 1003 11.77
5/19/2021 4:15:00 PM 20.7 69.26 0.774 8.7 1031 11.9
5/19/2021 4:30:00 PM 20.75 69.35 0.773 8.72 1037 11.73
5/19/2021 4:45:00 PM 20.74 69.332 0.773 8.72 1045 11.49
5/19/2021 5:00:00 PM 20.73 69.314 0.773 8.72 1053 11.21
5/19/2021 5:15:00 PM 20.72 69.296 0.775 8.71 1064 10.79
5/19/2021 5:30:00 PM 20.69 69.242 0.775 8.71 1059 10.17
5/19/2021 5:45:00 PM 20.67 69.206 0.775 8.71 1081 10.81
5/19/2021 6:00:00 PM 20.67 69.206 0.777 8.7 1141 10.59
5/19/2021 6:15:00 PM 20.65 69.17 0.778 8.7 1289 10.36
5/19/2021 6:30:00 PM 20.64 69.152 0.779 8.69 1314 10.11
5/19/2021 6:45:00 PM 20.65 69.17 0.78 8.68 1193 9.86
5/19/2021 7:00:00 PM 20.67 69.206 0.781 8.68 1392 9.72
5/19/2021 7:15:00 PM 20.68 69.224 0.78 8.67 1384 9.47
5/19/2021 7:30:00 PM 20.7 69.26 0.782 8.67 1376 9.38
5/19/2021 7:45:00 PM 20.71 69.278 0.783 8.65 1368 9.11
5/19/2021 8:00:00 PM 20.69 69.242 0.783 8.64 1365 8.87
5/19/2021 8:15:00 PM 20.69 69.242 0.784 8.64 1348 8.71
5/19/2021 8:30:00 PM 20.68 69.224 0.784 8.63 1340 8.42
5/19/2021 8:45:00 PM 20.65 69.17 0.786 8.62 1333 8.2
5/19/2021 9:00:00 PM 20.63 69.134 0.786 8.62 1318 8.04
5/19/2021 9:15:00 PM 20.6 69.08 0.786 8.61 1300 7.84
5/19/2021 9:30:00 PM 20.56 69.008 0.787 8.6 1294 7.73
5/19/2021 9:45:00 PM 20.53 68.954 0.787 8.59 1283 7.55
5/19/2021 10:00:00 PM 20.48 68.864 0.789 8.57 1268 7.38
5/19/2021 10:15:00 PM 20.43 68.774 0.789 8.55 1255 7.2
5/19/2021 10:30:00 PM 20.39 68.702 0.79 8.54 1244 7.04
5/19/2021 10:45:00 PM 20.33 68.594 0.791 8.52 1231 6.93
5/19/2021 11:00:00 PM 20.27 68.486 0.792 8.5 1213 6.83
5/19/2021 11:15:00 PM 20.21 68.378 0.792 8.48 1190 6.7
5/19/2021 11:30:00 PM 20.14 68.252 0.793 8.46 1147 6.58
5/19/2021 11:45:00 PM 20.07 68.126 0.794 8.44 1127 6.55
5/20/2021 12:00:00 AM 19.99 67.982 0.792 8.42 1112 6.49
5/20/2021 12:15:00 AM 19.91 67.838 0.793 8.4 1098 6.41
5/20/2021 12:30:00 AM 19.83 67.694 0.793 8.38 1099 6.33
5/20/2021 12:45:00 AM 19.74 67.532 0.794 8.36 1114 6.31
5/20/2021 1:00:00 AM 19.65 67.37 0.796 8.35 1107 6.25
5/20/2021 1:15:00 AM 19.56 67.208 0.796 8.32 1083 6.2
5/20/2021 1:30:00 AM 19.47 67.046 0.796 8.31 1082 6.2
5/20/2021 1:45:00 AM 19.38 66.884 0.797 8.29 1086 6.19
5/20/2021 2:00:00 AM 19.29 66.722 0.798 8.27 1091 6.14
5/20/2021 2:15:00 AM 19.2 66.56 0.798 8.25 1085 6.1
5/20/2021 2:30:00 AM 19.11 66.398 0.799 8.24 1085 6.07
5/20/2021 2:45:00 AM 19.02 66.236 0.799 8.22 1092 6.08
5/20/2021 3:00:00 AM 18.92 66.056 0.799 8.21 1091 6.09
5/20/2021 3:15:00 AM 18.83 65.894 0.8 8.2 1095 6.09
5/20/2021 3:30:00 AM 18.74 65.732 0.8 8.19 1090 6.1
5/20/2021 3:45:00 AM 18.65 65.57 0.8 8.18 1091 6.16
5/20/2021 4:00:00 AM 18.56 65.408 0.8 8.17 1091 6.14
5/20/2021 4:15:00 AM 18.47 65.246 0.8 8.16 1091 6.14
5/20/2021 4:30:00 AM 18.39 65.102 0.801 8.15 1092 6.18
5/20/2021 4:45:00 AM 18.29 64.922 0.801 8.14 1093 6.22
5/20/2021 5:00:00 AM 18.21 64.778 0.801 8.14 1094 6.27
5/20/2021 5:15:00 AM 18.12 64.616 0.801 8.14 1094 6.28
5/20/2021 5:30:00 AM 18.04 64.472 0.801 8.13 1095 6.28
5/20/2021 5:45:00 AM 17.95 64.31 0.801 8.12 1096 6.32
5/20/2021 6:00:00 AM 17.87 64.166 0.801 8.12 1093 6.33
5/20/2021 6:15:00 AM 17.79 64.022 0.801 8.11 1093 6.36
5/20/2021 6:30:00 AM 17.72 63.896 0.801 8.11 1094 6.43
5/20/2021 6:45:00 AM 17.65 63.77 0.801 8.12 1094 6.48
5/20/2021 7:00:00 AM 17.59 63.662 0.802 8.13 1095 6.56
5/20/2021 7:15:00 AM 17.54 63.572 0.802 8.15 1098 6.68
5/20/2021 7:30:00 AM 17.49 63.482 0.802 8.18 1098 6.79
5/20/2021 7:45:00 AM 17.45 63.41 0.803 8.2 1099 6.86
5/20/2021 8:00:00 AM 17.42 63.356 0.803 8.24 1098 6.93
5/20/2021 8:15:00 AM 17.39 63.302 0.804 8.28 1099 7.04
5/20/2021 8:30:00 AM 17.38 63.284 0.804 8.28 1099 7.13
5/20/2021 8:45:00 AM 17.38 63.284 0.805 8.3 1101 7.26
5/20/2021 9:00:00 AM 17.39 63.302 0.806 8.32 1098 7.35
5/20/2021 9:15:00 AM 17.41 63.338 0.806 8.34 1097 7.44
5/20/2021 9:30:00 AM 17.45 63.41 0.807 8.36 1097 7.61
5/20/2021 9:45:00 AM 17.51 63.518 0.808 8.37 1095 7.82
5/20/2021 10:00:00 AM 17.62 63.716 0.809 8.37 1096 8.06
5/20/2021 10:15:00 AM 17.75 63.95 0.81 8.38 1094 8.36
5/20/2021 10:30:00 AM 18.01 64.418 0.81 8.38 1092 8.74
5/20/2021 10:45:00 AM 18.21 64.778 0.812 8.37 1073 9.21
5/20/2021 11:00:00 AM 18.4 65.12 0.813 8.38 1088 9.55
5/20/2021 11:15:00 AM 18.7 65.66 0.54 8.39 1240 9.81
5/20/2021 11:30:00 AM 18.78 65.804 0.83 8.47 7.59 10.37
5/20/2021 11:45:00 AM 19.03 66.254 0.831 8.51 1.01 10.77
5/20/2021 12:00:00 PM 19.3 66.74 0.832 8.51 0.67 10.94
5/20/2021 12:15:00 PM 19.54 67.172 0.833 8.52 1.42 11.31
5/20/2021 12:30:00 PM 19.76 67.568 0.834 8.54 3.77 11.49
5/20/2021 12:45:00 PM 19.92 67.856 0.836 8.54 1.61 11.58
5/20/2021 1:00:00 PM 20.09 68.162 0.836 8.55 0.83 11.69
5/20/2021 1:15:00 PM 20.33 68.594 0.838 8.57 1.85 11.88
5/20/2021 1:30:00 PM 20.54 68.972 0.838 8.59 0.25 12.05
5/20/2021 1:45:00 PM 20.68 69.224 0.84 8.6 0.45 12.12
5/20/2021 2:00:00 PM 20.88 69.584 0.841 8.61 0.68 12.27
5/20/2021 2:15:00 PM 21.04 69.872 0.842 8.63 -0.03 12.33
5/20/2021 2:30:00 PM 21.16 70.088 0.844 8.64 0.5 12.34
5/20/2021 2:45:00 PM 21.36 70.448 0.845 8.66 0.97 12.42
5/20/2021 3:00:00 PM 21.48 70.664 0.846 8.67 1.02 12.4
5/20/2021 3:15:00 PM 21.59 70.862 0.847 8.67 0.62 12.33
5/20/2021 3:30:00 PM 21.69 71.042 0.849 8.68 0.19 12.3
5/20/2021 3:45:00 PM 21.74 71.132 0.85 8.69 0.77 12.18
5/20/2021 4:00:00 PM 21.77 71.186 0.852 8.69 0.83 11.96
5/20/2021 4:15:00 PM 21.83 71.294 0.85 8.69 0.31 11.88
5/20/2021 4:30:00 PM 21.85 71.33 0.851 8.69 1.1 11.65
5/20/2021 4:45:00 PM 21.83 71.294 0.852 8.69 0.44 11.51
5/20/2021 5:00:00 PM 21.78 71.204 0.852 8.69 0.71 11.26
5/20/2021 5:15:00 PM 21.75 71.15 0.855 8.69 0.22 11.03
5/20/2021 5:30:00 PM 21.72 71.096 0.856 8.68 0.13 10.73
5/20/2021 5:45:00 PM 21.67 71.006 0.857 8.67 1.82 10.4
5/20/2021 6:00:00 PM 21.59 70.862 0.858 8.66 1.34 10.13
5/20/2021 6:15:00 PM 21.52 70.736 0.859 8.65 0.57 9.83
5/20/2021 6:30:00 PM 21.46 70.628 0.86 8.63 0.61 9.52
5/20/2021 6:45:00 PM 21.42 70.556 0.861 8.62 0.16 9.28
5/20/2021 7:00:00 PM 21.41 70.538 0.862 8.62 0.16 9.04
5/20/2021 7:15:00 PM 21.39 70.502 0.862 8.61 0.4 8.84
5/20/2021 7:30:00 PM 21.36 70.448 0.862 8.6 0.5 8.71
5/20/2021 7:45:00 PM 21.34 70.412 0.863 8.59 0.25 8.51
5/20/2021 8:00:00 PM 21.31 70.358 0.863 8.58 1.13 8.32
5/20/2021 8:15:00 PM 21.27 70.286 0.864 8.57 0.41 8.17
5/20/2021 8:30:00 PM 21.24 70.232 0.864 8.56 0.3 7.98
5/20/2021 8:45:00 PM 21.19 70.142 0.865 8.55 0.35 7.74
5/20/2021 9:00:00 PM 21.14 70.052 0.866 8.54 0.57 7.64
5/20/2021 9:15:00 PM 21.08 69.944 0.866 8.52 0.78 7.42
5/20/2021 9:30:00 PM 21.02 69.836 0.866 8.51 0.5 7.33
5/20/2021 9:45:00 PM 20.95 69.71 0.867 8.49 0.55 7.22
5/20/2021 10:00:00 PM 20.88 69.584 0.867 8.47 0.34 7.03
5/20/2021 10:15:00 PM 20.82 69.476 0.867 8.46 1.59 6.95
5/20/2021 10:30:00 PM 20.74 69.332 0.858 8.44 0.6 6.84
5/20/2021 10:45:00 PM 20.67 69.206 0.867 8.42 1.45 6.76
5/20/2021 11:00:00 PM 20.58 69.044 0.867 8.4 0.59 6.68
5/20/2021 11:15:00 PM 20.49 68.882 0.867 8.37 0.68 6.56
5/20/2021 11:30:00 PM 20.39 68.702 0.867 8.35 0.66 6.45
5/20/2021 11:45:00 PM 20.3 68.54 0.867 8.33 0.45 6.43
5/21/2021 12:00:00 AM 20.2 68.36 0.867 8.31 1.35 6.36
5/21/2021 12:15:00 AM 20.1 68.18 0.867 8.29 2.66 6.32
5/21/2021 12:30:00 AM 20 68 0.867 8.27 0.6 6.25
5/21/2021 12:45:00 AM 19.89 67.802 0.866 8.26 0.61 6.25
5/21/2021 1:00:00 AM 19.79 67.622 0.866 8.24 1.36 6.19
5/21/2021 1:15:00 AM 19.68 67.424 0.866 8.22 0.95 6.2
5/21/2021 1:30:00 AM 19.57 67.226 0.866 8.21 2.59 6.17
5/21/2021 1:45:00 AM 19.46 67.028 0.842 8.19 1.48 6.16
5/21/2021 2:00:00 AM 19.36 66.848 0.856 8.18 0.4 6.17
5/21/2021 2:15:00 AM 19.24 66.632 0.852 8.16 2.81 6.22
5/21/2021 2:30:00 AM 19.13 66.434 0.865 8.15 1.57 6.2
5/21/2021 2:45:00 AM 19.02 66.236 0.864 8.14 0.61 6.13
5/21/2021 3:00:00 AM 18.91 66.038 0.864 8.13 0.98 6.16
5/21/2021 3:15:00 AM 18.8 65.84 0.863 8.12 1.23 6.19
5/21/2021 3:30:00 AM 18.68 65.624 0.863 8.11 3.13 6.13
5/21/2021 3:45:00 AM 18.57 65.426 0.863 8.1 973.9 6.17
5/21/2021 4:00:00 AM 18.47 65.246 0.863 8.09 1.46 6.19
5/21/2021 4:15:00 AM 18.36 65.048 0.862 8.08 0.82 6.2
5/21/2021 4:30:00 AM 18.24 64.832 0.862 8.07 1.3 6.31
5/21/2021 4:45:00 AM 18.14 64.652 0.861 8.06 1.67 6.34
5/21/2021 5:00:00 AM 18.04 64.472 0.861 8.06 0.39 6.39
5/21/2021 5:15:00 AM 17.94 64.292 0.861 8.06 0.5 6.37
5/21/2021 5:30:00 AM 17.84 64.112 0.861 8.06 3.1 6.36
5/21/2021 5:45:00 AM 17.75 63.95 0.861 8.06 0.46 6.44
5/21/2021 6:00:00 AM 17.65 63.77 0.861 8.05 1.55 6.5
5/21/2021 6:15:00 AM 17.56 63.608 0.86 8.04 0.68 6.5
5/21/2021 6:30:00 AM 17.48 63.464 0.86 8.05 0.66 6.61
5/21/2021 6:45:00 AM 17.4 63.32 0.859 8.05 0.28 6.62
5/21/2021 7:00:00 AM 17.33 63.194 0.859 8.06 0.8 6.65
5/21/2021 7:15:00 AM 17.26 63.068 0.859 8.07 0.84 6.74
5/21/2021 7:30:00 AM 17.2 62.96 0.859 8.08 2.02 6.87
5/21/2021 7:45:00 AM 17.15 62.87 0.859 8.09 1.55 6.88
5/21/2021 8:00:00 AM 17.11 62.798 0.859 8.11 4.16 6.98
5/21/2021 8:15:00 AM 17.08 62.744 0.859 8.14 0.26 7.09
5/21/2021 8:30:00 AM 17.06 62.708 0.859 8.17 0.59 7.17
5/21/2021 8:45:00 AM 17.05 62.69 0.859 8.22 0.47 7.27
5/21/2021 9:00:00 AM 17.05 62.69 0.859 8.26 2.33 7.4
5/21/2021 9:15:00 AM 17.06 62.708 0.859 8.31 1.46 7.46
5/21/2021 9:30:00 AM 17.1 62.78 0.859 8.37 0.25 7.62
5/21/2021 9:45:00 AM 17.14 62.852 0.859 8.44 0.72 7.79
5/21/2021 10:00:00 AM 17.21 62.978 0.859 8.51 6.21 8.05
5/21/2021 10:15:00 AM 17.35 63.23 0.859 8.59 0.76 8.34
5/21/2021 10:30:00 AM 17.62 63.716 0.858 8.76 0.81 8.75
5/21/2021 10:45:00 AM 17.85 64.13 0.858 8.83 -0.15 9.1
5/21/2021 11:00:00 AM 18.03 64.454 0.858 8.88 0.19 9.47
5/21/2021 11:15:00 AM 18.26 64.868 0.857 8.91 1.39 9.71
5/21/2021 11:30:00 AM 18.42 65.156 0.858 8.93 0.34 9.91
5/21/2021 11:45:00 AM 18.64 65.552 0.857 9 -0.01 10.22
5/21/2021 12:00:00 PM 18.92 66.056 0.858 9.06 0.33 10.44
5/21/2021 12:15:00 PM 19.11 66.398 0.858 9.05 0.74 10.73
5/21/2021 12:30:00 PM 19.33 66.794 0.858 9.02 0.4 10.92
5/21/2021 12:45:00 PM 19.53 67.154 0.858 8.98 0.54 11.06
5/21/2021 1:00:00 PM 19.72 67.496 0.858 8.95 0.77 11.21
5/21/2021 1:15:00 PM 19.92 67.856 0.858 8.92 0.55 11.47
5/21/2021 1:30:00 PM 20.12 68.216 0.858 8.86 0.54 11.53
5/21/2021 1:45:00 PM 20.32 68.576 0.859 8.82 0.21 11.66
5/21/2021 2:00:00 PM 20.51 68.918 0.859 8.79 0.58 11.69
5/21/2021 2:15:00 PM 20.67 69.206 0.858 8.75 0.41 11.72
5/21/2021 2:30:00 PM 20.82 69.476 0.859 8.73 -0.06 11.82
5/21/2021 2:45:00 PM 20.98 69.764 0.859 8.72 1.15 11.86
5/21/2021 3:00:00 PM 21.13 70.034 0.858 8.72 1.14 11.9
5/21/2021 3:15:00 PM 21.25 70.25 0.86 8.71 0.53 11.88
5/21/2021 3:30:00 PM 21.33 70.394 0.86 8.71 0.73 11.77
5/21/2021 3:45:00 PM 21.41 70.538 0.86 8.7 -0.06 11.59
5/21/2021 4:00:00 PM 21.47 70.646 0.861 8.7 0.32 11.62
5/21/2021 4:15:00 PM 21.53 70.754 0.862 8.7 -0.07 11.43
5/21/2021 4:30:00 PM 21.57 70.826 0.864 8.69 0.07 11.23
5/21/2021 4:45:00 PM 21.58 70.844 0.864 8.69 1.24 11.09
5/21/2021 5:00:00 PM 21.56 70.808 0.864 8.68 0.78 10.86
5/21/2021 5:15:00 PM 21.54 70.772 0.865 8.67 0.15 10.59
5/21/2021 5:30:00 PM 21.53 70.754 0.866 8.66 1.11 10.33
5/21/2021 5:45:00 PM 21.51 70.718 0.867 8.64 0.32 10.06
5/21/2021 6:00:00 PM 21.47 70.646 0.868 8.63 0.28 9.79
5/21/2021 6:15:00 PM 21.45 70.61 0.869 8.62 0.83 9.54
5/21/2021 6:30:00 PM 21.44 70.592 0.869 8.6 0.17 9.31
5/21/2021 6:45:00 PM 21.42 70.556 0.87 8.59 0.73 9.06
5/21/2021 7:00:00 PM 21.43 70.574 0.87 8.58 0.22 8.92
5/21/2021 7:15:00 PM 21.45 70.61 0.871 8.57 0.74 8.72
5/21/2021 7:30:00 PM 21.46 70.628 0.871 8.55 2.8 8.49
5/21/2021 7:45:00 PM 21.46 70.628 0.872 8.54 0.91 8.28
5/21/2021 8:00:00 PM 21.47 70.646 0.872 8.53 1.14 8.04
5/21/2021 8:15:00 PM 21.47 70.646 0.872 8.52 0.09 7.93
5/21/2021 8:30:00 PM 21.46 70.628 0.872 8.51 0.35 7.69
5/21/2021 8:45:00 PM 21.46 70.628 0.873 8.5 0.29 7.6
5/21/2021 9:00:00 PM 21.44 70.592 0.873 8.49 1.01 7.46
5/21/2021 9:15:00 PM 21.42 70.556 0.874 8.47 0.69 7.27
5/21/2021 9:30:00 PM 21.4 70.52 0.874 8.46 0.41 7.12
5/21/2021 9:45:00 PM 21.36 70.448 0.874 8.45 0.22 6.93
5/21/2021 10:00:00 PM 21.32 70.376 0.874 8.44 0.66 6.84
5/21/2021 10:15:00 PM 21.28 70.304 0.875 8.42 1.26 6.77
5/21/2021 10:30:00 PM 21.23 70.214 0.875 8.41 1.07 6.73
5/21/2021 10:45:00 PM 21.18 70.124 0.876 8.39 0.43 6.57
5/21/2021 11:00:00 PM 21.13 70.034 0.876 8.38 0.14 6.42
5/21/2021 11:15:00 PM 21.07 69.926 0.876 8.36 0.15 6.43
5/21/2021 11:30:00 PM 21.01 69.818 0.876 8.35 2 6.29
5/21/2021 11:45:00 PM 20.95 69.71 0.876 8.33 1.83 6.22
5/22/2021 12:00:00 AM 20.88 69.584 0.876 8.32 0.73 6.16
5/22/2021 12:15:00 AM 20.8 69.44 0.876 8.3 0.71 6.14
5/22/2021 12:30:00 AM 20.72 69.296 0.876 8.29 0.59 6.13
5/22/2021 12:45:00 AM 20.64 69.152 0.876 8.27 0.48 6.09
5/22/2021 1:00:00 AM 20.56 69.008 0.876 8.26 0.43 6.01
5/22/2021 1:15:00 AM 20.48 68.864 0.876 8.24 0.85 6.03
5/22/2021 1:30:00 AM 20.39 68.702 0.876 8.23 1.71 6.02
5/22/2021 1:45:00 AM 20.3 68.54 0.876 8.22 0.3 5.99
5/22/2021 2:00:00 AM 20.21 68.378 0.876 8.2 0.28 5.85
5/22/2021 2:15:00 AM 20.12 68.216 0.876 8.2 2.64 6.03
5/22/2021 2:30:00 AM 20.03 68.054 0.876 8.18 0.79 5.91
5/22/2021 2:45:00 AM 19.94 67.892 0.8 8.17 0.44 5.93
5/22/2021 3:00:00 AM 19.85 67.73 0.877 8.16 1.07 5.9
5/22/2021 3:15:00 AM 19.76 67.568 0.876 8.16 0.17 5.94
5/22/2021 3:30:00 AM 19.66 67.388 0.877 8.15 0.75 6.02
5/22/2021 3:45:00 AM 19.58 67.244 0.876 8.14 0.33 5.94
5/22/2021 4:00:00 AM 19.48 67.064 0.829 8.14 0.93 5.99
5/22/2021 4:15:00 AM 19.4 66.92 0.812 8.13 0.72 5.96
5/22/2021 4:30:00 AM 19.3 66.74 0.805 8.13 0.98 6.04
5/22/2021 4:45:00 AM 19.22 66.596 0.808 8.12 0.49 6.05
5/22/2021 5:00:00 AM 19.14 66.452 0.806 8.12 0.83 6.16
5/22/2021 5:15:00 AM 19.05 66.29 0.817 8.12 3.06 6.13
5/22/2021 5:30:00 AM 18.97 66.146 0.783 8.11 0.67 6.1
5/22/2021 5:45:00 AM 18.88 65.984 0.78 8.11 1.12 6.17
5/22/2021 6:00:00 AM 18.8 65.84 0.777 8.1 1.25 6.24
5/22/2021 6:15:00 AM 18.73 65.714 0.778 8.11 1.63 6.26
5/22/2021 6:30:00 AM 18.66 65.588 0.778 8.11 0.42 6.32
5/22/2021 6:45:00 AM 18.6 65.48 0.779 8.12 1.04 6.37
5/22/2021 7:00:00 AM 18.55 65.39 0.784 8.13 1.88 6.41
5/22/2021 7:15:00 AM 18.5 65.3 0.785 8.15 0.73 6.55
5/22/2021 7:30:00 AM 18.45 65.21 0.785 8.18 0.27 6.61
5/22/2021 7:45:00 AM 18.42 65.156 0.784 8.21 0.34 6.67
5/22/2021 8:00:00 AM 18.39 65.102 0.781 8.24 1.39 6.81
5/22/2021 8:15:00 AM 18.37 65.066 0.778 8.29 0.41 7.01
5/22/2021 8:30:00 AM 18.38 65.084 0.778 8.36 1.13 7.09
5/22/2021 8:45:00 AM 18.4 65.12 0.774 8.45 0.87 7.36
5/22/2021 9:00:00 AM 18.44 65.192 0.778 8.47 0.55 7.56
5/22/2021 9:15:00 AM 18.46 65.228 0.776 8.47 0.81 7.7
5/22/2021 9:30:00 AM 18.49 65.282 0.777 8.47 1.85 7.84
5/22/2021 9:45:00 AM 18.54 65.372 0.781 8.47 0.31 8.03
5/22/2021 10:00:00 AM 18.61 65.498 0.78 8.47 1.41 8.26
5/22/2021 10:15:00 AM 18.7 65.66 0.844 8.46 0.5 8.53
5/22/2021 10:30:00 AM 18.89 66.002 0.831 8.47 0.61 8.88
5/22/2021 10:45:00 AM 19.01 66.218 0.821 8.48 0.6 9.14
5/22/2021 11:00:00 AM 19.15 66.47 0.832 8.48 0.99 9.33
5/22/2021 11:15:00 AM 19.35 66.83 0.834 8.48 0.32 9.61
5/22/2021 11:30:00 AM 19.47 67.046 0.831 8.48 0.93 9.86
5/22/2021 11:45:00 AM 19.65 67.37 0.825 8.49 1.29 10.12
5/22/2021 12:00:00 PM 19.84 67.712 0.83 8.5 0.45 10.37
5/22/2021 12:15:00 PM 19.96 67.92799 0.816 8.52 1.25 10.53
5/22/2021 12:30:00 PM 20.05 68.09 0.808 8.52 1.3 10.63
5/22/2021 12:45:00 PM 20.23 68.414 0.809 8.53 1.74 10.73
5/22/2021 1:00:00 PM 20.41 68.738 0.821 8.54 0.33 11.02
5/22/2021 1:15:00 PM 20.65 69.17 0.815 8.55 0.62 11.19
5/22/2021 1:30:00 PM 20.85 69.53 0.814 8.56 1.26 11.3
5/22/2021 1:45:00 PM 20.93 69.674 0.813 8.57 0.5 11.3
5/22/2021 2:00:00 PM 21.03 69.854 0.81 8.58 0.05 11.38
5/22/2021 2:15:00 PM 21.09 69.962 0.81 8.59 0.72 11.43
5/22/2021 2:30:00 PM 21.15 70.07 0.812 8.6 0.55 11.41
5/22/2021 2:45:00 PM 21.24 70.232 0.815 8.6 0.34 11.4
5/22/2021 3:00:00 PM 21.36 70.448 0.816 8.61 0.81 11.45
5/22/2021 3:15:00 PM 21.48 70.664 0.816 8.62 5.92 11.55
5/22/2021 3:30:00 PM 21.48 70.664 0.817 8.63 0.1 11.39
5/22/2021 3:45:00 PM 21.47 70.646 0.818 8.62 0.29 11.1
5/22/2021 4:00:00 PM 21.5 70.7 0.832 8.62 0.93 10.9
5/22/2021 4:15:00 PM 21.53 70.754 0.83 8.62 0.53 10.78
5/22/2021 4:30:00 PM 21.57 70.826 0.829 8.61 0.3 10.66
5/22/2021 4:45:00 PM 21.61 70.898 0.838 8.61 0.53 10.48
5/22/2021 5:00:00 PM 21.64 70.952 0.836 8.6 1.78 10.38
5/22/2021 5:15:00 PM 21.65 70.97 0.832 8.6 0.54 10.29
5/22/2021 5:30:00 PM 21.65 70.97 0.825 8.59 0.93 10.03
5/22/2021 5:45:00 PM 21.66 70.988 0.836 8.58 1.08 9.81
5/22/2021 6:00:00 PM 21.66 70.988 0.838 8.57 0.38 9.58
5/22/2021 6:15:00 PM 21.65 70.97 0.865 8.56 1.18 9.35
5/22/2021 6:30:00 PM 21.66 70.988 0.866 8.54 0.28 9.13
5/22/2021 6:45:00 PM 21.68 71.024 0.863 8.53 0.68 9.01
5/22/2021 7:00:00 PM 21.7 71.06 0.862 8.53 0.7 8.86
5/22/2021 7:15:00 PM 21.7 71.06 0.867 8.51 0.7 8.65
5/22/2021 7:30:00 PM 21.71 71.078 0.848 8.5 0.52 8.36
5/22/2021 7:45:00 PM 21.71 71.078 0.852 8.48 0.44 8.14
5/22/2021 8:00:00 PM 21.71 71.078 0.856 8.47 1 7.9
5/22/2021 8:15:00 PM 21.71 71.078 0.862 8.45 0.92 7.7
5/22/2021 8:30:00 PM 21.72 71.096 0.87 8.44 0.66 7.58
5/22/2021 8:45:00 PM 21.72 71.096 0.836 8.42 0.17 7.34
5/22/2021 9:00:00 PM 21.72 71.096 0.857 8.41 1.43 7.19
5/22/2021 9:15:00 PM 21.72 71.096 0.776 8.39 0.22 7.06
5/22/2021 9:30:00 PM 21.71 71.078 0.836 8.38 0.57 6.93
5/22/2021 9:45:00 PM 21.69 71.042 0.795 8.37 0.32 6.79
5/22/2021 10:00:00 PM 21.68 71.024 0.809 8.36 0.33 6.68
5/22/2021 10:15:00 PM 21.66 70.988 0.891 8.35 1.06 6.55
5/22/2021 10:30:00 PM 21.65 70.97 0.891 8.34 0.58 6.52
5/22/2021 10:45:00 PM 21.62 70.916 0.892 8.32 0.18 6.3
5/22/2021 11:00:00 PM 21.59 70.862 0.886 8.31 0.21 6.21
5/22/2021 11:15:00 PM 21.55 70.79 0.892 8.3 1.39 6.17
5/22/2021 11:30:00 PM 21.51 70.718 0.893 8.29 0.43 6.03
5/22/2021 11:45:00 PM 21.47 70.646 0.893 8.28 0.28 6.04
5/23/2021 12:00:00 AM 21.42 70.556 0.893 8.27 0.67 6
5/23/2021 12:15:00 AM 21.37 70.466 0.894 8.25 0.27 5.93
5/23/2021 12:30:00 AM 21.32 70.376 0.894 8.25 0.73 5.89
5/23/2021 12:45:00 AM 21.26 70.268 0.893 8.24 0.17 5.9
5/23/2021 1:00:00 AM 21.21 70.17799 0.894 8.23 0.4 5.89
5/23/2021 1:15:00 AM 21.14 70.052 0.894 8.22 0.73 5.76
5/23/2021 1:30:00 AM 21.09 69.962 0.894 8.21 0.35 5.76
5/23/2021 1:45:00 AM 21.05 69.89 0.894 8.2 0.35 5.8
5/23/2021 2:00:00 AM 21.01 69.818 0.894 8.2 1.19 5.74
5/23/2021 2:15:00 AM 20.96 69.728 0.892 8.19 1.48 5.75
5/23/2021 2:30:00 AM 20.91 69.638 0.888 8.18 1.11 5.71
5/23/2021 2:45:00 AM 20.86 69.548 0.891 8.18 0.31 5.67
5/23/2021 3:00:00 AM 20.81 69.458 0.891 8.17 0.35 5.68
5/23/2021 3:15:00 AM 20.75 69.35 0.892 8.16 0.78 5.73
5/23/2021 3:30:00 AM 20.7 69.26 0.892 8.16 0.14 5.69
5/23/2021 3:45:00 AM 20.65 69.17 0.892 8.15 2.16 5.66
5/23/2021 4:00:00 AM 20.61 69.098 0.891 8.15 0.08 5.69
5/23/2021 4:15:00 AM 20.56 69.008 0.89 8.14 1.62 5.73
5/23/2021 4:30:00 AM 20.51 68.918 0.887 8.13 0.48 5.72
5/23/2021 4:45:00 AM 20.46 68.828 0.885 8.13 1.91 5.71
5/23/2021 5:00:00 AM 20.41 68.738 0.889 8.12 0.53 5.76
5/23/2021 5:15:00 AM 20.35 68.63 0.882 8.11 0.67 5.7
5/23/2021 5:30:00 AM 20.3 68.54 0.889 8.11 1.04 5.73
5/23/2021 5:45:00 AM 20.25 68.45 0.888 8.11 0.82 5.78
5/23/2021 6:00:00 AM 20.2 68.36 0.888 8.1 0.53 5.75
5/23/2021 6:15:00 AM 20.15 68.27 0.888 8.1 0.72 5.76
5/23/2021 6:30:00 AM 20.09 68.162 0.886 8.1 1.77 5.8
5/23/2021 6:45:00 AM 20.04 68.07201 0.886 8.1 0.47 5.89
5/23/2021 7:00:00 AM 20 68 0.886 8.1 1.71 5.92
5/23/2021 7:15:00 AM 19.96 67.92799 0.886 8.1 1.67 5.91
5/23/2021 7:30:00 AM 19.93 67.874 0.885 8.11 1.15 6.06
5/23/2021 7:45:00 AM 19.9 67.82 0.886 8.1 1.41 6.09
5/23/2021 8:00:00 AM 19.89 67.802 0.886 8.11 0.46 6.13
5/23/2021 8:15:00 AM 19.88 67.784 0.869 8.11 3.84 6.25
5/23/2021 8:30:00 AM 19.87 67.766 0.874 8.11 0.41 6.32
5/23/2021 8:45:00 AM 19.86 67.748 0.872 8.11 0.39 6.36
5/23/2021 9:00:00 AM 19.86 67.748 0.87 8.12 0.97 6.42
5/23/2021 9:15:00 AM 19.88 67.784 0.869 8.13 0.11 6.51
5/23/2021 9:30:00 AM 19.92 67.856 0.867 8.13 0.68 6.65
5/23/2021 9:45:00 AM 19.96 67.92799 0.859 8.14 2.32 6.95
5/23/2021 10:00:00 AM 20.03 68.054 0.86 8.15 1.99 7.08
5/23/2021 10:15:00 AM 20.16 68.288 0.865 8.17 0.49 7.3
5/23/2021 10:30:00 AM 20.42 68.756 0.871 8.2 0.27 7.66
5/23/2021 10:45:00 AM 20.61 69.098 0.878 8.21 1.05 7.98
5/23/2021 11:00:00 AM 20.82 69.476 0.875 8.23 0.69 8.17
5/23/2021 11:15:00 AM 20.99 69.782 0.884 8.24 0.73 8.44
5/23/2021 11:30:00 AM 21.19 70.142 0.884 8.26 1.16 8.62
5/23/2021 11:45:00 AM 21.41 70.538 0.884 8.27 0.97 8.85
5/23/2021 12:00:00 PM 21.67 71.006 0.884 8.3 1.83 9.27
5/23/2021 12:15:00 PM 21.84 71.312 0.885 8.31 0.99 9.31
5/23/2021 12:30:00 PM 21.94 71.492 0.885 8.32 1.11 9.46
5/23/2021 12:45:00 PM 22.05 71.69 0.884 8.33 0.36 9.58
5/23/2021 1:00:00 PM 22.23 72.014 0.885 8.34 0.87 9.47
5/23/2021 1:15:00 PM 22.45 72.41 0.885 8.35 0.6 9.75
5/23/2021 1:30:00 PM 22.57 72.626 0.885 8.36 0.4 9.85
5/23/2021 1:45:00 PM 22.69 72.842 0.885 8.37 0.64 9.8
5/23/2021 2:00:00 PM 22.88 73.184 0.885 8.38 1.15 9.91
5/23/2021 2:15:00 PM 23.04 73.472 0.885 8.39 2.36 9.97
5/23/2021 2:30:00 PM 23.21 73.778 0.885 8.41 0.36 10.06
5/23/2021 2:45:00 PM 23.28 73.904 0.886 8.41 1.12 9.97
5/23/2021 3:00:00 PM 23.39 74.102 0.886 8.42 0.8 10
5/23/2021 3:15:00 PM 23.48 74.264 0.887 8.43 0.97 9.97
5/23/2021 3:30:00 PM 23.47 74.246 0.888 8.42 1.03 9.59
5/23/2021 3:45:00 PM 23.44 74.192 0.888 8.42 1.12 9.44
5/23/2021 4:00:00 PM 23.47 74.246 0.889 8.42 0.7 9.39
5/23/2021 4:15:00 PM 23.59 74.462 0.889 8.42 0.14 9.43
5/23/2021 4:30:00 PM 23.62 74.516 0.89 8.43 0.37 9.42
5/23/2021 4:45:00 PM 23.6 74.48 0.89 8.42 0.6 9.28
5/23/2021 5:00:00 PM 23.53 74.354 0.891 8.42 0.55 9.04
5/23/2021 5:15:00 PM 23.5 74.3 0.892 8.41 0.72 8.85
5/23/2021 5:30:00 PM 23.48 74.264 0.893 8.4 0.54 8.61
5/23/2021 5:45:00 PM 23.45 74.21 0.894 8.39 1.34 8.33
5/23/2021 6:00:00 PM 23.38 74.084 0.894 8.37 0.4 8.16
5/23/2021 6:15:00 PM 23.33 73.994 0.895 8.35 0.37 7.81
5/23/2021 6:30:00 PM 23.3 73.94 0.896 8.34 0.48 7.75
5/23/2021 6:45:00 PM 23.27 73.886 0.897 8.33 0.59 7.41
5/23/2021 7:00:00 PM 23.27 73.886 0.897 8.32 0.23 7.21
5/23/2021 7:15:00 PM 23.27 73.886 0.897 8.31 0.39 7.15
5/23/2021 7:30:00 PM 23.27 73.886 0.898 8.3 0.22 6.98
5/23/2021 7:45:00 PM 23.26 73.868 0.899 8.29 0.05 6.89
5/23/2021 8:00:00 PM 23.27 73.886 0.9 8.28 0.84 6.68
5/23/2021 8:15:00 PM 23.27 73.886 0.9 8.26 0.12 6.56
5/23/2021 8:30:00 PM 23.27 73.886 0.901 8.25 0.09 6.45
5/23/2021 8:45:00 PM 23.27 73.886 0.899 8.25 2.19 6.35
5/23/2021 9:00:00 PM 23.28 73.904 0.899 8.23 0.68 6.21
5/23/2021 9:15:00 PM 23.28 73.904 0.901 8.23 0.61 6.11
5/23/2021 9:30:00 PM 23.28 73.904 0.904 8.22 0.33 6.11
5/23/2021 9:45:00 PM 23.27 73.886 0.905 8.21 0.47 5.91
5/23/2021 10:00:00 PM 23.24 73.832 0.906 8.2 0.44 5.79
5/23/2021 10:15:00 PM 23.21 73.778 0.906 8.19 1.02 5.78
5/23/2021 10:30:00 PM 23.18 73.724 0.907 8.19 0.73 5.67
5/23/2021 10:45:00 PM 23.16 73.688 0.907 8.18 1.03 5.58
5/23/2021 11:00:00 PM 23.13 73.634 0.907 8.17 0.41 5.49
5/23/2021 11:15:00 PM 23.09 73.562 0.907 8.16 2 5.49
5/23/2021 11:30:00 PM 23.05 73.49 0.908 8.15 1.29 5.37
5/23/2021 11:45:00 PM 23.01 73.418 0.908 8.14 1.57 5.32
5/24/2021 12:00:00 AM 22.99 73.382 0.908 8.13 0.84 5.37
5/24/2021 12:15:00 AM 22.95 73.31 0.903 8.11 1.54 5.19
5/24/2021 12:30:00 AM 22.89 73.202 0.903 8.11 1.22 5.17
5/24/2021 12:45:00 AM 22.83 73.094 0.906 8.1 2.33 5.07
5/24/2021 1:00:00 AM 22.81 73.058 0.909 8.1 0.7 5.08
5/24/2021 1:15:00 AM 22.75 72.95 0.905 8.08 0.56 5.02
5/24/2021 1:30:00 AM 22.69 72.842 0.906 8.07 1 4.87
5/24/2021 1:45:00 AM 22.63 72.734 0.909 8.07 0.39 4.99
5/24/2021 2:00:00 AM 22.57 72.626 0.909 8.07 3.68 4.99
5/24/2021 2:15:00 AM 22.51 72.518 0.908 8.07 0.56 5.11
5/24/2021 2:30:00 AM 22.44 72.392 0.908 8.06 1.07 5.02
5/24/2021 2:45:00 AM 22.37 72.266 0.908 8.06 0.36 4.9
5/24/2021 3:00:00 AM 22.3 72.14 0.908 8.06 4.23 5.02
5/24/2021 3:15:00 AM 22.24 72.032 0.908 8.05 0.82 4.96
5/24/2021 3:30:00 AM 22.18 71.924 0.886 8.04 1 4.93
5/24/2021 3:45:00 AM 22.11 71.798 0.907 8.04 2.16 4.97
5/24/2021 4:00:00 AM 22.04 71.672 0.906 8.03 1.75 4.99
5/24/2021 4:15:00 AM 21.98 71.564 0.907 7.98 1.46 5.09
5/24/2021 4:30:00 AM 21.91 71.438 0.906 8.01 1.22 5.13
5/24/2021 4:45:00 AM 21.84 71.312 0.907 8.01 1.98 5
5/24/2021 5:00:00 AM 21.78 71.204 0.906 7.98 0.74 5.03
5/24/2021 5:15:00 AM 21.7 71.06 0.9 7.98 0.84 4.95
5/24/2021 5:30:00 AM 21.63 70.934 0.9 7.96 0.98 4.96
5/24/2021 5:45:00 AM 21.55 70.79 0.9 8 0.53 5.11
5/24/2021 6:00:00 AM 21.48 70.664 0.898 8.01 2.13 5.09
5/24/2021 6:15:00 AM 21.42 70.556 0.899 8.02 0.8 5.31
5/24/2021 6:30:00 AM 21.35 70.43 0.898 8.03 0.96 5.29
5/24/2021 6:45:00 AM 21.29 70.32201 0.903 8.03 1.2 5.22
5/24/2021 7:00:00 AM 21.22 70.196 0.903 8.03 1.63 5.19
5/24/2021 7:15:00 AM 21.15 70.07 0.903 8.03 11.07 5.21
5/24/2021 7:30:00 AM 21.06 69.908 0.903 8.03 0.8 5.47
5/24/2021 7:45:00 AM 20.99 69.782 0.903 8.04 1.1 5.39
5/24/2021 8:00:00 AM 20.92 69.656 0.903 8.05 0.23 5.61
5/24/2021 8:15:00 AM 20.85 69.53 0.903 8.04 1.36 5.44
5/24/2021 8:30:00 AM 20.78 69.404 0.903 8.05 0.51 5.53
5/24/2021 8:45:00 AM 20.72 69.296 0.902 8.04 0.87 5.45
5/24/2021 9:00:00 AM 20.66 69.188 0.903 8.06 1.02 5.59
5/24/2021 9:15:00 AM 20.6 69.08 0.903 8.05 0.91 5.55
5/24/2021 9:30:00 AM 20.53 68.954 0.903 8.06 0.92 5.58
5/24/2021 9:45:00 AM 20.48 68.864 0.903 8.06 1.11 5.71
5/24/2021 10:00:00 AM 20.42 68.756 0.903 8.06 0.52 5.62
5/24/2021 10:15:00 AM 20.36 68.648 0.904 8.06 1.55 5.66
5/24/2021 10:30:00 AM 20.31 68.558 0.903 8.06 1.82 5.75
5/24/2021 10:45:00 AM 20.27 68.486 0.903 8.07 0.9 5.86
5/24/2021 11:00:00 AM 20.22 68.396 0.903 8.08 2.27 6.01
5/24/2021 11:15:00 AM 20.18 68.324 0.903 8.09 1.27 6.26
5/24/2021 11:30:00 AM 20.13 68.234 0.903 8.1 0.63 6.3
5/24/2021 11:45:00 AM 20.09 68.162 0.902 8.1 1.37 6.36
5/24/2021 12:00:00 PM 20.03 68.054 0.902 8.1 6.61 6.56
5/24/2021 12:15:00 PM 19.98 67.964 0.902 8.12 2.39 6.64
5/24/2021 12:30:00 PM 19.94 67.892 0.901 8.12 3.76 6.63
5/24/2021 12:45:00 PM 19.91 67.838 0.901 8.13 1.31 6.68
5/24/2021 1:00:00 PM 19.88 67.784 0.9 8.13 0.89 6.73
5/24/2021 1:15:00 PM 19.83 67.694 0.898 8.14 0.37 6.95
5/24/2021 1:30:00 PM 19.79 67.622 0.898 8.14 0.74 6.73
5/24/2021 1:45:00 PM 19.77 67.586 0.897 8.15 0.96 6.79
5/24/2021 2:00:00 PM 19.73 67.514 0.896 8.16 0.65 6.94
5/24/2021 2:15:00 PM 19.67 67.406 0.894 8.15 0.65 6.94
5/24/2021 2:30:00 PM 19.61 67.298 0.892 8.15 0.67 6.95
5/24/2021 2:45:00 PM 19.56 67.208 0.891 8.15 0.95 6.78
5/24/2021 3:00:00 PM 19.5 67.1 0.889 8.15 0.68 6.92
5/24/2021 3:15:00 PM 19.46 67.028 0.887 8.14 0.5 6.83
5/24/2021 3:30:00 PM 19.41 66.938 0.886 8.15 4.19 6.9
5/24/2021 3:45:00 PM 19.36 66.848 0.88 8.15 0.96 7.06
5/24/2021 4:00:00 PM 19.33 66.794 0.879 8.15 1.12 7.02
5/24/2021 4:15:00 PM 19.3 66.74 0.88 8.16 0.71 7.04
5/24/2021 4:30:00 PM 19.28 66.704 0.88 8.17 0.9 7.18
5/24/2021 4:45:00 PM 19.25 66.65 0.879 8.17 0.94 7.04
5/24/2021 5:00:00 PM 19.22 66.596 0.878 8.17 2.01 7.11
5/24/2021 5:15:00 PM 19.2 66.56 0.877 8.17 1.56 7.12
5/24/2021 5:30:00 PM 19.18 66.524 0.876 8.17 0.55 7.14
5/24/2021 5:45:00 PM 19.18 66.524 0.875 8.18 0.76 7.09
5/24/2021 6:00:00 PM 19.17 66.506 0.874 8.19 1.69 7.28
5/24/2021 6:15:00 PM 19.15 66.47 0.873 8.2 0.86 7.26
5/24/2021 6:30:00 PM 19.11 66.398 0.873 8.19 0.93 7.25
5/24/2021 6:45:00 PM 19.07 66.326 0.872 8.18 1.05 7.07
5/24/2021 7:00:00 PM 19.04 66.272 0.872 8.18 0.86 7.06
5/24/2021 7:15:00 PM 19.01 66.218 0.872 8.17 1.79 6.96
5/24/2021 7:30:00 PM 18.97 66.146 0.871 8.17 2.11 6.92
5/24/2021 7:45:00 PM 18.93 66.074 0.871 8.16 1.84 6.89
5/24/2021 8:00:00 PM 18.9 66.02 0.871 8.16 1.87 6.77
5/24/2021 8:15:00 PM 18.87 65.966 0.87 8.16 2.19 6.72
5/24/2021 8:30:00 PM 18.83 65.894 0.867 8.16 2.41 6.79
5/24/2021 8:45:00 PM 18.8 65.84 0.867 8.16 1.37 6.75
5/24/2021 9:00:00 PM 18.77 65.786 0.865 8.15 1.24 6.73
5/24/2021 9:15:00 PM 18.74 65.732 0.863 8.15 2.51 6.7
5/24/2021 9:30:00 PM 18.7 65.66 0.859 8.14 2.67 6.62
5/24/2021 9:45:00 PM 18.65 65.57 0.854 8.14 1.99 6.6
5/24/2021 10:00:00 PM 18.6 65.48 0.854 8.14 2.2 6.68
5/24/2021 10:15:00 PM 18.55 65.39 0.853 8.13 1.8 6.57
5/24/2021 10:30:00 PM 18.5 65.3 0.857 8.13 2.25 6.6
5/24/2021 10:45:00 PM 18.45 65.21 0.854 8.13 1.9 6.59
5/24/2021 11:00:00 PM 18.4 65.12 0.854 8.13 1.81 6.61
5/24/2021 11:15:00 PM 18.36 65.048 0.855 8.12 1.73 6.51
5/24/2021 11:30:00 PM 18.33 64.994 0.855 8.12 3.85 6.56
5/24/2021 11:45:00 PM 18.3 64.94 0.855 8.12 1.79 6.54
5/25/2021 12:00:00 AM 18.27 64.886 0.855 8.12 2.27 6.46
5/25/2021 12:15:00 AM 18.25 64.85 0.855 8.12 2.62 6.51
5/25/2021 12:30:00 AM 18.22 64.796 0.856 8.11 2.41 6.47
5/25/2021 12:45:00 AM 18.2 64.76 0.857 8.11 1.75 6.47
5/25/2021 1:00:00 AM 18.17 64.706 0.857 8.1 1.12 6.42
5/25/2021 1:15:00 AM 18.15 64.67 0.856 8.1 1.26 6.32
5/25/2021 1:30:00 AM 18.13 64.634 0.858 8.09 3.5 6.43
5/25/2021 1:45:00 AM 18.11 64.598 0.859 8.1 2.36 6.4
5/25/2021 2:00:00 AM 18.08 64.544 0.859 8.09 1.67 6.43
5/25/2021 2:15:00 AM 18.06 64.508 0.86 8.11 1.93 6.37
5/25/2021 2:30:00 AM 18.04 64.472 0.86 8.11 2.21 6.41
5/25/2021 2:45:00 AM 18.01 64.418 0.86 8.12 2.48 6.56
5/25/2021 3:00:00 AM 17.98 64.364 0.859 8.12 1.98 6.57
5/25/2021 3:15:00 AM 17.95 64.31 0.861 8.12 2.05 6.55
5/25/2021 3:30:00 AM 17.93 64.274 0.86 8.12 1.86 6.61
5/25/2021 3:45:00 AM 17.9 64.22 0.86 8.12 2.08 6.63
5/25/2021 4:00:00 AM 17.87 64.166 0.836 8.12 4.7 6.51
5/25/2021 4:15:00 AM 17.84 64.112 0.859 8.11 2.37 6.46
5/25/2021 4:30:00 AM 17.81 64.058 0.858 8.11 3.05 6.36
5/25/2021 4:45:00 AM 17.77 63.986 0.856 8.1 3.59 6.4
5/25/2021 5:00:00 AM 17.73 63.914 0.852 8.09 1.91 6.33
5/25/2021 5:15:00 AM 17.7 63.86 0.853 8.09 2.07 6.35
5/25/2021 5:30:00 AM 17.67 63.806 0.851 8.09 2.21 6.37
5/25/2021 5:45:00 AM 17.64 63.752 0.849 8.09 2.07 6.44
5/25/2021 6:00:00 AM 17.61 63.698 0.848 8.1 1.35 6.23
5/25/2021 6:15:00 AM 17.59 63.662 0.846 8.09 2.64 6.46
5/25/2021 6:30:00 AM 17.56 63.608 0.846 8.09 2 6.34
5/25/2021 6:45:00 AM 17.54 63.572 0.845 8.09 4.56 6.49
5/25/2021 7:00:00 AM 17.52 63.536 0.789 8.1 1.17 6.57
5/25/2021 7:15:00 AM 17.51 63.518 0.791 8.1 1.79 6.58
5/25/2021 7:30:00 AM 17.5 63.5 0.843 8.11 1.6 6.58
5/25/2021 7:45:00 AM 17.49 63.482 0.843 8.11 2.35 6.57
5/25/2021 8:00:00 AM 17.48 63.464 0.843 8.12 1.97 6.66
5/25/2021 8:15:00 AM 17.48 63.464 0.842 8.12 1.37 6.85
5/25/2021 8:30:00 AM 17.49 63.482 0.842 8.12 1.8 6.84
5/25/2021 8:45:00 AM 17.51 63.518 0.842 8.13 1.31 7
5/25/2021 9:00:00 AM 17.52 63.536 0.842 8.14 1.65 6.9
5/25/2021 9:15:00 AM 17.53 63.554 0.841 8.13 2.22 7.11
5/25/2021 9:30:00 AM 17.55 63.59 0.841 8.14 1.56 7.2
5/25/2021 9:45:00 AM 17.57 63.626 0.84 8.15 1.77 7.22
5/25/2021 10:00:00 AM 17.59 63.662 0.839 8.15 1.05 7.36
5/25/2021 10:15:00 AM 17.62 63.716 0.837 8.15 1.8 7.58
5/25/2021 10:30:00 AM 17.63 63.734 0.836 8.16 1.82 7.44
5/25/2021 10:45:00 AM 17.66 63.788 0.835 8.16 1.37 7.5
5/25/2021 11:00:00 AM 17.69 63.842 0.834 8.16 1.22 7.48
5/25/2021 11:15:00 AM 17.75 63.95 0.832 8.16 0.73 7.64
5/25/2021 11:30:00 AM 17.81 64.058 0.83 8.17 1.13 7.93
5/25/2021 11:45:00 AM 17.87 64.166 0.829 8.18 1.61 7.91
5/25/2021 12:00:00 PM 17.95 64.31 0.828 8.19 1.99 8.15
5/25/2021 12:15:00 PM 18.01 64.418 0.827 8.19 1.52 8.18
5/25/2021 12:30:00 PM 18.1 64.58 0.826 8.21 2.61 8.43
5/25/2021 12:45:00 PM 18.19 64.742 0.825 8.22 0.75 8.6
5/25/2021 1:00:00 PM 18.27 64.886 0.825 8.23 0.51 8.67
5/25/2021 1:15:00 PM 18.38 65.084 0.824 8.24 3.86 8.83
5/25/2021 1:30:00 PM 18.48 65.264 0.823 8.26 0.53 8.95
5/25/2021 1:45:00 PM 18.58 65.444 0.823 8.27 0.89 9.13
5/25/2021 2:00:00 PM 18.63 65.534 0.823 8.29 0.62 9.14
5/25/2021 2:15:00 PM 18.71 65.67799 0.822 8.29 0.46 9.18
5/25/2021 2:30:00 PM 18.8 65.84 0.822 8.3 0.77 9.23
5/25/2021 2:45:00 PM 18.93 66.074 0.821 8.31 2.18 9.34
5/25/2021 3:00:00 PM 18.96 66.128 0.822 8.32 1.68 9.36
5/25/2021 3:15:00 PM 18.98 66.164 0.821 8.32 1.21 9.33
5/25/2021 3:30:00 PM 19.07 66.326 0.821 8.32 1 9.37
5/25/2021 3:45:00 PM 19.18 66.524 0.821 8.32 0.74 9.32
5/25/2021 4:00:00 PM 19.29 66.722 0.822 8.33 2.15 9.38
5/25/2021 4:15:00 PM 19.34 66.812 0.822 8.32 3.07 9.26
5/25/2021 4:30:00 PM 19.42 66.956 0.822 8.32 0.99 9.19
5/25/2021 4:45:00 PM 19.47 67.046 0.822 8.32 1.57 9.13
5/25/2021 5:00:00 PM 19.48 67.064 0.823 8.32 0.74 8.93
5/25/2021 5:15:00 PM 19.49 67.082 0.82 8.32 0.88 8.84
5/25/2021 5:30:00 PM 19.51 67.118 0.821 8.32 1.08 8.77
5/25/2021 5:45:00 PM 19.52 67.136 0.821 8.32 0.64 8.65
5/25/2021 6:00:00 PM 19.54 67.172 0.822 8.32 0.84 8.52
5/25/2021 6:15:00 PM 19.54 67.172 0.822 8.31 0.69 8.42
5/25/2021 6:30:00 PM 19.55 67.19 0.818 8.31 0.76 8.24
5/25/2021 6:45:00 PM 19.57 67.226 0.822 8.3 2.49 8.2
5/25/2021 7:00:00 PM 19.57 67.226 0.823 8.29 1.11 8.01
5/25/2021 7:15:00 PM 19.58 67.244 0.826 8.28 0.76 8.02
5/25/2021 7:30:00 PM 19.57 67.226 0.827 8.28 0.49 7.8
5/25/2021 7:45:00 PM 19.57 67.226 0.827 8.27 1.58 7.7
5/25/2021 8:00:00 PM 19.54 67.172 0.828 8.26 0.38 7.35
5/25/2021 8:15:00 PM 19.53 67.154 0.828 8.25 0.46 7.3
5/25/2021 8:30:00 PM 19.51 67.118 0.819 8.24 1.06 7.21
5/25/2021 8:45:00 PM 19.48 67.064 0.829 8.23 0.58 7.05
5/25/2021 9:00:00 PM 19.45 67.01 0.83 8.22 1.84 6.95
5/25/2021 9:15:00 PM 19.42 66.956 0.809 8.22 1.83 7.03
5/25/2021 9:30:00 PM 19.39 66.902 0.807 8.21 0.78 6.94
5/25/2021 9:45:00 PM 19.35 66.83 0.809 8.2 0.71 6.93
5/25/2021 10:00:00 PM 19.31 66.758 0.808 8.2 0.92 6.8
5/25/2021 10:15:00 PM 19.27 66.686 0.81 8.2 0.44 6.7
5/25/2021 10:30:00 PM 19.23 66.614 0.817 8.18 1.21 6.41
5/25/2021 10:45:00 PM 19.19 66.542 0.823 8.16 1.31 6.39
5/25/2021 11:00:00 PM 19.15 66.47 0.824 8.16 0.99 6.43
5/25/2021 11:15:00 PM 19.11 66.398 0.824 8.15 1.46 6.35
5/25/2021 11:30:00 PM 19.08 66.344 0.828 8.15 1.72 6.33
5/25/2021 11:45:00 PM 19.04 66.272 0.829 8.14 1.59 6.25
5/26/2021 12:00:00 AM 19 66.2 0.823 8.14 5.63 6.24
5/26/2021 12:15:00 AM 18.96 66.128 0.825 8.13 4.12 5.97
5/26/2021 12:30:00 AM 18.92 66.056 0.826 8.11 3.18 5.9
5/26/2021 12:45:00 AM 18.89 66.002 0.826 8.11 1.96 5.88
5/26/2021 1:00:00 AM 18.86 65.948 0.826 8.11 2.62 5.8
5/26/2021 1:15:00 AM 18.83 65.894 0.825 8.1 3.34 5.92
5/26/2021 1:30:00 AM 18.79 65.82201 0.813 8.1 1.28 5.84
5/26/2021 1:45:00 AM 18.76 65.768 0.812 8.1 3.72 5.89
5/26/2021 2:00:00 AM 18.72 65.696 0.777 8.08 1.59 5.7
5/26/2021 2:15:00 AM 18.69 65.642 0.823 8.08 7.13 5.51
5/26/2021 2:30:00 AM 18.65 65.57 0.824 8.07 4.96 5.56
5/26/2021 2:45:00 AM 18.62 65.516 0.824 8.07 3.67 5.58
5/26/2021 3:00:00 AM 18.59 65.462 0.823 8.08 2.73 5.81
5/26/2021 3:15:00 AM 18.56 65.408 0.823 8.08 0.81 6.02
5/26/2021 3:30:00 AM 18.52 65.336 0.823 8.08 2.82 6.04
5/26/2021 3:45:00 AM 18.49 65.282 0.823 8.09 2.61 6.11
5/26/2021 4:00:00 AM 18.46 65.228 0.823 8.08 2.81 6.11
5/26/2021 4:15:00 AM 18.43 65.174 0.823 8.08 3.14 6.04
5/26/2021 4:30:00 AM 18.4 65.12 0.823 8.09 3.92 6.12
5/26/2021 4:45:00 AM 18.37 65.066 0.823 8.09 6.71 6.11
5/26/2021 5:00:00 AM 18.34 65.012 0.824 8.08 1.93 6.17
5/26/2021 5:15:00 AM 18.31 64.958 0.824 8.08 2.72 6.2
5/26/2021 5:30:00 AM 18.28 64.904 0.824 8.09 1.52 6.29
5/26/2021 5:45:00 AM 18.25 64.85 0.824 8.09 2.68 6.36
5/26/2021 6:00:00 AM 18.23 64.814 0.824 8.09 2.11 6.33
5/26/2021 6:15:00 AM 18.21 64.778 0.824 8.09 1.86 6.39
5/26/2021 6:30:00 AM 18.19 64.742 0.824 8.09 1.78 6.4
5/26/2021 6:45:00 AM 18.18 64.724 0.824 8.09 2 6.44
5/26/2021 7:00:00 AM 18.17 64.706 0.824 8.09 1.17 6.46
5/26/2021 7:15:00 AM 18.16 64.688 0.824 8.1 1.49 6.55
5/26/2021 7:30:00 AM 18.16 64.688 0.824 8.1 1.49 6.63
5/26/2021 7:45:00 AM 18.17 64.706 0.824 8.11 1.18 6.76
5/26/2021 8:00:00 AM 18.18 64.724 0.824 8.11 0.6 6.79
5/26/2021 8:15:00 AM 18.21 64.778 0.824 8.12 1.39 6.89
5/26/2021 8:30:00 AM 18.24 64.832 0.824 8.12 1.21 7
5/26/2021 8:45:00 AM 18.26 64.868 0.824 8.13 0.47 7.09
5/26/2021 9:00:00 AM 18.28 64.904 0.824 8.14 3.27 7.2
5/26/2021 9:15:00 AM 18.3 64.94 0.824 8.14 2.05 7.3
5/26/2021 9:30:00 AM 18.33 64.994 0.824 8.15 0.9 7.4
5/26/2021 9:45:00 AM 18.38 65.084 0.824 8.16 2.66 7.58
5/26/2021 10:00:00 AM 18.43 65.174 0.824 8.17 1.44 7.65
5/26/2021 10:15:00 AM 18.49 65.282 0.811 8.18 1.26 7.82
5/26/2021 10:30:00 AM 18.56 65.408 0.811 8.18 1.74 7.93
5/26/2021 10:45:00 AM 18.73 65.714 0.806 8.2 0.9 8.02
5/26/2021 11:00:00 AM 18.9 66.02 0.813 8.2 0.47 8.28
5/26/2021 11:15:00 AM 19.14 66.452 0.809 8.21 0.68 8.43
5/26/2021 11:30:00 AM 19.33 66.794 0.803 8.23 0.71 8.64
5/26/2021 11:45:00 AM 19.55 67.19 0.809 8.24 1.02 8.82
5/26/2021 12:00:00 PM 19.81 67.658 0.808 8.25 1.87 8.95
5/26/2021 12:15:00 PM 20.02 68.036 0.812 8.25 1.65 9.06
5/26/2021 12:30:00 PM 20.21 68.378 0.81 8.25 1.11 9.15
5/26/2021 12:45:00 PM 20.4 68.72 0.814 8.27 0.66 9.24
5/26/2021 1:00:00 PM 20.58 69.044 0.82 8.27 1.47 9.31
5/26/2021 1:15:00 PM 20.77 69.386 0.819 8.28 2.05 9.45
5/26/2021 1:30:00 PM 20.96 69.728 0.819 8.29 0.7 9.57
5/26/2021 1:45:00 PM 21.12 70.016 0.819 8.3 0.64 9.58
5/26/2021 2:00:00 PM 21.19 70.142 0.819 8.31 0.96 9.51
5/26/2021 2:15:00 PM 21.31 70.358 0.815 8.31 1.78 9.55
5/26/2021 2:30:00 PM 21.5 70.7 0.818 8.32 0.29 9.65
5/26/2021 2:45:00 PM 21.66 70.988 0.817 8.33 1.37 9.72
5/26/2021 3:00:00 PM 21.77 71.186 0.817 8.33 1.23 9.65
5/26/2021 3:15:00 PM 21.79 71.222 0.818 8.31 4.42 8.93
5/26/2021 3:30:00 PM 21.87 71.366 0.818 8.3 3.11 8.82
5/26/2021 3:45:00 PM 21.94 71.492 0.818 8.29 4.34 8.62
5/26/2021 4:00:00 PM 22.03 71.654 0.817 8.28 2 8.52
5/26/2021 4:15:00 PM 22.03 71.654 0.819 8.27 4.91 8.09
5/26/2021 4:30:00 PM 22.11 71.798 0.816 8.27 5.78 8.46
5/26/2021 4:45:00 PM 22.09 71.762 0.816 8.29 2.6 8.38
5/26/2021 5:00:00 PM 22 71.6 0.815 8.29 2.35 8.24
5/26/2021 5:15:00 PM 21.94 71.492 0.811 8.28 1.2 7.98
5/26/2021 5:30:00 PM 21.89 71.402 0.811 8.27 2.03 7.62
5/26/2021 5:45:00 PM 21.9 71.42 0.811 8.27 0.92 7.87
5/26/2021 6:00:00 PM 21.91 71.438 0.811 8.28 1.24 7.89
5/26/2021 6:15:00 PM 21.95 71.51 0.81 8.29 1.16 7.97
5/26/2021 6:30:00 PM 21.94 71.492 0.811 8.29 1.09 7.84
5/26/2021 6:45:00 PM 21.9 71.42 0.8 8.28 1.63 7.62
5/26/2021 7:00:00 PM 21.85 71.33 0.8 8.26 2.38 7.34
5/26/2021 7:15:00 PM 21.81 71.258 0.802 8.25 1.45 6.99
5/26/2021 7:30:00 PM 21.79 71.222 0.8 8.23 0.83 6.95
5/26/2021 7:45:00 PM 21.77 71.186 0.799 8.22 0.42 6.79
5/26/2021 8:00:00 PM 21.75 71.15 0.8 8.21 1.99 6.62
5/26/2021 8:15:00 PM 21.76 71.168 0.8 8.2 1.47 6.68
5/26/2021 8:30:00 PM 21.75 71.15 0.801 8.19 1.8 6.51
5/26/2021 8:45:00 PM 21.73 71.114 0.799 8.18 3.14 6.38
5/26/2021 9:00:00 PM 21.71 71.078 0.789 8.18 2.45 6.32
5/26/2021 9:15:00 PM 21.69 71.042 0.802 8.16 3.29 6.18
5/26/2021 9:30:00 PM 21.67 71.006 0.799 8.16 2.7 6.14
5/26/2021 9:45:00 PM 21.65 70.97 0.801 8.16 2.02 6.2
5/26/2021 10:00:00 PM 21.6 70.88 0.799 8.17 2.49 6.25
5/26/2021 10:15:00 PM 21.55 70.79 0.799 8.17 4.22 6.24
5/26/2021 10:30:00 PM 21.52 70.736 0.799 8.16 6.85 6.19
5/26/2021 10:45:00 PM 21.49 70.682 0.8 8.16 4.7 6.16
5/26/2021 11:00:00 PM 21.45 70.61 0.799 8.15 6.5 6.1
5/26/2021 11:15:00 PM 21.41 70.538 0.8 8.14 5.28 6.02
5/26/2021 11:30:00 PM 21.37 70.466 0.8 8.13 6.13 6.01
5/26/2021 11:45:00 PM 21.31 70.358 0.799 8.13 13.04 6.01
5/27/2021 12:00:00 AM 21.24 70.232 0.798 8.12 16.5 6.08
5/27/2021 12:15:00 AM 21.17 70.106 0.794 8.12 5.99 6.09
5/27/2021 12:30:00 AM 21.1 69.98 0.788 8.11 11.67 6.1
5/27/2021 12:45:00 AM 21.02 69.836 0.785 8.1 15.04 6.09
5/27/2021 1:00:00 AM 20.94 69.692 0.785 8.09 13.34 6.11
5/27/2021 1:15:00 AM 20.85 69.53 0.787 8.09 10.12 6.16
5/27/2021 1:30:00 AM 20.77 69.386 0.788 8.09 15.71 6.2
5/27/2021 1:45:00 AM 20.69 69.242 0.789 8.09 17.7 6.23
5/27/2021 2:00:00 AM 20.61 69.098 0.785 8.08 11.2 6.27
5/27/2021 2:15:00 AM 20.54 68.972 0.781 8.08 17.36 6.29
5/27/2021 2:30:00 AM 20.47 68.846 0.775 8.07 12.68 6.28
5/27/2021 2:45:00 AM 20.4 68.72 0.76 8.07 20.95 6.3
5/27/2021 3:00:00 AM 20.33 68.594 0.766 8.06 17.32 6.29
5/27/2021 3:15:00 AM 20.26 68.468 0.761 8.06 15.36 6.3
5/27/2021 3:30:00 AM 20.2 68.36 0.754 8.05 13.73 6.31
5/27/2021 3:45:00 AM 20.15 68.27 0.747 8.05 15.51 6.29
5/27/2021 4:00:00 AM 20.1 68.18 0.739 8.04 15.29 6.28
5/27/2021 4:15:00 AM 20.07 68.126 0.734 8.03 16.83 6.3
5/27/2021 4:30:00 AM 20.04 68.07201 0.731 8.02 17.2 6.29
5/27/2021 4:45:00 AM 20.01 68.018 0.731 8.02 22.21 6.32
5/27/2021 5:00:00 AM 19.98 67.964 0.732 8.02 20.23 6.34
5/27/2021 5:15:00 AM 19.96 67.92799 0.732 8.01 23.56 6.3
5/27/2021 5:30:00 AM 19.96 67.92799 0.735 8 22.98 6.28
5/27/2021 5:45:00 AM 19.96 67.92799 0.739 8 25.93 6.25
5/27/2021 6:00:00 AM 19.96 67.92799 0.739 7.99 25.91 6.26
5/27/2021 6:15:00 AM 19.98 67.964 0.734 7.99 23.68 6.24
5/27/2021 6:30:00 AM 20.01 68.018 0.726 7.99 20.57 6.21
5/27/2021 6:45:00 AM 20.05 68.09 0.722 7.98 27.31 6.21
5/27/2021 7:00:00 AM 20.1 68.18 0.716 7.97 31.66 6.21
5/27/2021 7:15:00 AM 20.15 68.27 0.713 7.96 25.31 6.22
5/27/2021 7:30:00 AM 20.2 68.36 0.715 7.96 24.97 6.25
5/27/2021 7:45:00 AM 20.26 68.468 0.719 7.96 34.67 6.29
5/27/2021 8:00:00 AM 20.32 68.576 0.724 7.96 32.4 6.32
5/27/2021 8:15:00 AM 20.36 68.648 0.725 7.96 44.59 6.34
5/27/2021 8:30:00 AM 20.41 68.738 0.728 7.96 36.15 6.35
5/27/2021 8:45:00 AM 20.46 68.828 0.722 7.96 39.38 6.35
5/27/2021 9:00:00 AM 20.52 68.936 0.722 7.96 52.61 6.41
5/27/2021 9:15:00 AM 20.59 69.062 0.721 7.96 42.04 6.45
5/27/2021 9:30:00 AM 20.65 69.17 0.735 7.96 50.95 6.45
5/27/2021 9:45:00 AM 20.73 69.314 0.735 7.96 47 6.47
5/27/2021 10:00:00 AM 20.8 69.44 0.734 7.96 51.33 6.52
5/27/2021 10:15:00 AM 20.91 69.638 0.732 7.96 45.46 6.56
5/27/2021 10:30:00 AM 21.01 69.818 0.727 7.95 39.76 6.63
5/27/2021 10:45:00 AM 21.1 69.98 0.714 7.95 34.48 6.66
5/27/2021 11:00:00 AM 21.19 70.142 0.707 7.95 48.05 6.67
5/27/2021 11:15:00 AM 21.28 70.304 0.701 7.95 30.42 6.74
5/27/2021 11:30:00 AM 21.27 70.286 0.696 7.94 36.96 6.78
5/27/2021 11:45:00 AM 21.29 70.32201 0.692 7.93 34.26 6.79
5/27/2021 12:00:00 PM 21.32 70.376 0.688 7.94 27.25 6.85
5/27/2021 12:15:00 PM 21.35 70.43 0.685 7.94 28.35 6.89
5/27/2021 12:30:00 PM 21.5 70.7 0.685 7.93 28.78 6.99
5/27/2021 12:45:00 PM 21.5 70.7 0.693 7.94 34.32 7.08
5/27/2021 1:00:00 PM 21.58 70.844 0.696 7.95 22.67 7.11
5/27/2021 1:15:00 PM 21.68 71.024 0.702 7.95 28.48 7.21
5/27/2021 1:30:00 PM 21.83 71.294 0.705 7.96 28.02 7.36
5/27/2021 1:45:00 PM 21.96 71.528 0.712 7.97 21.48 7.45
5/27/2021 2:00:00 PM 22.08 71.744 0.719 7.98 25.3 7.53
5/27/2021 2:15:00 PM 22.18 71.924 0.726 7.99 16.24 7.57
5/27/2021 2:30:00 PM 22.29 72.122 0.739 8 19.15 7.62
5/27/2021 2:45:00 PM 22.39 72.302 0.75 8.01 24.45 7.64
5/27/2021 3:00:00 PM 22.49 72.482 0.757 8.02 17.42 7.67
5/27/2021 3:15:00 PM 22.55 72.59 0.763 8.03 20.48 7.67
5/27/2021 3:30:00 PM 22.62 72.716 0.769 8.04 13.74 7.71
5/27/2021 3:45:00 PM 22.67 72.806 0.777 8.05 14.64 7.69
5/27/2021 4:00:00 PM 22.72 72.896 0.781 8.06 14.3 7.66
5/27/2021 4:15:00 PM 22.75 72.95 0.785 8.07 13.86 7.63
5/27/2021 4:30:00 PM 22.74 72.932 0.782 8.07 14.67 7.55
5/27/2021 4:45:00 PM 22.72 72.896 0.787 8.07 20.13 7.46
5/27/2021 5:00:00 PM 22.74 72.932 0.791 8.07 18.67 7.44
5/27/2021 5:15:00 PM 22.73 72.914 0.792 8.07 10.73 7.44
5/27/2021 5:30:00 PM 22.68 72.824 0.792 8.07 14.98 7.27
5/27/2021 5:45:00 PM 22.64 72.752 0.79 8.07 11.44 7.14
5/27/2021 6:00:00 PM 22.62 72.716 0.788 8.06 11 7.08
5/27/2021 6:15:00 PM 22.63 72.734 0.785 8.06 9.27 7.09
5/27/2021 6:30:00 PM 22.6 72.68 0.781 8.06 10.52 7
5/27/2021 6:45:00 PM 22.58 72.644 0.773 8.05 8.72 6.91
5/27/2021 7:00:00 PM 22.57 72.626 0.769 8.04 9.89 6.85
5/27/2021 7:15:00 PM 22.55 72.59 0.762 8.04 9.3 6.77
5/27/2021 7:30:00 PM 22.51 72.518 0.728 8.02 8.75 6.64
5/27/2021 7:45:00 PM 22.46 72.42799 0.758 8.01 7.47 6.59
5/27/2021 8:00:00 PM 22.4 72.32 0.752 8 8.83 6.51
5/27/2021 8:15:00 PM 22.33 72.194 0.747 7.99 8.83 6.37
5/27/2021 8:30:00 PM 22.27 72.086 0.742 7.97 10.56 6.31
5/27/2021 8:45:00 PM 22.19 71.942 0.735 7.96 8.21 6.23
5/27/2021 9:00:00 PM 22.12 71.816 0.732 7.95 13.11 6.15
5/27/2021 9:15:00 PM 22.04 71.672 0.728 7.93 9.8 6.05
5/27/2021 9:30:00 PM 21.96 71.528 0.723 7.92 9.29 6
5/27/2021 9:45:00 PM 21.89 71.402 0.72 7.91 11.06 5.97
5/27/2021 10:00:00 PM 21.82 71.276 0.687 7.9 9.49 5.92
5/27/2021 10:15:00 PM 21.74 71.132 0.707 7.89 7.97 5.85
5/27/2021 10:30:00 PM 21.66 70.988 0.708 7.88 7.61 5.81
5/27/2021 10:45:00 PM 21.58 70.844 0.704 7.87 8.86 5.8
5/27/2021 11:00:00 PM 21.49 70.682 0.705 7.86 13.45 5.73
5/27/2021 11:15:00 PM 21.41 70.538 0.698 7.85 8.2 5.75
5/27/2021 11:30:00 PM 21.33 70.394 0.699 7.85 7.13 5.66
5/27/2021 11:45:00 PM 21.26 70.268 0.7 7.84 8.86 5.66
5/28/2021 12:00:00 AM 21.19 70.142 0.699 7.84 8.83 5.66
5/28/2021 12:15:00 AM 21.12 70.016 0.698 7.84 7.72 5.66
5/28/2021 12:30:00 AM 21.06 69.908 0.698 7.83 7.37 5.62
5/28/2021 12:45:00 AM 20.99 69.782 0.698 7.82 7.13 5.6
5/28/2021 1:00:00 AM 20.92 69.656 0.698 7.82 6.68 5.65
5/28/2021 1:15:00 AM 20.85 69.53 0.698 7.82 6.41 5.64
5/28/2021 1:30:00 AM 20.79 69.422 0.698 7.81 7.99 5.59
5/28/2021 1:45:00 AM 20.72 69.296 0.669 7.82 7.86 5.62
5/28/2021 2:00:00 AM 20.66 69.188 0.668 7.81 8.33 5.62
5/28/2021 2:15:00 AM 20.6 69.08 0.675 7.81 9.84 5.66
5/28/2021 2:30:00 AM 20.55 68.99 0.688 7.81 8.18 5.57
5/28/2021 2:45:00 AM 20.5 68.9 0.671 7.82 7.57 5.65
5/28/2021 3:00:00 AM 20.45 68.81 0.673 7.81 7.69 5.66
5/28/2021 3:15:00 AM 20.4 68.72 0.669 7.81 11.44 5.66
5/28/2021 3:30:00 AM 20.35 68.63 0.688 7.8 7 5.63
5/28/2021 3:45:00 AM 20.29 68.522 0.688 7.81 7.76 5.64
5/28/2021 4:00:00 AM 20.23 68.414 0.703 7.81 8.45 5.63
5/28/2021 4:15:00 AM 20.18 68.324 0.705 7.81 6.85 5.69
5/28/2021 4:30:00 AM 20.12 68.216 0.672 7.81 5.26 5.65
5/28/2021 4:45:00 AM 20.06 68.108 0.704 7.81 5.35 5.64
5/28/2021 5:00:00 AM 20.01 68.018 0.705 7.81 5.23 5.64
5/28/2021 5:15:00 AM 19.96 67.92799 0.706 7.81 5.11 5.64
5/28/2021 5:30:00 AM 19.9 67.82 0.707 7.81 6.32 5.67
5/28/2021 5:45:00 AM 19.83 67.694 0.708 7.8 7.3 5.71
5/28/2021 6:00:00 AM 19.77 67.586 0.71 7.8 6.68 5.62
5/28/2021 6:15:00 AM 19.71 67.478 0.708 7.79 6.84 5.7
5/28/2021 6:30:00 AM 19.65 67.37 0.709 7.79 5.99 5.69
5/28/2021 6:45:00 AM 19.61 67.298 0.71 7.8 6.91 5.75
5/28/2021 7:00:00 AM 19.58 67.244 0.704 7.8 6.24 5.78
5/28/2021 7:15:00 AM 19.55 67.19 0.705 7.81 11.1 5.86
5/28/2021 7:30:00 AM 19.51 67.118 0.714 7.82 5.09 5.84
5/28/2021 7:45:00 AM 19.46 67.028 0.701 7.83 5.46 5.89
5/28/2021 8:00:00 AM 19.4 66.92 0.702 7.82 5.89 5.89
5/28/2021 8:15:00 AM 19.4 66.92 0.712 7.84 4.52 6
5/28/2021 8:30:00 AM 19.4 66.92 0.716 7.85 5.26 6.01
5/28/2021 8:45:00 AM 19.4 66.92 0.717 7.86 4.4 6.04
5/28/2021 9:00:00 AM 19.4 66.92 0.718 7.86 5.91 6.15
5/28/2021 9:15:00 AM 19.41 66.938 0.719 7.86 4.76 6.2
5/28/2021 9:30:00 AM 19.43 66.974 0.72 7.87 4.03 6.32
5/28/2021 9:45:00 AM 19.45 67.01 0.721 7.88 4.18 6.41
5/28/2021 10:00:00 AM 19.45 67.01 0.725 7.88 4.5 6.49
5/28/2021 10:15:00 AM 19.51 67.118 0.724 7.89 5.62 6.67